<?xml version="1.0" encoding="UTF-8" standalone="no" ?>
<gpx xmlns="http://www.topografix.com/GPX/1/1" xmlns:xsi="http://www.w3.org/2001/XMLSchema-instance" xsi:schemaLocation="http://www.topografix.com/GPX/1/1 http://www.topografix.com/GPX/1/1/gpx.xsd" version="1.1" creator="VisuGPX - https://www.visugpx.com">
  <metadata>
    <name>Le Mont Poupet par le fort Belin</name>
    <desc><![CDATA[Rando pédestre depuis Salins, le Fort Belin, le GR 59, puis descente sur Saint-Thiébaud et retour Salins : 6h de marche.]]></desc>
  </metadata>
  <trk>
    <name><![CDATA[23 MAI 2010 09:13]]></name>
    <trkseg>
      <trkpt lat="46.93222" lon="5.87933">
        <ele>350</ele>
        <time>2010-05-23T07:13:23Z</time>
      </trkpt>
      <trkpt lat="46.93223" lon="5.87936">
        <ele>350</ele>
        <time>2010-05-23T07:14:04Z</time>
      </trkpt>
      <trkpt lat="46.93223" lon="5.87935">
        <ele>350</ele>
        <time>2010-05-23T07:14:34Z</time>
      </trkpt>
      <trkpt lat="46.93224" lon="5.87935">
        <ele>350</ele>
        <time>2010-05-23T07:14:43Z</time>
      </trkpt>
      <trkpt lat="46.93229" lon="5.87942">
        <ele>350</ele>
        <time>2010-05-23T07:14:51Z</time>
      </trkpt>
      <trkpt lat="46.93238" lon="5.87958">
        <ele>350</ele>
        <time>2010-05-23T07:15:01Z</time>
      </trkpt>
      <trkpt lat="46.93241" lon="5.8796">
        <ele>350</ele>
        <time>2010-05-23T07:15:03Z</time>
      </trkpt>
      <trkpt lat="46.9324" lon="5.87978">
        <ele>350</ele>
        <time>2010-05-23T07:15:20Z</time>
      </trkpt>
      <trkpt lat="46.93236" lon="5.88011">
        <ele>351</ele>
        <time>2010-05-23T07:15:32Z</time>
      </trkpt>
      <trkpt lat="46.93235" lon="5.88015">
        <ele>351</ele>
        <time>2010-05-23T07:15:34Z</time>
      </trkpt>
      <trkpt lat="46.93234" lon="5.88017">
        <ele>351</ele>
        <time>2010-05-23T07:15:35Z</time>
      </trkpt>
      <trkpt lat="46.93233" lon="5.8802">
        <ele>351</ele>
        <time>2010-05-23T07:15:36Z</time>
      </trkpt>
      <trkpt lat="46.93223" lon="5.88045">
        <ele>352</ele>
        <time>2010-05-23T07:15:53Z</time>
      </trkpt>
      <trkpt lat="46.93219" lon="5.88058">
        <ele>352</ele>
        <time>2010-05-23T07:16:02Z</time>
      </trkpt>
      <trkpt lat="46.93221" lon="5.88062">
        <ele>352</ele>
        <time>2010-05-23T07:16:17Z</time>
      </trkpt>
      <trkpt lat="46.93222" lon="5.8806">
        <ele>352</ele>
        <time>2010-05-23T07:16:18Z</time>
      </trkpt>
      <trkpt lat="46.93231" lon="5.88042">
        <ele>352</ele>
        <time>2010-05-23T07:16:28Z</time>
      </trkpt>
      <trkpt lat="46.93239" lon="5.88011">
        <ele>351</ele>
        <time>2010-05-23T07:16:42Z</time>
      </trkpt>
      <trkpt lat="46.93239" lon="5.88017">
        <ele>351</ele>
        <time>2010-05-23T07:16:52Z</time>
      </trkpt>
      <trkpt lat="46.93235" lon="5.88021">
        <ele>351</ele>
        <time>2010-05-23T07:16:55Z</time>
      </trkpt>
      <trkpt lat="46.93234" lon="5.88022">
        <ele>351</ele>
        <time>2010-05-23T07:16:56Z</time>
      </trkpt>
      <trkpt lat="46.93233" lon="5.88024">
        <ele>351</ele>
        <time>2010-05-23T07:16:57Z</time>
      </trkpt>
      <trkpt lat="46.93219" lon="5.88061">
        <ele>352</ele>
        <time>2010-05-23T07:17:13Z</time>
      </trkpt>
      <trkpt lat="46.93209" lon="5.88087">
        <ele>354</ele>
        <time>2010-05-23T07:17:27Z</time>
      </trkpt>
      <trkpt lat="46.93207" lon="5.88099">
        <ele>354</ele>
        <time>2010-05-23T07:17:36Z</time>
      </trkpt>
      <trkpt lat="46.93205" lon="5.88117">
        <ele>354</ele>
        <time>2010-05-23T07:17:47Z</time>
      </trkpt>
      <trkpt lat="46.93186" lon="5.88153">
        <ele>352</ele>
        <time>2010-05-23T07:18:02Z</time>
      </trkpt>
      <trkpt lat="46.93173" lon="5.88172">
        <ele>350</ele>
        <time>2010-05-23T07:18:15Z</time>
      </trkpt>
      <trkpt lat="46.93167" lon="5.88191">
        <ele>354</ele>
        <time>2010-05-23T07:18:26Z</time>
      </trkpt>
      <trkpt lat="46.93163" lon="5.88196">
        <ele>351</ele>
        <time>2010-05-23T07:18:30Z</time>
      </trkpt>
      <trkpt lat="46.93161" lon="5.88198">
        <ele>351</ele>
        <time>2010-05-23T07:18:31Z</time>
      </trkpt>
      <trkpt lat="46.93157" lon="5.88208">
        <ele>352</ele>
        <time>2010-05-23T07:18:37Z</time>
      </trkpt>
      <trkpt lat="46.93155" lon="5.8821">
        <ele>352</ele>
        <time>2010-05-23T07:18:38Z</time>
      </trkpt>
      <trkpt lat="46.93154" lon="5.88211">
        <ele>352</ele>
        <time>2010-05-23T07:18:39Z</time>
      </trkpt>
      <trkpt lat="46.9314" lon="5.8823">
        <ele>353</ele>
        <time>2010-05-23T07:18:54Z</time>
      </trkpt>
      <trkpt lat="46.93128" lon="5.88252">
        <ele>357</ele>
        <time>2010-05-23T07:19:09Z</time>
      </trkpt>
      <trkpt lat="46.9313" lon="5.88262">
        <ele>357</ele>
        <time>2010-05-23T07:19:19Z</time>
      </trkpt>
      <trkpt lat="46.93137" lon="5.88273">
        <ele>358</ele>
        <time>2010-05-23T07:19:33Z</time>
      </trkpt>
      <trkpt lat="46.93134" lon="5.88276">
        <ele>358</ele>
        <time>2010-05-23T07:19:39Z</time>
      </trkpt>
      <trkpt lat="46.93134" lon="5.88285">
        <ele>358</ele>
        <time>2010-05-23T07:19:48Z</time>
      </trkpt>
      <trkpt lat="46.93135" lon="5.88286">
        <ele>358</ele>
        <time>2010-05-23T07:19:49Z</time>
      </trkpt>
      <trkpt lat="46.93136" lon="5.88288">
        <ele>359</ele>
        <time>2010-05-23T07:19:50Z</time>
      </trkpt>
      <trkpt lat="46.93147" lon="5.88299">
        <ele>360</ele>
        <time>2010-05-23T07:20:03Z</time>
      </trkpt>
      <trkpt lat="46.93151" lon="5.88302">
        <ele>360</ele>
        <time>2010-05-23T07:20:09Z</time>
      </trkpt>
      <trkpt lat="46.93158" lon="5.88303">
        <ele>361</ele>
        <time>2010-05-23T07:20:25Z</time>
      </trkpt>
      <trkpt lat="46.93172" lon="5.88299">
        <ele>366</ele>
        <time>2010-05-23T07:20:37Z</time>
      </trkpt>
      <trkpt lat="46.93184" lon="5.88299">
        <ele>366</ele>
        <time>2010-05-23T07:20:47Z</time>
      </trkpt>
      <trkpt lat="46.93196" lon="5.88309">
        <ele>367</ele>
        <time>2010-05-23T07:21:00Z</time>
      </trkpt>
      <trkpt lat="46.93203" lon="5.88312">
        <ele>368</ele>
        <time>2010-05-23T07:21:06Z</time>
      </trkpt>
      <trkpt lat="46.93211" lon="5.88311">
        <ele>368</ele>
        <time>2010-05-23T07:21:14Z</time>
      </trkpt>
      <trkpt lat="46.93224" lon="5.88302">
        <ele>369</ele>
        <time>2010-05-23T07:21:29Z</time>
      </trkpt>
      <trkpt lat="46.93237" lon="5.88294">
        <ele>369</ele>
        <time>2010-05-23T07:21:43Z</time>
      </trkpt>
      <trkpt lat="46.93238" lon="5.88293">
        <ele>369</ele>
        <time>2010-05-23T07:21:44Z</time>
      </trkpt>
      <trkpt lat="46.93245" lon="5.88282">
        <ele>369</ele>
        <time>2010-05-23T07:21:54Z</time>
      </trkpt>
      <trkpt lat="46.93249" lon="5.88276">
        <ele>369</ele>
        <time>2010-05-23T07:21:59Z</time>
      </trkpt>
      <trkpt lat="46.9325" lon="5.88275">
        <ele>369</ele>
        <time>2010-05-23T07:22:00Z</time>
      </trkpt>
      <trkpt lat="46.93253" lon="5.88266">
        <ele>381</ele>
        <time>2010-05-23T07:22:06Z</time>
      </trkpt>
      <trkpt lat="46.93255" lon="5.88265">
        <ele>381</ele>
        <time>2010-05-23T07:22:07Z</time>
      </trkpt>
      <trkpt lat="46.93256" lon="5.8826">
        <ele>379</ele>
        <time>2010-05-23T07:22:11Z</time>
      </trkpt>
      <trkpt lat="46.93257" lon="5.88259">
        <ele>379</ele>
        <time>2010-05-23T07:22:12Z</time>
      </trkpt>
      <trkpt lat="46.93259" lon="5.88253">
        <ele>379</ele>
        <time>2010-05-23T07:22:18Z</time>
      </trkpt>
      <trkpt lat="46.9326" lon="5.88252">
        <ele>379</ele>
        <time>2010-05-23T07:22:19Z</time>
      </trkpt>
      <trkpt lat="46.93261" lon="5.8825">
        <ele>377</ele>
        <time>2010-05-23T07:22:20Z</time>
      </trkpt>
      <trkpt lat="46.93266" lon="5.88236">
        <ele>380</ele>
        <time>2010-05-23T07:22:34Z</time>
      </trkpt>
      <trkpt lat="46.93267" lon="5.88228">
        <ele>381</ele>
        <time>2010-05-23T07:22:46Z</time>
      </trkpt>
      <trkpt lat="46.9327" lon="5.88207">
        <ele>382</ele>
        <time>2010-05-23T07:22:58Z</time>
      </trkpt>
      <trkpt lat="46.93278" lon="5.88191">
        <ele>382</ele>
        <time>2010-05-23T07:23:11Z</time>
      </trkpt>
      <trkpt lat="46.93283" lon="5.88178">
        <ele>382</ele>
        <time>2010-05-23T07:23:21Z</time>
      </trkpt>
      <trkpt lat="46.93291" lon="5.88161">
        <ele>379</ele>
        <time>2010-05-23T07:23:34Z</time>
      </trkpt>
      <trkpt lat="46.933" lon="5.88149">
        <ele>381</ele>
        <time>2010-05-23T07:23:47Z</time>
      </trkpt>
      <trkpt lat="46.93305" lon="5.88145">
        <ele>382</ele>
        <time>2010-05-23T07:23:51Z</time>
      </trkpt>
      <trkpt lat="46.93316" lon="5.88137">
        <ele>383</ele>
        <time>2010-05-23T07:24:02Z</time>
      </trkpt>
      <trkpt lat="46.93327" lon="5.88129">
        <ele>383</ele>
        <time>2010-05-23T07:24:15Z</time>
      </trkpt>
      <trkpt lat="46.93339" lon="5.8812">
        <ele>400</ele>
        <time>2010-05-23T07:24:28Z</time>
      </trkpt>
      <trkpt lat="46.93353" lon="5.88099">
        <ele>399</ele>
        <time>2010-05-23T07:24:47Z</time>
      </trkpt>
      <trkpt lat="46.93363" lon="5.88084">
        <ele>400</ele>
        <time>2010-05-23T07:25:02Z</time>
      </trkpt>
      <trkpt lat="46.9339" lon="5.88084">
        <ele>403</ele>
        <time>2010-05-23T07:25:22Z</time>
      </trkpt>
      <trkpt lat="46.93404" lon="5.88079">
        <ele>397</ele>
        <time>2010-05-23T07:25:35Z</time>
      </trkpt>
      <trkpt lat="46.93418" lon="5.88075">
        <ele>404</ele>
        <time>2010-05-23T07:25:48Z</time>
      </trkpt>
      <trkpt lat="46.93419" lon="5.88075">
        <ele>404</ele>
        <time>2010-05-23T07:25:49Z</time>
      </trkpt>
      <trkpt lat="46.93419" lon="5.88073">
        <ele>404</ele>
        <time>2010-05-23T07:25:50Z</time>
      </trkpt>
      <trkpt lat="46.9343" lon="5.88064">
        <ele>405</ele>
        <time>2010-05-23T07:26:05Z</time>
      </trkpt>
      <trkpt lat="46.93439" lon="5.88062">
        <ele>405</ele>
        <time>2010-05-23T07:26:15Z</time>
      </trkpt>
      <trkpt lat="46.93452" lon="5.88059">
        <ele>407</ele>
        <time>2010-05-23T07:26:25Z</time>
      </trkpt>
      <trkpt lat="46.93465" lon="5.88056">
        <ele>409</ele>
        <time>2010-05-23T07:26:36Z</time>
      </trkpt>
      <trkpt lat="46.93484" lon="5.88046">
        <ele>410</ele>
        <time>2010-05-23T07:26:58Z</time>
      </trkpt>
      <trkpt lat="46.93528" lon="5.88018">
        <ele>416</ele>
        <time>2010-05-23T07:27:39Z</time>
      </trkpt>
      <trkpt lat="46.93556" lon="5.88003">
        <ele>416</ele>
        <time>2010-05-23T07:28:01Z</time>
      </trkpt>
      <trkpt lat="46.93567" lon="5.87996">
        <ele>401</ele>
        <time>2010-05-23T07:28:15Z</time>
      </trkpt>
      <trkpt lat="46.93598" lon="5.87988">
        <ele>404</ele>
        <time>2010-05-23T07:28:34Z</time>
      </trkpt>
      <trkpt lat="46.93614" lon="5.87981">
        <ele>403</ele>
        <time>2010-05-23T07:28:53Z</time>
      </trkpt>
      <trkpt lat="46.93627" lon="5.87985">
        <ele>404</ele>
        <time>2010-05-23T07:29:31Z</time>
      </trkpt>
      <trkpt lat="46.93632" lon="5.87982">
        <ele>404</ele>
        <time>2010-05-23T07:29:49Z</time>
      </trkpt>
      <trkpt lat="46.93648" lon="5.87995">
        <ele>409</ele>
        <time>2010-05-23T07:30:39Z</time>
      </trkpt>
      <trkpt lat="46.93654" lon="5.88022">
        <ele>426</ele>
        <time>2010-05-23T07:31:22Z</time>
      </trkpt>
      <trkpt lat="46.93644" lon="5.88037">
        <ele>429</ele>
        <time>2010-05-23T07:31:43Z</time>
      </trkpt>
      <trkpt lat="46.93637" lon="5.88044">
        <ele>431</ele>
        <time>2010-05-23T07:31:58Z</time>
      </trkpt>
      <trkpt lat="46.93638" lon="5.88043">
        <ele>430</ele>
        <time>2010-05-23T07:31:59Z</time>
      </trkpt>
      <trkpt lat="46.93652" lon="5.88052">
        <ele>433</ele>
        <time>2010-05-23T07:32:19Z</time>
      </trkpt>
      <trkpt lat="46.93671" lon="5.88055">
        <ele>433</ele>
        <time>2010-05-23T07:32:39Z</time>
      </trkpt>
      <trkpt lat="46.93685" lon="5.8806">
        <ele>433</ele>
        <time>2010-05-23T07:33:00Z</time>
      </trkpt>
      <trkpt lat="46.93703" lon="5.88109">
        <ele>451</ele>
        <time>2010-05-23T07:33:51Z</time>
      </trkpt>
      <trkpt lat="46.93713" lon="5.88108">
        <ele>450</ele>
        <time>2010-05-23T07:34:00Z</time>
      </trkpt>
      <trkpt lat="46.93727" lon="5.88108">
        <ele>448</ele>
        <time>2010-05-23T07:34:27Z</time>
      </trkpt>
      <trkpt lat="46.93738" lon="5.88104">
        <ele>446</ele>
        <time>2010-05-23T07:34:36Z</time>
      </trkpt>
      <trkpt lat="46.93742" lon="5.88101">
        <ele>445</ele>
        <time>2010-05-23T07:34:40Z</time>
      </trkpt>
      <trkpt lat="46.93746" lon="5.8809">
        <ele>440</ele>
        <time>2010-05-23T07:34:49Z</time>
      </trkpt>
      <trkpt lat="46.93753" lon="5.881">
        <ele>438</ele>
        <time>2010-05-23T07:35:02Z</time>
      </trkpt>
      <trkpt lat="46.93753" lon="5.88161">
        <ele>452</ele>
        <time>2010-05-23T07:35:50Z</time>
      </trkpt>
      <trkpt lat="46.93745" lon="5.88162">
        <ele>455</ele>
        <time>2010-05-23T07:36:09Z</time>
      </trkpt>
      <trkpt lat="46.93749" lon="5.88194">
        <ele>472</ele>
        <time>2010-05-23T07:37:15Z</time>
      </trkpt>
      <trkpt lat="46.93783" lon="5.88258">
        <ele>479</ele>
        <time>2010-05-23T07:39:25Z</time>
      </trkpt>
      <trkpt lat="46.9379" lon="5.88267">
        <ele>479</ele>
        <time>2010-05-23T07:40:03Z</time>
      </trkpt>
      <trkpt lat="46.93785" lon="5.88262">
        <ele>479</ele>
        <time>2010-05-23T07:40:17Z</time>
      </trkpt>
      <trkpt lat="46.93777" lon="5.88263">
        <ele>480</ele>
        <time>2010-05-23T07:40:27Z</time>
      </trkpt>
      <trkpt lat="46.93755" lon="5.88257">
        <ele>481</ele>
        <time>2010-05-23T07:40:47Z</time>
      </trkpt>
      <trkpt lat="46.93721" lon="5.8824">
        <ele>483</ele>
        <time>2010-05-23T07:41:43Z</time>
      </trkpt>
      <trkpt lat="46.93705" lon="5.88235">
        <ele>486</ele>
        <time>2010-05-23T07:42:00Z</time>
      </trkpt>
      <trkpt lat="46.93695" lon="5.88227">
        <ele>487</ele>
        <time>2010-05-23T07:42:15Z</time>
      </trkpt>
      <trkpt lat="46.93688" lon="5.88232">
        <ele>490</ele>
        <time>2010-05-23T07:42:25Z</time>
      </trkpt>
      <trkpt lat="46.9368" lon="5.88227">
        <ele>491</ele>
        <time>2010-05-23T07:42:38Z</time>
      </trkpt>
      <trkpt lat="46.93669" lon="5.88219">
        <ele>489</ele>
        <time>2010-05-23T07:42:51Z</time>
      </trkpt>
      <trkpt lat="46.93658" lon="5.88217">
        <ele>503</ele>
        <time>2010-05-23T07:43:08Z</time>
      </trkpt>
      <trkpt lat="46.93625" lon="5.88205">
        <ele>503</ele>
        <time>2010-05-23T07:43:54Z</time>
      </trkpt>
      <trkpt lat="46.93606" lon="5.88198">
        <ele>503</ele>
        <time>2010-05-23T07:44:17Z</time>
      </trkpt>
      <trkpt lat="46.936" lon="5.88193">
        <ele>502</ele>
        <time>2010-05-23T07:44:34Z</time>
      </trkpt>
      <trkpt lat="46.93596" lon="5.88182">
        <ele>499</ele>
        <time>2010-05-23T07:44:48Z</time>
      </trkpt>
      <trkpt lat="46.93603" lon="5.88198">
        <ele>503</ele>
        <time>2010-05-23T07:45:50Z</time>
      </trkpt>
      <trkpt lat="46.93623" lon="5.8827">
        <ele>537</ele>
        <time>2010-05-23T07:48:09Z</time>
      </trkpt>
      <trkpt lat="46.9362" lon="5.88281">
        <ele>539</ele>
        <time>2010-05-23T07:48:56Z</time>
      </trkpt>
      <trkpt lat="46.9362" lon="5.883">
        <ele>543</ele>
        <time>2010-05-23T07:49:19Z</time>
      </trkpt>
      <trkpt lat="46.93636" lon="5.88344">
        <ele>558</ele>
        <time>2010-05-23T07:50:20Z</time>
      </trkpt>
      <trkpt lat="46.93681" lon="5.88401">
        <ele>552</ele>
        <time>2010-05-23T07:52:09Z</time>
      </trkpt>
      <trkpt lat="46.93674" lon="5.88391">
        <ele>550</ele>
        <time>2010-05-23T07:52:40Z</time>
      </trkpt>
      <trkpt lat="46.93666" lon="5.8839">
        <ele>562</ele>
        <time>2010-05-23T07:52:57Z</time>
      </trkpt>
      <trkpt lat="46.93651" lon="5.88387">
        <ele>562</ele>
        <time>2010-05-23T07:53:33Z</time>
      </trkpt>
      <trkpt lat="46.93643" lon="5.88384">
        <ele>562</ele>
        <time>2010-05-23T07:53:54Z</time>
      </trkpt>
      <trkpt lat="46.93632" lon="5.88376">
        <ele>561</ele>
        <time>2010-05-23T07:54:16Z</time>
      </trkpt>
      <trkpt lat="46.93626" lon="5.8837">
        <ele>561</ele>
        <time>2010-05-23T07:54:36Z</time>
      </trkpt>
      <trkpt lat="46.93624" lon="5.8837">
        <ele>562</ele>
        <time>2010-05-23T07:54:56Z</time>
      </trkpt>
      <trkpt lat="46.93615" lon="5.88376">
        <ele>562</ele>
        <time>2010-05-23T07:56:48Z</time>
      </trkpt>
      <trkpt lat="46.93605" lon="5.88376">
        <ele>563</ele>
        <time>2010-05-23T07:57:00Z</time>
      </trkpt>
      <trkpt lat="46.936" lon="5.88379">
        <ele>563</ele>
        <time>2010-05-23T07:57:07Z</time>
      </trkpt>
      <trkpt lat="46.936" lon="5.88395">
        <ele>564</ele>
        <time>2010-05-23T07:57:23Z</time>
      </trkpt>
      <trkpt lat="46.93602" lon="5.88397">
        <ele>564</ele>
        <time>2010-05-23T07:57:39Z</time>
      </trkpt>
      <trkpt lat="46.93605" lon="5.88401">
        <ele>564</ele>
        <time>2010-05-23T07:58:00Z</time>
      </trkpt>
      <trkpt lat="46.93607" lon="5.88402">
        <ele>564</ele>
        <time>2010-05-23T07:58:19Z</time>
      </trkpt>
      <trkpt lat="46.93617" lon="5.8841">
        <ele>563</ele>
        <time>2010-05-23T07:58:31Z</time>
      </trkpt>
      <trkpt lat="46.93623" lon="5.88422">
        <ele>564</ele>
        <time>2010-05-23T07:58:49Z</time>
      </trkpt>
      <trkpt lat="46.93641" lon="5.88438">
        <ele>565</ele>
        <time>2010-05-23T07:59:08Z</time>
      </trkpt>
      <trkpt lat="46.9366" lon="5.8845">
        <ele>566</ele>
        <time>2010-05-23T07:59:21Z</time>
      </trkpt>
      <trkpt lat="46.93662" lon="5.88458">
        <ele>566</ele>
        <time>2010-05-23T07:59:31Z</time>
      </trkpt>
      <trkpt lat="46.93679" lon="5.88476">
        <ele>567</ele>
        <time>2010-05-23T07:59:51Z</time>
      </trkpt>
      <trkpt lat="46.9369" lon="5.88492">
        <ele>567</ele>
        <time>2010-05-23T08:00:09Z</time>
      </trkpt>
      <trkpt lat="46.93698" lon="5.88504">
        <ele>572</ele>
        <time>2010-05-23T08:00:32Z</time>
      </trkpt>
      <trkpt lat="46.93703" lon="5.88514">
        <ele>571</ele>
        <time>2010-05-23T08:00:45Z</time>
      </trkpt>
      <trkpt lat="46.93709" lon="5.88523">
        <ele>571</ele>
        <time>2010-05-23T08:00:54Z</time>
      </trkpt>
      <trkpt lat="46.93715" lon="5.88539">
        <ele>572</ele>
        <time>2010-05-23T08:01:09Z</time>
      </trkpt>
      <trkpt lat="46.93723" lon="5.88552">
        <ele>573</ele>
        <time>2010-05-23T08:01:25Z</time>
      </trkpt>
      <trkpt lat="46.93733" lon="5.88562">
        <ele>575</ele>
        <time>2010-05-23T08:01:35Z</time>
      </trkpt>
      <trkpt lat="46.93739" lon="5.88569">
        <ele>577</ele>
        <time>2010-05-23T08:01:48Z</time>
      </trkpt>
      <trkpt lat="46.93749" lon="5.88594">
        <ele>580</ele>
        <time>2010-05-23T08:03:07Z</time>
      </trkpt>
      <trkpt lat="46.93747" lon="5.88623">
        <ele>579</ele>
        <time>2010-05-23T08:03:20Z</time>
      </trkpt>
      <trkpt lat="46.93754" lon="5.88645">
        <ele>588</ele>
        <time>2010-05-23T08:03:34Z</time>
      </trkpt>
      <trkpt lat="46.93763" lon="5.88658">
        <ele>590</ele>
        <time>2010-05-23T08:03:45Z</time>
      </trkpt>
      <trkpt lat="46.9377" lon="5.88668">
        <ele>599</ele>
        <time>2010-05-23T08:03:56Z</time>
      </trkpt>
      <trkpt lat="46.93774" lon="5.88673">
        <ele>599</ele>
        <time>2010-05-23T08:04:03Z</time>
      </trkpt>
      <trkpt lat="46.93784" lon="5.88684">
        <ele>601</ele>
        <time>2010-05-23T08:04:14Z</time>
      </trkpt>
      <trkpt lat="46.93791" lon="5.88695">
        <ele>602</ele>
        <time>2010-05-23T08:04:26Z</time>
      </trkpt>
      <trkpt lat="46.93802" lon="5.88709">
        <ele>604</ele>
        <time>2010-05-23T08:04:39Z</time>
      </trkpt>
      <trkpt lat="46.93813" lon="5.88722">
        <ele>606</ele>
        <time>2010-05-23T08:04:52Z</time>
      </trkpt>
      <trkpt lat="46.93817" lon="5.88728">
        <ele>607</ele>
        <time>2010-05-23T08:04:57Z</time>
      </trkpt>
      <trkpt lat="46.93822" lon="5.88736">
        <ele>609</ele>
        <time>2010-05-23T08:05:02Z</time>
      </trkpt>
      <trkpt lat="46.93833" lon="5.88739">
        <ele>611</ele>
        <time>2010-05-23T08:05:16Z</time>
      </trkpt>
      <trkpt lat="46.93846" lon="5.8875">
        <ele>618</ele>
        <time>2010-05-23T08:05:28Z</time>
      </trkpt>
      <trkpt lat="46.93853" lon="5.88758">
        <ele>619</ele>
        <time>2010-05-23T08:05:37Z</time>
      </trkpt>
      <trkpt lat="46.93864" lon="5.88765">
        <ele>619</ele>
        <time>2010-05-23T08:05:51Z</time>
      </trkpt>
      <trkpt lat="46.93871" lon="5.88771">
        <ele>619</ele>
        <time>2010-05-23T08:06:02Z</time>
      </trkpt>
      <trkpt lat="46.93878" lon="5.88783">
        <ele>620</ele>
        <time>2010-05-23T08:06:18Z</time>
      </trkpt>
      <trkpt lat="46.9389" lon="5.88799">
        <ele>621</ele>
        <time>2010-05-23T08:06:32Z</time>
      </trkpt>
      <trkpt lat="46.93904" lon="5.88824">
        <ele>625</ele>
        <time>2010-05-23T08:07:12Z</time>
      </trkpt>
      <trkpt lat="46.93936" lon="5.88865">
        <ele>634</ele>
        <time>2010-05-23T08:07:41Z</time>
      </trkpt>
      <trkpt lat="46.93949" lon="5.88878">
        <ele>635</ele>
        <time>2010-05-23T08:07:50Z</time>
      </trkpt>
      <trkpt lat="46.93964" lon="5.88895">
        <ele>637</ele>
        <time>2010-05-23T08:08:02Z</time>
      </trkpt>
      <trkpt lat="46.9398" lon="5.88921">
        <ele>640</ele>
        <time>2010-05-23T08:08:16Z</time>
      </trkpt>
      <trkpt lat="46.93993" lon="5.8894">
        <ele>640</ele>
        <time>2010-05-23T08:08:30Z</time>
      </trkpt>
      <trkpt lat="46.93997" lon="5.88945">
        <ele>640</ele>
        <time>2010-05-23T08:08:34Z</time>
      </trkpt>
      <trkpt lat="46.93999" lon="5.88952">
        <ele>639</ele>
        <time>2010-05-23T08:08:38Z</time>
      </trkpt>
      <trkpt lat="46.94007" lon="5.88966">
        <ele>644</ele>
        <time>2010-05-23T08:08:50Z</time>
      </trkpt>
      <trkpt lat="46.9401" lon="5.88971">
        <ele>644</ele>
        <time>2010-05-23T08:08:54Z</time>
      </trkpt>
      <trkpt lat="46.94014" lon="5.88979">
        <ele>643</ele>
        <time>2010-05-23T08:08:58Z</time>
      </trkpt>
      <trkpt lat="46.9402" lon="5.88993">
        <ele>643</ele>
        <time>2010-05-23T08:09:09Z</time>
      </trkpt>
      <trkpt lat="46.94023" lon="5.88994">
        <ele>643</ele>
        <time>2010-05-23T08:09:11Z</time>
      </trkpt>
      <trkpt lat="46.94035" lon="5.89004">
        <ele>644</ele>
        <time>2010-05-23T08:09:24Z</time>
      </trkpt>
      <trkpt lat="46.94041" lon="5.89007">
        <ele>645</ele>
        <time>2010-05-23T08:09:31Z</time>
      </trkpt>
      <trkpt lat="46.94054" lon="5.89014">
        <ele>646</ele>
        <time>2010-05-23T08:09:42Z</time>
      </trkpt>
      <trkpt lat="46.94066" lon="5.89033">
        <ele>647</ele>
        <time>2010-05-23T08:09:58Z</time>
      </trkpt>
      <trkpt lat="46.94074" lon="5.89052">
        <ele>646</ele>
        <time>2010-05-23T08:10:09Z</time>
      </trkpt>
      <trkpt lat="46.94085" lon="5.89073">
        <ele>650</ele>
        <time>2010-05-23T08:10:24Z</time>
      </trkpt>
      <trkpt lat="46.94086" lon="5.89074">
        <ele>650</ele>
        <time>2010-05-23T08:10:25Z</time>
      </trkpt>
      <trkpt lat="46.94093" lon="5.8909">
        <ele>649</ele>
        <time>2010-05-23T08:10:35Z</time>
      </trkpt>
      <trkpt lat="46.941" lon="5.89104">
        <ele>650</ele>
        <time>2010-05-23T08:10:45Z</time>
      </trkpt>
      <trkpt lat="46.94103" lon="5.89109">
        <ele>650</ele>
        <time>2010-05-23T08:10:48Z</time>
      </trkpt>
      <trkpt lat="46.9411" lon="5.89127">
        <ele>650</ele>
        <time>2010-05-23T08:11:00Z</time>
      </trkpt>
      <trkpt lat="46.94116" lon="5.89145">
        <ele>650</ele>
        <time>2010-05-23T08:11:14Z</time>
      </trkpt>
      <trkpt lat="46.94126" lon="5.89161">
        <ele>651</ele>
        <time>2010-05-23T08:11:25Z</time>
      </trkpt>
      <trkpt lat="46.94138" lon="5.89176">
        <ele>649</ele>
        <time>2010-05-23T08:11:37Z</time>
      </trkpt>
      <trkpt lat="46.94149" lon="5.89194">
        <ele>649</ele>
        <time>2010-05-23T08:11:49Z</time>
      </trkpt>
      <trkpt lat="46.94153" lon="5.89199">
        <ele>649</ele>
        <time>2010-05-23T08:11:53Z</time>
      </trkpt>
      <trkpt lat="46.94155" lon="5.89205">
        <ele>648</ele>
        <time>2010-05-23T08:11:57Z</time>
      </trkpt>
      <trkpt lat="46.94158" lon="5.8921">
        <ele>648</ele>
        <time>2010-05-23T08:12:02Z</time>
      </trkpt>
      <trkpt lat="46.94162" lon="5.89221">
        <ele>647</ele>
        <time>2010-05-23T08:12:08Z</time>
      </trkpt>
      <trkpt lat="46.94169" lon="5.89236">
        <ele>651</ele>
        <time>2010-05-23T08:12:19Z</time>
      </trkpt>
      <trkpt lat="46.94178" lon="5.89261">
        <ele>649</ele>
        <time>2010-05-23T08:12:38Z</time>
      </trkpt>
      <trkpt lat="46.94189" lon="5.89278">
        <ele>651</ele>
        <time>2010-05-23T08:12:51Z</time>
      </trkpt>
      <trkpt lat="46.94191" lon="5.89281">
        <ele>651</ele>
        <time>2010-05-23T08:12:55Z</time>
      </trkpt>
      <trkpt lat="46.94197" lon="5.89292">
        <ele>651</ele>
        <time>2010-05-23T08:13:07Z</time>
      </trkpt>
      <trkpt lat="46.94197" lon="5.89292">
        <ele>651</ele>
        <time>2010-05-23T08:13:12Z</time>
      </trkpt>
      <trkpt lat="46.94203" lon="5.89309">
        <ele>651</ele>
        <time>2010-05-23T08:13:24Z</time>
      </trkpt>
      <trkpt lat="46.94204" lon="5.8931">
        <ele>651</ele>
        <time>2010-05-23T08:13:28Z</time>
      </trkpt>
      <trkpt lat="46.94212" lon="5.89316">
        <ele>652</ele>
        <time>2010-05-23T08:13:31Z</time>
      </trkpt>
      <trkpt lat="46.9423" lon="5.89348">
        <ele>650</ele>
        <time>2010-05-23T08:13:43Z</time>
      </trkpt>
      <trkpt lat="46.94244" lon="5.89358">
        <ele>650</ele>
        <time>2010-05-23T08:13:57Z</time>
      </trkpt>
      <trkpt lat="46.94255" lon="5.89374">
        <ele>655</ele>
        <time>2010-05-23T08:14:09Z</time>
      </trkpt>
      <trkpt lat="46.94265" lon="5.89383">
        <ele>654</ele>
        <time>2010-05-23T08:14:18Z</time>
      </trkpt>
      <trkpt lat="46.94283" lon="5.89401">
        <ele>655</ele>
        <time>2010-05-23T08:14:42Z</time>
      </trkpt>
      <trkpt lat="46.94308" lon="5.89422">
        <ele>651</ele>
        <time>2010-05-23T08:15:11Z</time>
      </trkpt>
      <trkpt lat="46.94333" lon="5.89439">
        <ele>652</ele>
        <time>2010-05-23T08:15:40Z</time>
      </trkpt>
      <trkpt lat="46.94345" lon="5.89441">
        <ele>662</ele>
        <time>2010-05-23T08:16:13Z</time>
      </trkpt>
      <trkpt lat="46.94341" lon="5.89423">
        <ele>661</ele>
        <time>2010-05-23T08:16:33Z</time>
      </trkpt>
      <trkpt lat="46.94299" lon="5.89279">
        <ele>670</ele>
        <time>2010-05-23T08:18:32Z</time>
      </trkpt>
      <trkpt lat="46.94294" lon="5.89264">
        <ele>671</ele>
        <time>2010-05-23T08:19:03Z</time>
      </trkpt>
      <trkpt lat="46.94283" lon="5.89251">
        <ele>670</ele>
        <time>2010-05-23T08:20:02Z</time>
      </trkpt>
      <trkpt lat="46.94272" lon="5.89232">
        <ele>673</ele>
        <time>2010-05-23T08:20:20Z</time>
      </trkpt>
      <trkpt lat="46.94264" lon="5.89213">
        <ele>674</ele>
        <time>2010-05-23T08:20:31Z</time>
      </trkpt>
      <trkpt lat="46.9425" lon="5.89165">
        <ele>672</ele>
        <time>2010-05-23T08:21:04Z</time>
      </trkpt>
      <trkpt lat="46.94244" lon="5.89133">
        <ele>666</ele>
        <time>2010-05-23T08:21:19Z</time>
      </trkpt>
      <trkpt lat="46.94256" lon="5.89132">
        <ele>672</ele>
        <time>2010-05-23T08:21:35Z</time>
      </trkpt>
      <trkpt lat="46.94259" lon="5.89132">
        <ele>672</ele>
        <time>2010-05-23T08:33:36Z</time>
      </trkpt>
      <trkpt lat="46.94278" lon="5.89146">
        <ele>673</ele>
        <time>2010-05-23T08:33:52Z</time>
      </trkpt>
      <trkpt lat="46.94285" lon="5.89155">
        <ele>674</ele>
        <time>2010-05-23T08:34:06Z</time>
      </trkpt>
      <trkpt lat="46.94295" lon="5.89166">
        <ele>675</ele>
        <time>2010-05-23T08:34:19Z</time>
      </trkpt>
      <trkpt lat="46.94305" lon="5.89175">
        <ele>678</ele>
        <time>2010-05-23T08:34:34Z</time>
      </trkpt>
      <trkpt lat="46.9431" lon="5.8919">
        <ele>678</ele>
        <time>2010-05-23T08:34:52Z</time>
      </trkpt>
      <trkpt lat="46.9432" lon="5.89204">
        <ele>678</ele>
        <time>2010-05-23T08:35:04Z</time>
      </trkpt>
      <trkpt lat="46.9433" lon="5.89216">
        <ele>679</ele>
        <time>2010-05-23T08:35:16Z</time>
      </trkpt>
      <trkpt lat="46.9434" lon="5.89231">
        <ele>683</ele>
        <time>2010-05-23T08:35:28Z</time>
      </trkpt>
      <trkpt lat="46.94348" lon="5.89242">
        <ele>683</ele>
        <time>2010-05-23T08:35:37Z</time>
      </trkpt>
      <trkpt lat="46.94356" lon="5.89258">
        <ele>684</ele>
        <time>2010-05-23T08:35:50Z</time>
      </trkpt>
      <trkpt lat="46.94363" lon="5.89269">
        <ele>684</ele>
        <time>2010-05-23T08:36:01Z</time>
      </trkpt>
      <trkpt lat="46.94366" lon="5.89277">
        <ele>684</ele>
        <time>2010-05-23T08:36:11Z</time>
      </trkpt>
      <trkpt lat="46.94376" lon="5.89292">
        <ele>685</ele>
        <time>2010-05-23T08:36:24Z</time>
      </trkpt>
      <trkpt lat="46.94389" lon="5.89311">
        <ele>686</ele>
        <time>2010-05-23T08:36:38Z</time>
      </trkpt>
      <trkpt lat="46.94395" lon="5.89321">
        <ele>687</ele>
        <time>2010-05-23T08:36:48Z</time>
      </trkpt>
      <trkpt lat="46.94403" lon="5.89328">
        <ele>689</ele>
        <time>2010-05-23T08:36:58Z</time>
      </trkpt>
      <trkpt lat="46.94409" lon="5.89334">
        <ele>689</ele>
        <time>2010-05-23T08:37:04Z</time>
      </trkpt>
      <trkpt lat="46.94413" lon="5.89341">
        <ele>688</ele>
        <time>2010-05-23T08:37:10Z</time>
      </trkpt>
      <trkpt lat="46.94418" lon="5.89351">
        <ele>692</ele>
        <time>2010-05-23T08:37:16Z</time>
      </trkpt>
      <trkpt lat="46.94427" lon="5.89366">
        <ele>692</ele>
        <time>2010-05-23T08:37:29Z</time>
      </trkpt>
      <trkpt lat="46.94428" lon="5.89369">
        <ele>692</ele>
        <time>2010-05-23T08:37:32Z</time>
      </trkpt>
      <trkpt lat="46.94431" lon="5.89371">
        <ele>692</ele>
        <time>2010-05-23T08:37:35Z</time>
      </trkpt>
      <trkpt lat="46.9444" lon="5.89393">
        <ele>691</ele>
        <time>2010-05-23T08:37:49Z</time>
      </trkpt>
      <trkpt lat="46.94441" lon="5.89396">
        <ele>691</ele>
        <time>2010-05-23T08:37:52Z</time>
      </trkpt>
      <trkpt lat="46.94448" lon="5.89406">
        <ele>691</ele>
        <time>2010-05-23T08:38:03Z</time>
      </trkpt>
      <trkpt lat="46.94458" lon="5.89423">
        <ele>688</ele>
        <time>2010-05-23T08:38:17Z</time>
      </trkpt>
      <trkpt lat="46.94467" lon="5.89437">
        <ele>689</ele>
        <time>2010-05-23T08:38:29Z</time>
      </trkpt>
      <trkpt lat="46.94468" lon="5.89437">
        <ele>689</ele>
        <time>2010-05-23T08:38:37Z</time>
      </trkpt>
      <trkpt lat="46.94472" lon="5.89444">
        <ele>689</ele>
        <time>2010-05-23T08:38:48Z</time>
      </trkpt>
      <trkpt lat="46.94479" lon="5.89439">
        <ele>690</ele>
        <time>2010-05-23T08:39:02Z</time>
      </trkpt>
      <trkpt lat="46.94487" lon="5.89431">
        <ele>693</ele>
        <time>2010-05-23T08:39:27Z</time>
      </trkpt>
      <trkpt lat="46.94492" lon="5.89429">
        <ele>694</ele>
        <time>2010-05-23T08:39:31Z</time>
      </trkpt>
      <trkpt lat="46.94491" lon="5.89435">
        <ele>692</ele>
        <time>2010-05-23T08:39:46Z</time>
      </trkpt>
      <trkpt lat="46.94491" lon="5.89435">
        <ele>692</ele>
        <time>2010-05-23T08:40:17Z</time>
      </trkpt>
      <trkpt lat="46.94502" lon="5.89443">
        <ele>699</ele>
        <time>2010-05-23T08:40:30Z</time>
      </trkpt>
      <trkpt lat="46.94502" lon="5.89444">
        <ele>699</ele>
        <time>2010-05-23T08:40:31Z</time>
      </trkpt>
      <trkpt lat="46.94513" lon="5.8946">
        <ele>698</ele>
        <time>2010-05-23T08:40:45Z</time>
      </trkpt>
      <trkpt lat="46.94525" lon="5.89474">
        <ele>698</ele>
        <time>2010-05-23T08:40:58Z</time>
      </trkpt>
      <trkpt lat="46.94538" lon="5.89487">
        <ele>698</ele>
        <time>2010-05-23T08:41:13Z</time>
      </trkpt>
      <trkpt lat="46.94552" lon="5.89503">
        <ele>697</ele>
        <time>2010-05-23T08:41:29Z</time>
      </trkpt>
      <trkpt lat="46.94564" lon="5.89517">
        <ele>697</ele>
        <time>2010-05-23T08:41:44Z</time>
      </trkpt>
      <trkpt lat="46.94569" lon="5.89523">
        <ele>697</ele>
        <time>2010-05-23T08:41:55Z</time>
      </trkpt>
      <trkpt lat="46.94578" lon="5.89538">
        <ele>697</ele>
        <time>2010-05-23T08:42:09Z</time>
      </trkpt>
      <trkpt lat="46.94585" lon="5.89552">
        <ele>702</ele>
        <time>2010-05-23T08:42:21Z</time>
      </trkpt>
      <trkpt lat="46.94586" lon="5.89553">
        <ele>702</ele>
        <time>2010-05-23T08:42:22Z</time>
      </trkpt>
      <trkpt lat="46.9459" lon="5.89563">
        <ele>701</ele>
        <time>2010-05-23T08:42:29Z</time>
      </trkpt>
      <trkpt lat="46.94592" lon="5.89567">
        <ele>701</ele>
        <time>2010-05-23T08:42:32Z</time>
      </trkpt>
      <trkpt lat="46.94599" lon="5.89581">
        <ele>701</ele>
        <time>2010-05-23T08:42:44Z</time>
      </trkpt>
      <trkpt lat="46.94607" lon="5.89596">
        <ele>700</ele>
        <time>2010-05-23T08:42:56Z</time>
      </trkpt>
      <trkpt lat="46.94609" lon="5.89603">
        <ele>700</ele>
        <time>2010-05-23T08:43:01Z</time>
      </trkpt>
      <trkpt lat="46.94605" lon="5.89623">
        <ele>699</ele>
        <time>2010-05-23T08:43:14Z</time>
      </trkpt>
      <trkpt lat="46.94603" lon="5.8963">
        <ele>698</ele>
        <time>2010-05-23T08:43:19Z</time>
      </trkpt>
      <trkpt lat="46.94605" lon="5.8965">
        <ele>696</ele>
        <time>2010-05-23T08:43:30Z</time>
      </trkpt>
      <trkpt lat="46.94607" lon="5.89654">
        <ele>696</ele>
        <time>2010-05-23T08:43:34Z</time>
      </trkpt>
      <trkpt lat="46.94611" lon="5.89656">
        <ele>697</ele>
        <time>2010-05-23T08:43:37Z</time>
      </trkpt>
      <trkpt lat="46.94618" lon="5.89666">
        <ele>697</ele>
        <time>2010-05-23T08:43:48Z</time>
      </trkpt>
      <trkpt lat="46.94627" lon="5.89679">
        <ele>693</ele>
        <time>2010-05-23T08:44:01Z</time>
      </trkpt>
      <trkpt lat="46.94634" lon="5.89695">
        <ele>693</ele>
        <time>2010-05-23T08:44:12Z</time>
      </trkpt>
      <trkpt lat="46.9464" lon="5.89703">
        <ele>693</ele>
        <time>2010-05-23T08:44:24Z</time>
      </trkpt>
      <trkpt lat="46.94645" lon="5.89708">
        <ele>693</ele>
        <time>2010-05-23T08:44:32Z</time>
      </trkpt>
      <trkpt lat="46.94659" lon="5.89721">
        <ele>693</ele>
        <time>2010-05-23T08:44:45Z</time>
      </trkpt>
      <trkpt lat="46.94661" lon="5.89724">
        <ele>693</ele>
        <time>2010-05-23T08:44:48Z</time>
      </trkpt>
      <trkpt lat="46.94666" lon="5.89732">
        <ele>693</ele>
        <time>2010-05-23T08:44:59Z</time>
      </trkpt>
      <trkpt lat="46.94672" lon="5.89741">
        <ele>698</ele>
        <time>2010-05-23T08:45:13Z</time>
      </trkpt>
      <trkpt lat="46.94681" lon="5.89755">
        <ele>694</ele>
        <time>2010-05-23T08:45:31Z</time>
      </trkpt>
      <trkpt lat="46.94694" lon="5.89779">
        <ele>693</ele>
        <time>2010-05-23T08:45:43Z</time>
      </trkpt>
      <trkpt lat="46.94702" lon="5.898">
        <ele>691</ele>
        <time>2010-05-23T08:45:53Z</time>
      </trkpt>
      <trkpt lat="46.94717" lon="5.89822">
        <ele>691</ele>
        <time>2010-05-23T08:46:10Z</time>
      </trkpt>
      <trkpt lat="46.94719" lon="5.89827">
        <ele>691</ele>
        <time>2010-05-23T08:46:14Z</time>
      </trkpt>
      <trkpt lat="46.94724" lon="5.8984">
        <ele>683</ele>
        <time>2010-05-23T08:46:25Z</time>
      </trkpt>
      <trkpt lat="46.94733" lon="5.89852">
        <ele>683</ele>
        <time>2010-05-23T08:46:35Z</time>
      </trkpt>
      <trkpt lat="46.94734" lon="5.89853">
        <ele>683</ele>
        <time>2010-05-23T08:46:36Z</time>
      </trkpt>
      <trkpt lat="46.94749" lon="5.89854">
        <ele>684</ele>
        <time>2010-05-23T08:46:49Z</time>
      </trkpt>
      <trkpt lat="46.94765" lon="5.89875">
        <ele>684</ele>
        <time>2010-05-23T08:47:04Z</time>
      </trkpt>
      <trkpt lat="46.94777" lon="5.89901">
        <ele>681</ele>
        <time>2010-05-23T08:47:19Z</time>
      </trkpt>
      <trkpt lat="46.94785" lon="5.8991">
        <ele>681</ele>
        <time>2010-05-23T08:47:33Z</time>
      </trkpt>
      <trkpt lat="46.94795" lon="5.89917">
        <ele>675</ele>
        <time>2010-05-23T08:47:43Z</time>
      </trkpt>
      <trkpt lat="46.94805" lon="5.8992">
        <ele>675</ele>
        <time>2010-05-23T08:47:56Z</time>
      </trkpt>
      <trkpt lat="46.94818" lon="5.89923">
        <ele>676</ele>
        <time>2010-05-23T08:48:09Z</time>
      </trkpt>
      <trkpt lat="46.9484" lon="5.8993">
        <ele>677</ele>
        <time>2010-05-23T08:48:22Z</time>
      </trkpt>
      <trkpt lat="46.94847" lon="5.8994">
        <ele>676</ele>
        <time>2010-05-23T08:48:29Z</time>
      </trkpt>
      <trkpt lat="46.94855" lon="5.89957">
        <ele>675</ele>
        <time>2010-05-23T08:48:41Z</time>
      </trkpt>
      <trkpt lat="46.94862" lon="5.89972">
        <ele>675</ele>
        <time>2010-05-23T08:48:54Z</time>
      </trkpt>
      <trkpt lat="46.94869" lon="5.89985">
        <ele>674</ele>
        <time>2010-05-23T08:49:06Z</time>
      </trkpt>
      <trkpt lat="46.94876" lon="5.90004">
        <ele>669</ele>
        <time>2010-05-23T08:49:20Z</time>
      </trkpt>
      <trkpt lat="46.94881" lon="5.90021">
        <ele>668</ele>
        <time>2010-05-23T08:49:31Z</time>
      </trkpt>
      <trkpt lat="46.94887" lon="5.90039">
        <ele>667</ele>
        <time>2010-05-23T08:49:42Z</time>
      </trkpt>
      <trkpt lat="46.94891" lon="5.90052">
        <ele>667</ele>
        <time>2010-05-23T08:49:50Z</time>
      </trkpt>
      <trkpt lat="46.94893" lon="5.90054">
        <ele>667</ele>
        <time>2010-05-23T08:49:54Z</time>
      </trkpt>
      <trkpt lat="46.94898" lon="5.90072">
        <ele>666</ele>
        <time>2010-05-23T08:50:05Z</time>
      </trkpt>
      <trkpt lat="46.94905" lon="5.90095">
        <ele>662</ele>
        <time>2010-05-23T08:50:17Z</time>
      </trkpt>
      <trkpt lat="46.94913" lon="5.90114">
        <ele>660</ele>
        <time>2010-05-23T08:50:29Z</time>
      </trkpt>
      <trkpt lat="46.94919" lon="5.90133">
        <ele>664</ele>
        <time>2010-05-23T08:50:41Z</time>
      </trkpt>
      <trkpt lat="46.94927" lon="5.90153">
        <ele>662</ele>
        <time>2010-05-23T08:50:55Z</time>
      </trkpt>
      <trkpt lat="46.94933" lon="5.90168">
        <ele>660</ele>
        <time>2010-05-23T08:51:05Z</time>
      </trkpt>
      <trkpt lat="46.94938" lon="5.90179">
        <ele>660</ele>
        <time>2010-05-23T08:51:17Z</time>
      </trkpt>
      <trkpt lat="46.94942" lon="5.90186">
        <ele>660</ele>
        <time>2010-05-23T08:51:24Z</time>
      </trkpt>
      <trkpt lat="46.94946" lon="5.90193">
        <ele>660</ele>
        <time>2010-05-23T08:51:27Z</time>
      </trkpt>
      <trkpt lat="46.94948" lon="5.90199">
        <ele>660</ele>
        <time>2010-05-23T08:51:30Z</time>
      </trkpt>
      <trkpt lat="46.94954" lon="5.9022">
        <ele>660</ele>
        <time>2010-05-23T08:51:44Z</time>
      </trkpt>
      <trkpt lat="46.94958" lon="5.90239">
        <ele>659</ele>
        <time>2010-05-23T08:51:52Z</time>
      </trkpt>
      <trkpt lat="46.94962" lon="5.90268">
        <ele>654</ele>
        <time>2010-05-23T08:52:06Z</time>
      </trkpt>
      <trkpt lat="46.94965" lon="5.90282">
        <ele>654</ele>
        <time>2010-05-23T08:52:16Z</time>
      </trkpt>
      <trkpt lat="46.94969" lon="5.90298">
        <ele>654</ele>
        <time>2010-05-23T08:52:27Z</time>
      </trkpt>
      <trkpt lat="46.94973" lon="5.90318">
        <ele>653</ele>
        <time>2010-05-23T08:52:40Z</time>
      </trkpt>
      <trkpt lat="46.94973" lon="5.90331">
        <ele>653</ele>
        <time>2010-05-23T08:52:47Z</time>
      </trkpt>
      <trkpt lat="46.94976" lon="5.90368">
        <ele>648</ele>
        <time>2010-05-23T08:53:02Z</time>
      </trkpt>
      <trkpt lat="46.9498" lon="5.90399">
        <ele>647</ele>
        <time>2010-05-23T08:53:20Z</time>
      </trkpt>
      <trkpt lat="46.94982" lon="5.90425">
        <ele>644</ele>
        <time>2010-05-23T08:53:36Z</time>
      </trkpt>
      <trkpt lat="46.94986" lon="5.90433">
        <ele>644</ele>
        <time>2010-05-23T08:53:43Z</time>
      </trkpt>
      <trkpt lat="46.94985" lon="5.9044">
        <ele>643</ele>
        <time>2010-05-23T08:53:46Z</time>
      </trkpt>
      <trkpt lat="46.94989" lon="5.90461">
        <ele>642</ele>
        <time>2010-05-23T08:53:58Z</time>
      </trkpt>
      <trkpt lat="46.94997" lon="5.90479">
        <ele>642</ele>
        <time>2010-05-23T08:54:08Z</time>
      </trkpt>
      <trkpt lat="46.95003" lon="5.90493">
        <ele>642</ele>
        <time>2010-05-23T08:54:24Z</time>
      </trkpt>
      <trkpt lat="46.95006" lon="5.90494">
        <ele>643</ele>
        <time>2010-05-23T08:54:29Z</time>
      </trkpt>
      <trkpt lat="46.95019" lon="5.90526">
        <ele>641</ele>
        <time>2010-05-23T08:54:46Z</time>
      </trkpt>
      <trkpt lat="46.95024" lon="5.90531">
        <ele>641</ele>
        <time>2010-05-23T08:54:50Z</time>
      </trkpt>
      <trkpt lat="46.95032" lon="5.90569">
        <ele>640</ele>
        <time>2010-05-23T08:55:05Z</time>
      </trkpt>
      <trkpt lat="46.95039" lon="5.90585">
        <ele>638</ele>
        <time>2010-05-23T08:55:17Z</time>
      </trkpt>
      <trkpt lat="46.95045" lon="5.90604">
        <ele>638</ele>
        <time>2010-05-23T08:55:28Z</time>
      </trkpt>
      <trkpt lat="46.9505" lon="5.90623">
        <ele>638</ele>
        <time>2010-05-23T08:55:39Z</time>
      </trkpt>
      <trkpt lat="46.95056" lon="5.90641">
        <ele>638</ele>
        <time>2010-05-23T08:55:52Z</time>
      </trkpt>
      <trkpt lat="46.95064" lon="5.90659">
        <ele>638</ele>
        <time>2010-05-23T08:56:05Z</time>
      </trkpt>
      <trkpt lat="46.95071" lon="5.90684">
        <ele>636</ele>
        <time>2010-05-23T08:56:23Z</time>
      </trkpt>
      <trkpt lat="46.95079" lon="5.90717">
        <ele>635</ele>
        <time>2010-05-23T08:56:34Z</time>
      </trkpt>
      <trkpt lat="46.95094" lon="5.90746">
        <ele>636</ele>
        <time>2010-05-23T08:56:50Z</time>
      </trkpt>
      <trkpt lat="46.95104" lon="5.90769">
        <ele>636</ele>
        <time>2010-05-23T08:57:05Z</time>
      </trkpt>
      <trkpt lat="46.95115" lon="5.90794">
        <ele>636</ele>
        <time>2010-05-23T08:57:23Z</time>
      </trkpt>
      <trkpt lat="46.9512" lon="5.90807">
        <ele>636</ele>
        <time>2010-05-23T08:57:35Z</time>
      </trkpt>
      <trkpt lat="46.95125" lon="5.90826">
        <ele>636</ele>
        <time>2010-05-23T08:57:46Z</time>
      </trkpt>
      <trkpt lat="46.95128" lon="5.90857">
        <ele>635</ele>
        <time>2010-05-23T08:58:00Z</time>
      </trkpt>
      <trkpt lat="46.95131" lon="5.90879">
        <ele>635</ele>
        <time>2010-05-23T08:58:11Z</time>
      </trkpt>
      <trkpt lat="46.95135" lon="5.90901">
        <ele>635</ele>
        <time>2010-05-23T08:58:23Z</time>
      </trkpt>
      <trkpt lat="46.95138" lon="5.90926">
        <ele>635</ele>
        <time>2010-05-23T08:58:35Z</time>
      </trkpt>
      <trkpt lat="46.95139" lon="5.90935">
        <ele>635</ele>
        <time>2010-05-23T08:58:39Z</time>
      </trkpt>
      <trkpt lat="46.95149" lon="5.90922">
        <ele>635</ele>
        <time>2010-05-23T08:58:51Z</time>
      </trkpt>
      <trkpt lat="46.9515" lon="5.90916">
        <ele>635</ele>
        <time>2010-05-23T08:58:55Z</time>
      </trkpt>
      <trkpt lat="46.95154" lon="5.90909">
        <ele>635</ele>
        <time>2010-05-23T08:59:01Z</time>
      </trkpt>
      <trkpt lat="46.95168" lon="5.9089">
        <ele>635</ele>
        <time>2010-05-23T08:59:15Z</time>
      </trkpt>
      <trkpt lat="46.95174" lon="5.90879">
        <ele>635</ele>
        <time>2010-05-23T08:59:23Z</time>
      </trkpt>
      <trkpt lat="46.95178" lon="5.90874">
        <ele>636</ele>
        <time>2010-05-23T08:59:27Z</time>
      </trkpt>
      <trkpt lat="46.95182" lon="5.9087">
        <ele>636</ele>
        <time>2010-05-23T08:59:31Z</time>
      </trkpt>
      <trkpt lat="46.95184" lon="5.90867">
        <ele>636</ele>
        <time>2010-05-23T08:59:33Z</time>
      </trkpt>
      <trkpt lat="46.95187" lon="5.90865">
        <ele>636</ele>
        <time>2010-05-23T08:59:35Z</time>
      </trkpt>
      <trkpt lat="46.952" lon="5.90843">
        <ele>636</ele>
        <time>2010-05-23T08:59:50Z</time>
      </trkpt>
      <trkpt lat="46.95213" lon="5.9083">
        <ele>638</ele>
        <time>2010-05-23T09:00:04Z</time>
      </trkpt>
      <trkpt lat="46.95223" lon="5.90817">
        <ele>638</ele>
        <time>2010-05-23T09:00:16Z</time>
      </trkpt>
      <trkpt lat="46.95228" lon="5.90813">
        <ele>638</ele>
        <time>2010-05-23T09:00:19Z</time>
      </trkpt>
      <trkpt lat="46.95232" lon="5.90808">
        <ele>638</ele>
        <time>2010-05-23T09:00:23Z</time>
      </trkpt>
      <trkpt lat="46.95239" lon="5.90805">
        <ele>638</ele>
        <time>2010-05-23T09:00:28Z</time>
      </trkpt>
      <trkpt lat="46.95244" lon="5.90799">
        <ele>639</ele>
        <time>2010-05-23T09:00:33Z</time>
      </trkpt>
      <trkpt lat="46.95254" lon="5.90779">
        <ele>642</ele>
        <time>2010-05-23T09:00:46Z</time>
      </trkpt>
      <trkpt lat="46.95256" lon="5.90773">
        <ele>643</ele>
        <time>2010-05-23T09:00:51Z</time>
      </trkpt>
      <trkpt lat="46.95258" lon="5.90764">
        <ele>643</ele>
        <time>2010-05-23T09:00:56Z</time>
      </trkpt>
      <trkpt lat="46.95261" lon="5.90754">
        <ele>643</ele>
        <time>2010-05-23T09:01:02Z</time>
      </trkpt>
      <trkpt lat="46.95264" lon="5.90749">
        <ele>644</ele>
        <time>2010-05-23T09:01:06Z</time>
      </trkpt>
      <trkpt lat="46.95264" lon="5.90746">
        <ele>645</ele>
        <time>2010-05-23T09:01:08Z</time>
      </trkpt>
      <trkpt lat="46.95268" lon="5.90736">
        <ele>645</ele>
        <time>2010-05-23T09:01:17Z</time>
      </trkpt>
      <trkpt lat="46.95272" lon="5.90732">
        <ele>645</ele>
        <time>2010-05-23T09:01:22Z</time>
      </trkpt>
      <trkpt lat="46.95282" lon="5.90726">
        <ele>646</ele>
        <time>2010-05-23T09:01:36Z</time>
      </trkpt>
      <trkpt lat="46.95289" lon="5.90722">
        <ele>646</ele>
        <time>2010-05-23T09:01:51Z</time>
      </trkpt>
      <trkpt lat="46.95296" lon="5.9072">
        <ele>646</ele>
        <time>2010-05-23T09:02:01Z</time>
      </trkpt>
      <trkpt lat="46.95301" lon="5.90719">
        <ele>646</ele>
        <time>2010-05-23T09:02:25Z</time>
      </trkpt>
      <trkpt lat="46.95306" lon="5.90712">
        <ele>646</ele>
        <time>2010-05-23T09:02:38Z</time>
      </trkpt>
      <trkpt lat="46.95311" lon="5.90701">
        <ele>646</ele>
        <time>2010-05-23T09:02:58Z</time>
      </trkpt>
      <trkpt lat="46.95313" lon="5.90694">
        <ele>646</ele>
        <time>2010-05-23T09:03:06Z</time>
      </trkpt>
      <trkpt lat="46.9532" lon="5.90679">
        <ele>646</ele>
        <time>2010-05-23T09:03:17Z</time>
      </trkpt>
      <trkpt lat="46.95329" lon="5.90647">
        <ele>641</ele>
        <time>2010-05-23T09:03:52Z</time>
      </trkpt>
      <trkpt lat="46.95329" lon="5.90636">
        <ele>640</ele>
        <time>2010-05-23T09:04:01Z</time>
      </trkpt>
      <trkpt lat="46.95371" lon="5.9065">
        <ele>629</ele>
        <time>2010-05-23T09:04:17Z</time>
      </trkpt>
      <trkpt lat="46.95385" lon="5.90661">
        <ele>628</ele>
        <time>2010-05-23T09:04:26Z</time>
      </trkpt>
      <trkpt lat="46.95398" lon="5.90681">
        <ele>636</ele>
        <time>2010-05-23T09:04:38Z</time>
      </trkpt>
      <trkpt lat="46.95408" lon="5.90691">
        <ele>636</ele>
        <time>2010-05-23T09:04:48Z</time>
      </trkpt>
      <trkpt lat="46.95415" lon="5.90699">
        <ele>637</ele>
        <time>2010-05-23T09:04:59Z</time>
      </trkpt>
      <trkpt lat="46.95424" lon="5.90712">
        <ele>627</ele>
        <time>2010-05-23T09:05:10Z</time>
      </trkpt>
      <trkpt lat="46.95431" lon="5.9072">
        <ele>627</ele>
        <time>2010-05-23T09:05:21Z</time>
      </trkpt>
      <trkpt lat="46.95431" lon="5.90735">
        <ele>631</ele>
        <time>2010-05-23T09:05:39Z</time>
      </trkpt>
      <trkpt lat="46.95451" lon="5.90756">
        <ele>634</ele>
        <time>2010-05-23T09:05:49Z</time>
      </trkpt>
      <trkpt lat="46.95481" lon="5.90759">
        <ele>626</ele>
        <time>2010-05-23T09:06:17Z</time>
      </trkpt>
      <trkpt lat="46.9549" lon="5.90756">
        <ele>622</ele>
        <time>2010-05-23T09:06:29Z</time>
      </trkpt>
      <trkpt lat="46.95504" lon="5.9074">
        <ele>610</ele>
        <time>2010-05-23T09:06:48Z</time>
      </trkpt>
      <trkpt lat="46.95519" lon="5.90733">
        <ele>605</ele>
        <time>2010-05-23T09:07:07Z</time>
      </trkpt>
      <trkpt lat="46.95524" lon="5.90727">
        <ele>604</ele>
        <time>2010-05-23T09:07:26Z</time>
      </trkpt>
      <trkpt lat="46.95532" lon="5.907">
        <ele>601</ele>
        <time>2010-05-23T09:07:44Z</time>
      </trkpt>
      <trkpt lat="46.95529" lon="5.90675">
        <ele>600</ele>
        <time>2010-05-23T09:07:56Z</time>
      </trkpt>
      <trkpt lat="46.95536" lon="5.90657">
        <ele>592</ele>
        <time>2010-05-23T09:08:19Z</time>
      </trkpt>
      <trkpt lat="46.95538" lon="5.90638">
        <ele>591</ele>
        <time>2010-05-23T09:08:30Z</time>
      </trkpt>
      <trkpt lat="46.95545" lon="5.90622">
        <ele>589</ele>
        <time>2010-05-23T09:08:45Z</time>
      </trkpt>
      <trkpt lat="46.95553" lon="5.90616">
        <ele>588</ele>
        <time>2010-05-23T09:09:02Z</time>
      </trkpt>
      <trkpt lat="46.95563" lon="5.90607">
        <ele>586</ele>
        <time>2010-05-23T09:09:12Z</time>
      </trkpt>
      <trkpt lat="46.95555" lon="5.90579">
        <ele>578</ele>
        <time>2010-05-23T09:09:33Z</time>
      </trkpt>
      <trkpt lat="46.95556" lon="5.9058">
        <ele>578</ele>
        <time>2010-05-23T09:10:06Z</time>
      </trkpt>
      <trkpt lat="46.95563" lon="5.90572">
        <ele>577</ele>
        <time>2010-05-23T09:10:20Z</time>
      </trkpt>
      <trkpt lat="46.9558" lon="5.9057">
        <ele>577</ele>
        <time>2010-05-23T09:10:24Z</time>
      </trkpt>
      <trkpt lat="46.95605" lon="5.9055">
        <ele>563</ele>
        <time>2010-05-23T09:10:37Z</time>
      </trkpt>
      <trkpt lat="46.9561" lon="5.90531">
        <ele>561</ele>
        <time>2010-05-23T09:10:53Z</time>
      </trkpt>
      <trkpt lat="46.95613" lon="5.90516">
        <ele>561</ele>
        <time>2010-05-23T09:11:05Z</time>
      </trkpt>
      <trkpt lat="46.95629" lon="5.90526">
        <ele>558</ele>
        <time>2010-05-23T09:11:28Z</time>
      </trkpt>
      <trkpt lat="46.95642" lon="5.90531">
        <ele>557</ele>
        <time>2010-05-23T09:11:40Z</time>
      </trkpt>
      <trkpt lat="46.95659" lon="5.90532">
        <ele>555</ele>
        <time>2010-05-23T09:11:55Z</time>
      </trkpt>
      <trkpt lat="46.95669" lon="5.90533">
        <ele>542</ele>
        <time>2010-05-23T09:12:11Z</time>
      </trkpt>
      <trkpt lat="46.95684" lon="5.90535">
        <ele>542</ele>
        <time>2010-05-23T09:12:21Z</time>
      </trkpt>
      <trkpt lat="46.95697" lon="5.90534">
        <ele>541</ele>
        <time>2010-05-23T09:12:31Z</time>
      </trkpt>
      <trkpt lat="46.95705" lon="5.90527">
        <ele>540</ele>
        <time>2010-05-23T09:12:45Z</time>
      </trkpt>
      <trkpt lat="46.95717" lon="5.90511">
        <ele>538</ele>
        <time>2010-05-23T09:13:00Z</time>
      </trkpt>
      <trkpt lat="46.95723" lon="5.90503">
        <ele>537</ele>
        <time>2010-05-23T09:13:12Z</time>
      </trkpt>
      <trkpt lat="46.95744" lon="5.90498">
        <ele>532</ele>
        <time>2010-05-23T09:13:24Z</time>
      </trkpt>
      <trkpt lat="46.95757" lon="5.90496">
        <ele>529</ele>
        <time>2010-05-23T09:13:36Z</time>
      </trkpt>
      <trkpt lat="46.95763" lon="5.90498">
        <ele>528</ele>
        <time>2010-05-23T09:13:47Z</time>
      </trkpt>
      <trkpt lat="46.95776" lon="5.90502">
        <ele>528</ele>
        <time>2010-05-23T09:13:59Z</time>
      </trkpt>
      <trkpt lat="46.95777" lon="5.90502">
        <ele>528</ele>
        <time>2010-05-23T09:14:00Z</time>
      </trkpt>
      <trkpt lat="46.95789" lon="5.90491">
        <ele>525</ele>
        <time>2010-05-23T09:14:16Z</time>
      </trkpt>
      <trkpt lat="46.95802" lon="5.90481">
        <ele>523</ele>
        <time>2010-05-23T09:14:30Z</time>
      </trkpt>
      <trkpt lat="46.95818" lon="5.90474">
        <ele>523</ele>
        <time>2010-05-23T09:14:43Z</time>
      </trkpt>
      <trkpt lat="46.95834" lon="5.90469">
        <ele>518</ele>
        <time>2010-05-23T09:14:55Z</time>
      </trkpt>
      <trkpt lat="46.95842" lon="5.90464">
        <ele>518</ele>
        <time>2010-05-23T09:15:03Z</time>
      </trkpt>
      <trkpt lat="46.95852" lon="5.90461">
        <ele>518</ele>
        <time>2010-05-23T09:15:10Z</time>
      </trkpt>
      <trkpt lat="46.95873" lon="5.9045">
        <ele>517</ele>
        <time>2010-05-23T09:15:29Z</time>
      </trkpt>
      <trkpt lat="46.95892" lon="5.90437">
        <ele>516</ele>
        <time>2010-05-23T09:15:46Z</time>
      </trkpt>
      <trkpt lat="46.95903" lon="5.90429">
        <ele>516</ele>
        <time>2010-05-23T09:15:57Z</time>
      </trkpt>
      <trkpt lat="46.95912" lon="5.90418">
        <ele>515</ele>
        <time>2010-05-23T09:16:09Z</time>
      </trkpt>
      <trkpt lat="46.95927" lon="5.90403">
        <ele>513</ele>
        <time>2010-05-23T09:16:24Z</time>
      </trkpt>
      <trkpt lat="46.95945" lon="5.90388">
        <ele>511</ele>
        <time>2010-05-23T09:16:38Z</time>
      </trkpt>
      <trkpt lat="46.95963" lon="5.90377">
        <ele>510</ele>
        <time>2010-05-23T09:16:52Z</time>
      </trkpt>
      <trkpt lat="46.95974" lon="5.90379">
        <ele>510</ele>
        <time>2010-05-23T09:17:04Z</time>
      </trkpt>
      <trkpt lat="46.95984" lon="5.90384">
        <ele>510</ele>
        <time>2010-05-23T09:17:15Z</time>
      </trkpt>
      <trkpt lat="46.95996" lon="5.90391">
        <ele>510</ele>
        <time>2010-05-23T09:17:28Z</time>
      </trkpt>
      <trkpt lat="46.96002" lon="5.90393">
        <ele>508</ele>
        <time>2010-05-23T09:17:32Z</time>
      </trkpt>
      <trkpt lat="46.96027" lon="5.90396">
        <ele>508</ele>
        <time>2010-05-23T09:17:45Z</time>
      </trkpt>
      <trkpt lat="46.96045" lon="5.90399">
        <ele>508</ele>
        <time>2010-05-23T09:17:59Z</time>
      </trkpt>
      <trkpt lat="46.96062" lon="5.90402">
        <ele>508</ele>
        <time>2010-05-23T09:18:14Z</time>
      </trkpt>
      <trkpt lat="46.96081" lon="5.90401">
        <ele>508</ele>
        <time>2010-05-23T09:18:29Z</time>
      </trkpt>
      <trkpt lat="46.96088" lon="5.90392">
        <ele>508</ele>
        <time>2010-05-23T09:18:37Z</time>
      </trkpt>
      <trkpt lat="46.96091" lon="5.90386">
        <ele>508</ele>
        <time>2010-05-23T09:18:41Z</time>
      </trkpt>
      <trkpt lat="46.96093" lon="5.90356">
        <ele>507</ele>
        <time>2010-05-23T09:18:59Z</time>
      </trkpt>
      <trkpt lat="46.96095" lon="5.90326">
        <ele>505</ele>
        <time>2010-05-23T09:19:16Z</time>
      </trkpt>
      <trkpt lat="46.96097" lon="5.90302">
        <ele>504</ele>
        <time>2010-05-23T09:19:29Z</time>
      </trkpt>
      <trkpt lat="46.961" lon="5.9029">
        <ele>503</ele>
        <time>2010-05-23T09:19:37Z</time>
      </trkpt>
      <trkpt lat="46.961" lon="5.9028">
        <ele>503</ele>
        <time>2010-05-23T09:19:42Z</time>
      </trkpt>
      <trkpt lat="46.96105" lon="5.90266">
        <ele>502</ele>
        <time>2010-05-23T09:19:49Z</time>
      </trkpt>
      <trkpt lat="46.96112" lon="5.90246">
        <ele>499</ele>
        <time>2010-05-23T09:20:01Z</time>
      </trkpt>
      <trkpt lat="46.96117" lon="5.90238">
        <ele>499</ele>
        <time>2010-05-23T09:20:07Z</time>
      </trkpt>
      <trkpt lat="46.96122" lon="5.90231">
        <ele>499</ele>
        <time>2010-05-23T09:20:13Z</time>
      </trkpt>
      <trkpt lat="46.96135" lon="5.90226">
        <ele>500</ele>
        <time>2010-05-23T09:20:27Z</time>
      </trkpt>
      <trkpt lat="46.96137" lon="5.90229">
        <ele>500</ele>
        <time>2010-05-23T09:20:40Z</time>
      </trkpt>
      <trkpt lat="46.9614" lon="5.9024">
        <ele>500</ele>
        <time>2010-05-23T09:20:51Z</time>
      </trkpt>
      <trkpt lat="46.9614" lon="5.90241">
        <ele>500</ele>
        <time>2010-05-23T09:20:54Z</time>
      </trkpt>
      <trkpt lat="46.96146" lon="5.90254">
        <ele>504</ele>
        <time>2010-05-23T09:21:03Z</time>
      </trkpt>
      <trkpt lat="46.96146" lon="5.90255">
        <ele>504</ele>
        <time>2010-05-23T09:21:04Z</time>
      </trkpt>
      <trkpt lat="46.96152" lon="5.9027">
        <ele>504</ele>
        <time>2010-05-23T09:21:13Z</time>
      </trkpt>
      <trkpt lat="46.96159" lon="5.90273">
        <ele>504</ele>
        <time>2010-05-23T09:21:19Z</time>
      </trkpt>
      <trkpt lat="46.96167" lon="5.90302">
        <ele>506</ele>
        <time>2010-05-23T09:21:35Z</time>
      </trkpt>
      <trkpt lat="46.96175" lon="5.90317">
        <ele>507</ele>
        <time>2010-05-23T09:21:47Z</time>
      </trkpt>
      <trkpt lat="46.96184" lon="5.90328">
        <ele>507</ele>
        <time>2010-05-23T09:22:02Z</time>
      </trkpt>
      <trkpt lat="46.96192" lon="5.9034">
        <ele>508</ele>
        <time>2010-05-23T09:22:10Z</time>
      </trkpt>
      <trkpt lat="46.96198" lon="5.90349">
        <ele>508</ele>
        <time>2010-05-23T09:22:18Z</time>
      </trkpt>
      <trkpt lat="46.96209" lon="5.90357">
        <ele>508</ele>
        <time>2010-05-23T09:22:27Z</time>
      </trkpt>
      <trkpt lat="46.96236" lon="5.90373">
        <ele>508</ele>
        <time>2010-05-23T09:22:43Z</time>
      </trkpt>
      <trkpt lat="46.96245" lon="5.90388">
        <ele>508</ele>
        <time>2010-05-23T09:23:00Z</time>
      </trkpt>
      <trkpt lat="46.96255" lon="5.90395">
        <ele>506</ele>
        <time>2010-05-23T09:23:09Z</time>
      </trkpt>
      <trkpt lat="46.96268" lon="5.90392">
        <ele>506</ele>
        <time>2010-05-23T09:23:20Z</time>
      </trkpt>
      <trkpt lat="46.96268" lon="5.90392">
        <ele>506</ele>
        <time>2010-05-23T09:23:21Z</time>
      </trkpt>
      <trkpt lat="46.96273" lon="5.90374">
        <ele>505</ele>
        <time>2010-05-23T09:23:29Z</time>
      </trkpt>
      <trkpt lat="46.96273" lon="5.90362">
        <ele>505</ele>
        <time>2010-05-23T09:23:35Z</time>
      </trkpt>
      <trkpt lat="46.96272" lon="5.90349">
        <ele>505</ele>
        <time>2010-05-23T09:23:42Z</time>
      </trkpt>
      <trkpt lat="46.96268" lon="5.90328">
        <ele>505</ele>
        <time>2010-05-23T09:23:54Z</time>
      </trkpt>
      <trkpt lat="46.96264" lon="5.90303">
        <ele>504</ele>
        <time>2010-05-23T09:24:09Z</time>
      </trkpt>
      <trkpt lat="46.96265" lon="5.90299">
        <ele>504</ele>
        <time>2010-05-23T09:24:12Z</time>
      </trkpt>
      <trkpt lat="46.96261" lon="5.90274">
        <ele>504</ele>
        <time>2010-05-23T09:24:28Z</time>
      </trkpt>
      <trkpt lat="46.96259" lon="5.9026">
        <ele>503</ele>
        <time>2010-05-23T09:24:38Z</time>
      </trkpt>
      <trkpt lat="46.96258" lon="5.90241">
        <ele>503</ele>
        <time>2010-05-23T09:24:49Z</time>
      </trkpt>
      <trkpt lat="46.96257" lon="5.90227">
        <ele>504</ele>
        <time>2010-05-23T09:24:55Z</time>
      </trkpt>
      <trkpt lat="46.96257" lon="5.90213">
        <ele>504</ele>
        <time>2010-05-23T09:25:02Z</time>
      </trkpt>
      <trkpt lat="46.96258" lon="5.90209">
        <ele>504</ele>
        <time>2010-05-23T09:25:04Z</time>
      </trkpt>
      <trkpt lat="46.9626" lon="5.90198">
        <ele>504</ele>
        <time>2010-05-23T09:25:11Z</time>
      </trkpt>
      <trkpt lat="46.96261" lon="5.9019">
        <ele>504</ele>
        <time>2010-05-23T09:25:16Z</time>
      </trkpt>
      <trkpt lat="46.96257" lon="5.90166">
        <ele>505</ele>
        <time>2010-05-23T09:25:29Z</time>
      </trkpt>
      <trkpt lat="46.9626" lon="5.90157">
        <ele>505</ele>
        <time>2010-05-23T09:25:38Z</time>
      </trkpt>
      <trkpt lat="46.96262" lon="5.9015">
        <ele>505</ele>
        <time>2010-05-23T09:25:42Z</time>
      </trkpt>
      <trkpt lat="46.96271" lon="5.90124">
        <ele>506</ele>
        <time>2010-05-23T09:25:57Z</time>
      </trkpt>
      <trkpt lat="46.96272" lon="5.90123">
        <ele>506</ele>
        <time>2010-05-23T09:25:58Z</time>
      </trkpt>
      <trkpt lat="46.96279" lon="5.90112">
        <ele>507</ele>
        <time>2010-05-23T09:26:05Z</time>
      </trkpt>
      <trkpt lat="46.96289" lon="5.90092">
        <ele>507</ele>
        <time>2010-05-23T09:26:20Z</time>
      </trkpt>
      <trkpt lat="46.96293" lon="5.90086">
        <ele>507</ele>
        <time>2010-05-23T09:26:25Z</time>
      </trkpt>
      <trkpt lat="46.96298" lon="5.90077">
        <ele>510</ele>
        <time>2010-05-23T09:26:33Z</time>
      </trkpt>
      <trkpt lat="46.96302" lon="5.90074">
        <ele>510</ele>
        <time>2010-05-23T09:26:36Z</time>
      </trkpt>
      <trkpt lat="46.96308" lon="5.90067">
        <ele>511</ele>
        <time>2010-05-23T09:26:42Z</time>
      </trkpt>
      <trkpt lat="46.96324" lon="5.90053">
        <ele>511</ele>
        <time>2010-05-23T09:26:56Z</time>
      </trkpt>
      <trkpt lat="46.96332" lon="5.90039">
        <ele>512</ele>
        <time>2010-05-23T09:27:08Z</time>
      </trkpt>
      <trkpt lat="46.96339" lon="5.90029">
        <ele>520</ele>
        <time>2010-05-23T09:27:20Z</time>
      </trkpt>
      <trkpt lat="46.96342" lon="5.90024">
        <ele>520</ele>
        <time>2010-05-23T09:27:25Z</time>
      </trkpt>
      <trkpt lat="46.96347" lon="5.90019">
        <ele>520</ele>
        <time>2010-05-23T09:27:37Z</time>
      </trkpt>
      <trkpt lat="46.96355" lon="5.90008">
        <ele>520</ele>
        <time>2010-05-23T09:27:51Z</time>
      </trkpt>
      <trkpt lat="46.96359" lon="5.90003">
        <ele>521</ele>
        <time>2010-05-23T09:28:07Z</time>
      </trkpt>
      <trkpt lat="46.96376" lon="5.89983">
        <ele>529</ele>
        <time>2010-05-23T09:28:33Z</time>
      </trkpt>
      <trkpt lat="46.96379" lon="5.89968">
        <ele>531</ele>
        <time>2010-05-23T09:28:45Z</time>
      </trkpt>
      <trkpt lat="46.96383" lon="5.89946">
        <ele>533</ele>
        <time>2010-05-23T09:29:03Z</time>
      </trkpt>
      <trkpt lat="46.96382" lon="5.89934">
        <ele>534</ele>
        <time>2010-05-23T09:29:14Z</time>
      </trkpt>
      <trkpt lat="46.96384" lon="5.89913">
        <ele>543</ele>
        <time>2010-05-23T09:29:36Z</time>
      </trkpt>
      <trkpt lat="46.96386" lon="5.89898">
        <ele>544</ele>
        <time>2010-05-23T09:29:50Z</time>
      </trkpt>
      <trkpt lat="46.96386" lon="5.89879">
        <ele>545</ele>
        <time>2010-05-23T09:30:31Z</time>
      </trkpt>
      <trkpt lat="46.96385" lon="5.89858">
        <ele>547</ele>
        <time>2010-05-23T09:30:56Z</time>
      </trkpt>
      <trkpt lat="46.96383" lon="5.89843">
        <ele>548</ele>
        <time>2010-05-23T09:31:14Z</time>
      </trkpt>
      <trkpt lat="46.96377" lon="5.89823">
        <ele>558</ele>
        <time>2010-05-23T09:31:27Z</time>
      </trkpt>
      <trkpt lat="46.96344" lon="5.89722">
        <ele>573</ele>
        <time>2010-05-23T09:33:09Z</time>
      </trkpt>
      <trkpt lat="46.96332" lon="5.89685">
        <ele>563</ele>
        <time>2010-05-23T09:33:47Z</time>
      </trkpt>
      <trkpt lat="46.96327" lon="5.89666">
        <ele>575</ele>
        <time>2010-05-23T09:34:17Z</time>
      </trkpt>
      <trkpt lat="46.9632" lon="5.89636">
        <ele>575</ele>
        <time>2010-05-23T09:34:50Z</time>
      </trkpt>
      <trkpt lat="46.96316" lon="5.89619">
        <ele>577</ele>
        <time>2010-05-23T09:35:21Z</time>
      </trkpt>
      <trkpt lat="46.96307" lon="5.89582">
        <ele>595</ele>
        <time>2010-05-23T09:35:46Z</time>
      </trkpt>
      <trkpt lat="46.96291" lon="5.89483">
        <ele>612</ele>
        <time>2010-05-23T09:37:56Z</time>
      </trkpt>
      <trkpt lat="46.96291" lon="5.89462">
        <ele>614</ele>
        <time>2010-05-23T09:38:23Z</time>
      </trkpt>
      <trkpt lat="46.96285" lon="5.89417">
        <ele>616</ele>
        <time>2010-05-23T09:40:17Z</time>
      </trkpt>
      <trkpt lat="46.96282" lon="5.89394">
        <ele>629</ele>
        <time>2010-05-23T09:40:41Z</time>
      </trkpt>
      <trkpt lat="46.96282" lon="5.8938">
        <ele>631</ele>
        <time>2010-05-23T09:41:26Z</time>
      </trkpt>
      <trkpt lat="46.96283" lon="5.8936">
        <ele>633</ele>
        <time>2010-05-23T09:41:59Z</time>
      </trkpt>
      <trkpt lat="46.96287" lon="5.89301">
        <ele>646</ele>
        <time>2010-05-23T09:43:07Z</time>
      </trkpt>
      <trkpt lat="46.96289" lon="5.89271">
        <ele>648</ele>
        <time>2010-05-23T09:43:21Z</time>
      </trkpt>
      <trkpt lat="46.96293" lon="5.89216">
        <ele>655</ele>
        <time>2010-05-23T09:44:11Z</time>
      </trkpt>
      <trkpt lat="46.96295" lon="5.89146">
        <ele>663</ele>
        <time>2010-05-23T09:45:26Z</time>
      </trkpt>
      <trkpt lat="46.96297" lon="5.8912">
        <ele>664</ele>
        <time>2010-05-23T09:46:02Z</time>
      </trkpt>
      <trkpt lat="46.96306" lon="5.89085">
        <ele>672</ele>
        <time>2010-05-23T09:47:08Z</time>
      </trkpt>
      <trkpt lat="46.9631" lon="5.89072">
        <ele>677</ele>
        <time>2010-05-23T09:47:32Z</time>
      </trkpt>
      <trkpt lat="46.9632" lon="5.89044">
        <ele>677</ele>
        <time>2010-05-23T09:48:13Z</time>
      </trkpt>
      <trkpt lat="46.96324" lon="5.89027">
        <ele>679</ele>
        <time>2010-05-23T09:48:31Z</time>
      </trkpt>
      <trkpt lat="46.96333" lon="5.88994">
        <ele>691</ele>
        <time>2010-05-23T09:49:10Z</time>
      </trkpt>
      <trkpt lat="46.96337" lon="5.88974">
        <ele>699</ele>
        <time>2010-05-23T09:49:32Z</time>
      </trkpt>
      <trkpt lat="46.96346" lon="5.88959">
        <ele>699</ele>
        <time>2010-05-23T09:49:45Z</time>
      </trkpt>
      <trkpt lat="46.96359" lon="5.88949">
        <ele>699</ele>
        <time>2010-05-23T09:50:17Z</time>
      </trkpt>
      <trkpt lat="46.96362" lon="5.88948">
        <ele>700</ele>
        <time>2010-05-23T09:50:44Z</time>
      </trkpt>
      <trkpt lat="46.96381" lon="5.88941">
        <ele>702</ele>
        <time>2010-05-23T09:50:57Z</time>
      </trkpt>
      <trkpt lat="46.96432" lon="5.8891">
        <ele>709</ele>
        <time>2010-05-23T09:51:33Z</time>
      </trkpt>
      <trkpt lat="46.9645" lon="5.88887">
        <ele>711</ele>
        <time>2010-05-23T09:52:00Z</time>
      </trkpt>
      <trkpt lat="46.96456" lon="5.8887">
        <ele>712</ele>
        <time>2010-05-23T09:52:12Z</time>
      </trkpt>
      <trkpt lat="46.9647" lon="5.88838">
        <ele>715</ele>
        <time>2010-05-23T09:52:46Z</time>
      </trkpt>
      <trkpt lat="46.96483" lon="5.88811">
        <ele>720</ele>
        <time>2010-05-23T09:53:07Z</time>
      </trkpt>
      <trkpt lat="46.96484" lon="5.88803">
        <ele>720</ele>
        <time>2010-05-23T09:53:28Z</time>
      </trkpt>
      <trkpt lat="46.96489" lon="5.88792">
        <ele>721</ele>
        <time>2010-05-23T09:53:54Z</time>
      </trkpt>
      <trkpt lat="46.96511" lon="5.88711">
        <ele>753</ele>
        <time>2010-05-23T09:55:43Z</time>
      </trkpt>
      <trkpt lat="46.96504" lon="5.88692">
        <ele>754</ele>
        <time>2010-05-23T09:56:09Z</time>
      </trkpt>
      <trkpt lat="46.96495" lon="5.88685">
        <ele>742</ele>
        <time>2010-05-23T09:56:29Z</time>
      </trkpt>
      <trkpt lat="46.96491" lon="5.88679">
        <ele>743</ele>
        <time>2010-05-23T09:56:42Z</time>
      </trkpt>
      <trkpt lat="46.96491" lon="5.88678">
        <ele>743</ele>
        <time>2010-05-23T09:56:56Z</time>
      </trkpt>
      <trkpt lat="46.96491" lon="5.88678">
        <ele>743</ele>
        <time>2010-05-23T09:57:16Z</time>
      </trkpt>
      <trkpt lat="46.96491" lon="5.88656">
        <ele>750</ele>
        <time>2010-05-23T09:57:35Z</time>
      </trkpt>
      <trkpt lat="46.96485" lon="5.88647">
        <ele>751</ele>
        <time>2010-05-23T09:57:46Z</time>
      </trkpt>
      <trkpt lat="46.96478" lon="5.8864">
        <ele>751</ele>
        <time>2010-05-23T09:58:02Z</time>
      </trkpt>
      <trkpt lat="46.96474" lon="5.88631">
        <ele>751</ele>
        <time>2010-05-23T09:58:16Z</time>
      </trkpt>
      <trkpt lat="46.96472" lon="5.88614">
        <ele>753</ele>
        <time>2010-05-23T09:58:31Z</time>
      </trkpt>
      <trkpt lat="46.96472" lon="5.88601">
        <ele>754</ele>
        <time>2010-05-23T09:58:45Z</time>
      </trkpt>
      <trkpt lat="46.96475" lon="5.88585">
        <ele>755</ele>
        <time>2010-05-23T09:58:55Z</time>
      </trkpt>
      <trkpt lat="46.96474" lon="5.8857">
        <ele>758</ele>
        <time>2010-05-23T09:59:06Z</time>
      </trkpt>
      <trkpt lat="46.96473" lon="5.88561">
        <ele>757</ele>
        <time>2010-05-23T09:59:18Z</time>
      </trkpt>
      <trkpt lat="46.96467" lon="5.88561">
        <ele>758</ele>
        <time>2010-05-23T09:59:38Z</time>
      </trkpt>
      <trkpt lat="46.96459" lon="5.88564">
        <ele>758</ele>
        <time>2010-05-23T09:59:50Z</time>
      </trkpt>
      <trkpt lat="46.9645" lon="5.88559">
        <ele>758</ele>
        <time>2010-05-23T10:00:14Z</time>
      </trkpt>
      <trkpt lat="46.96437" lon="5.88564">
        <ele>759</ele>
        <time>2010-05-23T10:00:48Z</time>
      </trkpt>
      <trkpt lat="46.96428" lon="5.88555">
        <ele>759</ele>
        <time>2010-05-23T10:01:41Z</time>
      </trkpt>
      <trkpt lat="46.96417" lon="5.88565">
        <ele>751</ele>
        <time>2010-05-23T10:02:13Z</time>
      </trkpt>
      <trkpt lat="46.9641" lon="5.88564">
        <ele>750</ele>
        <time>2010-05-23T10:02:46Z</time>
      </trkpt>
      <trkpt lat="46.96411" lon="5.88562">
        <ele>749</ele>
        <time>2010-05-23T10:03:34Z</time>
      </trkpt>
      <trkpt lat="46.96405" lon="5.88561">
        <ele>748</ele>
        <time>2010-05-23T10:04:13Z</time>
      </trkpt>
      <trkpt lat="46.96398" lon="5.88559">
        <ele>746</ele>
        <time>2010-05-23T10:04:24Z</time>
      </trkpt>
      <trkpt lat="46.96395" lon="5.88557">
        <ele>745</ele>
        <time>2010-05-23T10:04:53Z</time>
      </trkpt>
      <trkpt lat="46.96394" lon="5.88555">
        <ele>744</ele>
        <time>2010-05-23T10:05:45Z</time>
      </trkpt>
      <trkpt lat="46.96393" lon="5.88552">
        <ele>744</ele>
        <time>2010-05-23T10:06:16Z</time>
      </trkpt>
      <trkpt lat="46.96392" lon="5.88548">
        <ele>743</ele>
        <time>2010-05-23T10:07:05Z</time>
      </trkpt>
      <trkpt lat="46.96392" lon="5.88541">
        <ele>743</ele>
        <time>2010-05-23T10:07:19Z</time>
      </trkpt>
      <trkpt lat="46.96391" lon="5.8853">
        <ele>742</ele>
        <time>2010-05-23T10:07:32Z</time>
      </trkpt>
      <trkpt lat="46.96391" lon="5.88529">
        <ele>742</ele>
        <time>2010-05-23T10:07:50Z</time>
      </trkpt>
      <trkpt lat="46.96392" lon="5.88527">
        <ele>742</ele>
        <time>2010-05-23T10:08:11Z</time>
      </trkpt>
      <trkpt lat="46.96392" lon="5.88527">
        <ele>743</ele>
        <time>2010-05-23T10:10:14Z</time>
      </trkpt>
      <trkpt lat="46.96391" lon="5.88527">
        <ele>742</ele>
        <time>2010-05-23T10:11:28Z</time>
      </trkpt>
      <trkpt lat="46.96393" lon="5.88537">
        <ele>743</ele>
        <time>2010-05-23T10:13:54Z</time>
      </trkpt>
      <trkpt lat="46.96396" lon="5.88539">
        <ele>743</ele>
        <time>2010-05-23T10:14:15Z</time>
      </trkpt>
      <trkpt lat="46.96398" lon="5.88544">
        <ele>744</ele>
        <time>2010-05-23T10:14:41Z</time>
      </trkpt>
      <trkpt lat="46.96399" lon="5.88544">
        <ele>744</ele>
        <time>2010-05-23T10:14:59Z</time>
      </trkpt>
      <trkpt lat="46.964" lon="5.88545">
        <ele>744</ele>
        <time>2010-05-23T10:15:30Z</time>
      </trkpt>
      <trkpt lat="46.96401" lon="5.88548">
        <ele>745</ele>
        <time>2010-05-23T10:16:26Z</time>
      </trkpt>
      <trkpt lat="46.96401" lon="5.88554">
        <ele>746</ele>
        <time>2010-05-23T10:16:44Z</time>
      </trkpt>
      <trkpt lat="46.964" lon="5.88563">
        <ele>747</ele>
        <time>2010-05-23T10:17:03Z</time>
      </trkpt>
      <trkpt lat="46.96406" lon="5.88569">
        <ele>750</ele>
        <time>2010-05-23T10:17:17Z</time>
      </trkpt>
      <trkpt lat="46.96409" lon="5.88559">
        <ele>748</ele>
        <time>2010-05-23T10:17:30Z</time>
      </trkpt>
      <trkpt lat="46.96413" lon="5.88552">
        <ele>747</ele>
        <time>2010-05-23T10:17:55Z</time>
      </trkpt>
      <trkpt lat="46.9641" lon="5.88554">
        <ele>747</ele>
        <time>2010-05-23T10:18:12Z</time>
      </trkpt>
      <trkpt lat="46.96423" lon="5.88559">
        <ele>759</ele>
        <time>2010-05-23T10:18:31Z</time>
      </trkpt>
      <trkpt lat="46.9644" lon="5.88559">
        <ele>759</ele>
        <time>2010-05-23T10:19:02Z</time>
      </trkpt>
      <trkpt lat="46.9644" lon="5.88559">
        <ele>759</ele>
        <time>2010-05-23T10:19:03Z</time>
      </trkpt>
      <trkpt lat="46.96462" lon="5.88562">
        <ele>758</ele>
        <time>2010-05-23T10:19:15Z</time>
      </trkpt>
      <trkpt lat="46.96472" lon="5.88562">
        <ele>758</ele>
        <time>2010-05-23T10:19:36Z</time>
      </trkpt>
      <trkpt lat="46.96472" lon="5.88562">
        <ele>758</ele>
        <time>2010-05-23T10:19:46Z</time>
      </trkpt>
      <trkpt lat="46.96474" lon="5.88576">
        <ele>758</ele>
        <time>2010-05-23T10:19:58Z</time>
      </trkpt>
      <trkpt lat="46.96483" lon="5.88589">
        <ele>755</ele>
        <time>2010-05-23T10:20:11Z</time>
      </trkpt>
      <trkpt lat="46.96497" lon="5.88594">
        <ele>755</ele>
        <time>2010-05-23T10:20:26Z</time>
      </trkpt>
      <trkpt lat="46.96505" lon="5.886">
        <ele>760</ele>
        <time>2010-05-23T10:20:40Z</time>
      </trkpt>
      <trkpt lat="46.96512" lon="5.88605">
        <ele>761</ele>
        <time>2010-05-23T10:21:22Z</time>
      </trkpt>
      <trkpt lat="46.96514" lon="5.88605">
        <ele>761</ele>
        <time>2010-05-23T10:21:36Z</time>
      </trkpt>
      <trkpt lat="46.96527" lon="5.88606">
        <ele>762</ele>
        <time>2010-05-23T10:21:58Z</time>
      </trkpt>
      <trkpt lat="46.96534" lon="5.88615">
        <ele>763</ele>
        <time>2010-05-23T10:22:35Z</time>
      </trkpt>
      <trkpt lat="46.9654" lon="5.88624">
        <ele>763</ele>
        <time>2010-05-23T10:22:52Z</time>
      </trkpt>
      <trkpt lat="46.96557" lon="5.88656">
        <ele>767</ele>
        <time>2010-05-23T10:24:44Z</time>
      </trkpt>
      <trkpt lat="46.96566" lon="5.88673">
        <ele>768</ele>
        <time>2010-05-23T10:25:03Z</time>
      </trkpt>
      <trkpt lat="46.96579" lon="5.88691">
        <ele>768</ele>
        <time>2010-05-23T10:25:39Z</time>
      </trkpt>
      <trkpt lat="46.96584" lon="5.88698">
        <ele>780</ele>
        <time>2010-05-23T10:25:58Z</time>
      </trkpt>
      <trkpt lat="46.966" lon="5.88726">
        <ele>780</ele>
        <time>2010-05-23T10:27:06Z</time>
      </trkpt>
      <trkpt lat="46.96629" lon="5.88735">
        <ele>784</ele>
        <time>2010-05-23T10:27:29Z</time>
      </trkpt>
      <trkpt lat="46.96644" lon="5.88748">
        <ele>787</ele>
        <time>2010-05-23T10:27:55Z</time>
      </trkpt>
      <trkpt lat="46.96654" lon="5.88758">
        <ele>788</ele>
        <time>2010-05-23T10:28:24Z</time>
      </trkpt>
      <trkpt lat="46.96666" lon="5.88762">
        <ele>789</ele>
        <time>2010-05-23T10:28:50Z</time>
      </trkpt>
      <trkpt lat="46.96658" lon="5.88758">
        <ele>789</ele>
        <time>2010-05-23T10:29:29Z</time>
      </trkpt>
      <trkpt lat="46.96661" lon="5.88751">
        <ele>791</ele>
        <time>2010-05-23T10:30:08Z</time>
      </trkpt>
      <trkpt lat="46.96668" lon="5.88743">
        <ele>794</ele>
        <time>2010-05-23T10:30:49Z</time>
      </trkpt>
      <trkpt lat="46.96678" lon="5.8875">
        <ele>796</ele>
        <time>2010-05-23T10:31:24Z</time>
      </trkpt>
      <trkpt lat="46.9668" lon="5.88745">
        <ele>795</ele>
        <time>2010-05-23T10:32:04Z</time>
      </trkpt>
      <trkpt lat="46.96688" lon="5.88727">
        <ele>795</ele>
        <time>2010-05-23T10:32:27Z</time>
      </trkpt>
      <trkpt lat="46.96696" lon="5.88734">
        <ele>796</ele>
        <time>2010-05-23T10:32:38Z</time>
      </trkpt>
      <trkpt lat="46.96701" lon="5.88737">
        <ele>796</ele>
        <time>2010-05-23T10:32:52Z</time>
      </trkpt>
      <trkpt lat="46.96715" lon="5.88752">
        <ele>800</ele>
        <time>2010-05-23T10:33:26Z</time>
      </trkpt>
      <trkpt lat="46.96721" lon="5.88763">
        <ele>801</ele>
        <time>2010-05-23T10:33:50Z</time>
      </trkpt>
      <trkpt lat="46.96749" lon="5.88776">
        <ele>802</ele>
        <time>2010-05-23T10:34:01Z</time>
      </trkpt>
      <trkpt lat="46.96751" lon="5.88789">
        <ele>810</ele>
        <time>2010-05-23T10:34:18Z</time>
      </trkpt>
      <trkpt lat="46.96772" lon="5.88796">
        <ele>812</ele>
        <time>2010-05-23T10:34:29Z</time>
      </trkpt>
      <trkpt lat="46.96774" lon="5.88802">
        <ele>812</ele>
        <time>2010-05-23T10:34:57Z</time>
      </trkpt>
      <trkpt lat="46.96783" lon="5.88827">
        <ele>812</ele>
        <time>2010-05-23T10:35:25Z</time>
      </trkpt>
      <trkpt lat="46.96792" lon="5.88833">
        <ele>813</ele>
        <time>2010-05-23T10:35:38Z</time>
      </trkpt>
      <trkpt lat="46.96792" lon="5.88833">
        <ele>813</ele>
        <time>2010-05-23T10:35:55Z</time>
      </trkpt>
      <trkpt lat="46.96807" lon="5.88845">
        <ele>810</ele>
        <time>2010-05-23T10:36:07Z</time>
      </trkpt>
      <trkpt lat="46.96821" lon="5.8886">
        <ele>810</ele>
        <time>2010-05-23T10:36:19Z</time>
      </trkpt>
      <trkpt lat="46.96854" lon="5.8888">
        <ele>815</ele>
        <time>2010-05-23T10:36:35Z</time>
      </trkpt>
      <trkpt lat="46.96881" lon="5.88885">
        <ele>817</ele>
        <time>2010-05-23T10:36:50Z</time>
      </trkpt>
      <trkpt lat="46.96895" lon="5.88881">
        <ele>818</ele>
        <time>2010-05-23T10:37:02Z</time>
      </trkpt>
      <trkpt lat="46.96912" lon="5.88869">
        <ele>820</ele>
        <time>2010-05-23T10:37:17Z</time>
      </trkpt>
      <trkpt lat="46.96923" lon="5.88856">
        <ele>828</ele>
        <time>2010-05-23T10:37:30Z</time>
      </trkpt>
      <trkpt lat="46.96944" lon="5.88848">
        <ele>829</ele>
        <time>2010-05-23T10:38:02Z</time>
      </trkpt>
      <trkpt lat="46.96954" lon="5.88856">
        <ele>829</ele>
        <time>2010-05-23T10:38:18Z</time>
      </trkpt>
      <trkpt lat="46.96961" lon="5.88868">
        <ele>828</ele>
        <time>2010-05-23T10:38:31Z</time>
      </trkpt>
      <trkpt lat="46.96965" lon="5.88873">
        <ele>828</ele>
        <time>2010-05-23T10:38:46Z</time>
      </trkpt>
      <trkpt lat="46.96975" lon="5.8888">
        <ele>828</ele>
        <time>2010-05-23T10:39:09Z</time>
      </trkpt>
      <trkpt lat="46.97003" lon="5.88891">
        <ele>832</ele>
        <time>2010-05-23T10:39:33Z</time>
      </trkpt>
      <trkpt lat="46.97022" lon="5.88895">
        <ele>832</ele>
        <time>2010-05-23T10:39:40Z</time>
      </trkpt>
      <trkpt lat="46.97051" lon="5.88909">
        <ele>833</ele>
        <time>2010-05-23T10:39:55Z</time>
      </trkpt>
      <trkpt lat="46.97065" lon="5.88913">
        <ele>834</ele>
        <time>2010-05-23T10:40:12Z</time>
      </trkpt>
      <trkpt lat="46.97073" lon="5.88909">
        <ele>834</ele>
        <time>2010-05-23T10:40:26Z</time>
      </trkpt>
      <trkpt lat="46.97109" lon="5.88883">
        <ele>835</ele>
        <time>2010-05-23T10:40:51Z</time>
      </trkpt>
      <trkpt lat="46.97123" lon="5.88876">
        <ele>835</ele>
        <time>2010-05-23T10:41:05Z</time>
      </trkpt>
      <trkpt lat="46.97134" lon="5.88871">
        <ele>834</ele>
        <time>2010-05-23T10:41:18Z</time>
      </trkpt>
      <trkpt lat="46.97144" lon="5.88859">
        <ele>835</ele>
        <time>2010-05-23T10:41:30Z</time>
      </trkpt>
      <trkpt lat="46.97144" lon="5.88858">
        <ele>835</ele>
        <time>2010-05-23T10:41:31Z</time>
      </trkpt>
      <trkpt lat="46.97153" lon="5.88839">
        <ele>835</ele>
        <time>2010-05-23T10:41:37Z</time>
      </trkpt>
      <trkpt lat="46.97164" lon="5.88809">
        <ele>836</ele>
        <time>2010-05-23T10:41:53Z</time>
      </trkpt>
      <trkpt lat="46.97173" lon="5.88795">
        <ele>838</ele>
        <time>2010-05-23T10:42:06Z</time>
      </trkpt>
      <trkpt lat="46.97177" lon="5.88788">
        <ele>838</ele>
        <time>2010-05-23T10:42:12Z</time>
      </trkpt>
      <trkpt lat="46.97185" lon="5.88777">
        <ele>838</ele>
        <time>2010-05-23T10:42:26Z</time>
      </trkpt>
      <trkpt lat="46.97188" lon="5.88762">
        <ele>839</ele>
        <time>2010-05-23T10:42:38Z</time>
      </trkpt>
      <trkpt lat="46.97185" lon="5.88743">
        <ele>840</ele>
        <time>2010-05-23T10:42:51Z</time>
      </trkpt>
      <trkpt lat="46.97183" lon="5.88736">
        <ele>840</ele>
        <time>2010-05-23T10:42:55Z</time>
      </trkpt>
      <trkpt lat="46.97183" lon="5.88714">
        <ele>841</ele>
        <time>2010-05-23T10:43:06Z</time>
      </trkpt>
      <trkpt lat="46.9718" lon="5.88691">
        <ele>841</ele>
        <time>2010-05-23T10:43:18Z</time>
      </trkpt>
      <trkpt lat="46.97174" lon="5.88666">
        <ele>841</ele>
        <time>2010-05-23T10:43:30Z</time>
      </trkpt>
      <trkpt lat="46.9717" lon="5.8865">
        <ele>840</ele>
        <time>2010-05-23T10:43:42Z</time>
      </trkpt>
      <trkpt lat="46.97172" lon="5.88644">
        <ele>839</ele>
        <time>2010-05-23T10:43:46Z</time>
      </trkpt>
      <trkpt lat="46.97176" lon="5.88639">
        <ele>839</ele>
        <time>2010-05-23T10:43:56Z</time>
      </trkpt>
      <trkpt lat="46.9718" lon="5.88642">
        <ele>839</ele>
        <time>2010-05-23T10:44:17Z</time>
      </trkpt>
      <trkpt lat="46.97189" lon="5.88664">
        <ele>840</ele>
        <time>2010-05-23T10:44:41Z</time>
      </trkpt>
      <trkpt lat="46.97214" lon="5.88672">
        <ele>841</ele>
        <time>2010-05-23T10:45:04Z</time>
      </trkpt>
      <trkpt lat="46.97235" lon="5.88674">
        <ele>841</ele>
        <time>2010-05-23T10:45:13Z</time>
      </trkpt>
      <trkpt lat="46.97246" lon="5.8867">
        <ele>841</ele>
        <time>2010-05-23T10:45:27Z</time>
      </trkpt>
      <trkpt lat="46.97247" lon="5.8867">
        <ele>841</ele>
        <time>2010-05-23T10:45:48Z</time>
      </trkpt>
      <trkpt lat="46.97248" lon="5.88674">
        <ele>841</ele>
        <time>2010-05-23T10:46:37Z</time>
      </trkpt>
      <trkpt lat="46.97251" lon="5.88691">
        <ele>837</ele>
        <time>2010-05-23T10:46:57Z</time>
      </trkpt>
      <trkpt lat="46.97253" lon="5.88693">
        <ele>837</ele>
        <time>2010-05-23T10:47:09Z</time>
      </trkpt>
      <trkpt lat="46.97263" lon="5.88712">
        <ele>836</ele>
        <time>2010-05-23T10:47:23Z</time>
      </trkpt>
      <trkpt lat="46.97266" lon="5.88714">
        <ele>836</ele>
        <time>2010-05-23T10:47:42Z</time>
      </trkpt>
      <trkpt lat="46.97268" lon="5.88718">
        <ele>836</ele>
        <time>2010-05-23T10:48:03Z</time>
      </trkpt>
      <trkpt lat="46.97271" lon="5.88724">
        <ele>836</ele>
        <time>2010-05-23T10:48:15Z</time>
      </trkpt>
      <trkpt lat="46.97281" lon="5.8874">
        <ele>836</ele>
        <time>2010-05-23T10:48:24Z</time>
      </trkpt>
      <trkpt lat="46.97283" lon="5.88772">
        <ele>838</ele>
        <time>2010-05-23T10:48:37Z</time>
      </trkpt>
      <trkpt lat="46.97281" lon="5.88777">
        <ele>838</ele>
        <time>2010-05-23T10:48:53Z</time>
      </trkpt>
      <trkpt lat="46.97285" lon="5.88779">
        <ele>838</ele>
        <time>2010-05-23T10:49:05Z</time>
      </trkpt>
      <trkpt lat="46.97288" lon="5.88778">
        <ele>837</ele>
        <time>2010-05-23T10:49:19Z</time>
      </trkpt>
      <trkpt lat="46.97301" lon="5.88775">
        <ele>837</ele>
        <time>2010-05-23T10:50:14Z</time>
      </trkpt>
      <trkpt lat="46.97327" lon="5.88757">
        <ele>832</ele>
        <time>2010-05-23T10:50:28Z</time>
      </trkpt>
      <trkpt lat="46.97324" lon="5.88738">
        <ele>831</ele>
        <time>2010-05-23T10:50:39Z</time>
      </trkpt>
      <trkpt lat="46.97316" lon="5.88713">
        <ele>831</ele>
        <time>2010-05-23T10:50:52Z</time>
      </trkpt>
      <trkpt lat="46.97307" lon="5.88688">
        <ele>830</ele>
        <time>2010-05-23T10:51:07Z</time>
      </trkpt>
      <trkpt lat="46.97307" lon="5.88687">
        <ele>830</ele>
        <time>2010-05-23T10:51:08Z</time>
      </trkpt>
      <trkpt lat="46.97301" lon="5.88665">
        <ele>824</ele>
        <time>2010-05-23T10:51:19Z</time>
      </trkpt>
      <trkpt lat="46.97293" lon="5.88641">
        <ele>824</ele>
        <time>2010-05-23T10:51:33Z</time>
      </trkpt>
      <trkpt lat="46.97288" lon="5.88627">
        <ele>824</ele>
        <time>2010-05-23T10:51:44Z</time>
      </trkpt>
      <trkpt lat="46.97285" lon="5.88614">
        <ele>823</ele>
        <time>2010-05-23T10:51:50Z</time>
      </trkpt>
      <trkpt lat="46.97281" lon="5.88607">
        <ele>823</ele>
        <time>2010-05-23T10:51:55Z</time>
      </trkpt>
      <trkpt lat="46.97279" lon="5.88564">
        <ele>817</ele>
        <time>2010-05-23T10:52:09Z</time>
      </trkpt>
      <trkpt lat="46.97271" lon="5.88537">
        <ele>817</ele>
        <time>2010-05-23T10:52:22Z</time>
      </trkpt>
      <trkpt lat="46.97263" lon="5.88515">
        <ele>818</ele>
        <time>2010-05-23T10:52:34Z</time>
      </trkpt>
      <trkpt lat="46.97262" lon="5.88513">
        <ele>818</ele>
        <time>2010-05-23T10:52:35Z</time>
      </trkpt>
      <trkpt lat="46.97255" lon="5.88491">
        <ele>818</ele>
        <time>2010-05-23T10:52:49Z</time>
      </trkpt>
      <trkpt lat="46.97252" lon="5.88474">
        <ele>816</ele>
        <time>2010-05-23T10:52:59Z</time>
      </trkpt>
      <trkpt lat="46.97248" lon="5.88469">
        <ele>821</ele>
        <time>2010-05-23T10:53:03Z</time>
      </trkpt>
      <trkpt lat="46.97244" lon="5.88451">
        <ele>820</ele>
        <time>2010-05-23T10:53:15Z</time>
      </trkpt>
      <trkpt lat="46.97251" lon="5.88437">
        <ele>814</ele>
        <time>2010-05-23T10:53:25Z</time>
      </trkpt>
      <trkpt lat="46.97247" lon="5.88422">
        <ele>816</ele>
        <time>2010-05-23T10:53:37Z</time>
      </trkpt>
      <trkpt lat="46.97247" lon="5.88404">
        <ele>815</ele>
        <time>2010-05-23T10:53:48Z</time>
      </trkpt>
      <trkpt lat="46.97247" lon="5.88397">
        <ele>815</ele>
        <time>2010-05-23T10:53:53Z</time>
      </trkpt>
      <trkpt lat="46.97244" lon="5.88382">
        <ele>815</ele>
        <time>2010-05-23T10:54:04Z</time>
      </trkpt>
      <trkpt lat="46.97241" lon="5.8837">
        <ele>815</ele>
        <time>2010-05-23T10:54:17Z</time>
      </trkpt>
      <trkpt lat="46.9724" lon="5.88366">
        <ele>815</ele>
        <time>2010-05-23T10:54:22Z</time>
      </trkpt>
      <trkpt lat="46.97235" lon="5.88345">
        <ele>815</ele>
        <time>2010-05-23T10:54:35Z</time>
      </trkpt>
      <trkpt lat="46.97234" lon="5.88341">
        <ele>815</ele>
        <time>2010-05-23T10:54:38Z</time>
      </trkpt>
      <trkpt lat="46.9723" lon="5.88326">
        <ele>813</ele>
        <time>2010-05-23T10:54:49Z</time>
      </trkpt>
      <trkpt lat="46.97227" lon="5.88316">
        <ele>813</ele>
        <time>2010-05-23T10:54:55Z</time>
      </trkpt>
      <trkpt lat="46.97223" lon="5.88305">
        <ele>813</ele>
        <time>2010-05-23T10:55:02Z</time>
      </trkpt>
      <trkpt lat="46.97218" lon="5.88281">
        <ele>812</ele>
        <time>2010-05-23T10:55:14Z</time>
      </trkpt>
      <trkpt lat="46.97212" lon="5.88266">
        <ele>812</ele>
        <time>2010-05-23T10:55:24Z</time>
      </trkpt>
      <trkpt lat="46.97212" lon="5.88263">
        <ele>812</ele>
        <time>2010-05-23T10:55:26Z</time>
      </trkpt>
      <trkpt lat="46.97204" lon="5.88245">
        <ele>809</ele>
        <time>2010-05-23T10:55:38Z</time>
      </trkpt>
      <trkpt lat="46.97202" lon="5.88236">
        <ele>809</ele>
        <time>2010-05-23T10:55:44Z</time>
      </trkpt>
      <trkpt lat="46.97198" lon="5.88215">
        <ele>809</ele>
        <time>2010-05-23T10:55:56Z</time>
      </trkpt>
      <trkpt lat="46.97195" lon="5.88203">
        <ele>809</ele>
        <time>2010-05-23T10:56:05Z</time>
      </trkpt>
      <trkpt lat="46.97194" lon="5.88199">
        <ele>809</ele>
        <time>2010-05-23T10:56:08Z</time>
      </trkpt>
      <trkpt lat="46.97187" lon="5.88184">
        <ele>809</ele>
        <time>2010-05-23T10:56:19Z</time>
      </trkpt>
      <trkpt lat="46.97181" lon="5.88175">
        <ele>810</ele>
        <time>2010-05-23T10:56:26Z</time>
      </trkpt>
      <trkpt lat="46.97174" lon="5.88155">
        <ele>808</ele>
        <time>2010-05-23T10:56:38Z</time>
      </trkpt>
      <trkpt lat="46.97167" lon="5.88133">
        <ele>806</ele>
        <time>2010-05-23T10:56:50Z</time>
      </trkpt>
      <trkpt lat="46.97164" lon="5.88118">
        <ele>810</ele>
        <time>2010-05-23T10:57:00Z</time>
      </trkpt>
      <trkpt lat="46.97164" lon="5.88116">
        <ele>810</ele>
        <time>2010-05-23T10:57:01Z</time>
      </trkpt>
      <trkpt lat="46.97163" lon="5.88102">
        <ele>811</ele>
        <time>2010-05-23T10:57:07Z</time>
      </trkpt>
      <trkpt lat="46.97162" lon="5.88079">
        <ele>814</ele>
        <time>2010-05-23T10:57:21Z</time>
      </trkpt>
      <trkpt lat="46.97164" lon="5.88057">
        <ele>812</ele>
        <time>2010-05-23T10:57:34Z</time>
      </trkpt>
      <trkpt lat="46.97165" lon="5.88041">
        <ele>812</ele>
        <time>2010-05-23T10:57:49Z</time>
      </trkpt>
      <trkpt lat="46.97166" lon="5.88023">
        <ele>812</ele>
        <time>2010-05-23T10:58:01Z</time>
      </trkpt>
      <trkpt lat="46.97164" lon="5.8801">
        <ele>812</ele>
        <time>2010-05-23T10:58:09Z</time>
      </trkpt>
      <trkpt lat="46.97165" lon="5.87992">
        <ele>812</ele>
        <time>2010-05-23T10:58:19Z</time>
      </trkpt>
      <trkpt lat="46.97164" lon="5.87974">
        <ele>812</ele>
        <time>2010-05-23T10:58:31Z</time>
      </trkpt>
      <trkpt lat="46.97168" lon="5.87941">
        <ele>792</ele>
        <time>2010-05-23T10:58:45Z</time>
      </trkpt>
      <trkpt lat="46.97176" lon="5.87925">
        <ele>796</ele>
        <time>2010-05-23T10:58:56Z</time>
      </trkpt>
      <trkpt lat="46.97177" lon="5.87925">
        <ele>795</ele>
        <time>2010-05-23T10:58:58Z</time>
      </trkpt>
      <trkpt lat="46.97179" lon="5.87931">
        <ele>792</ele>
        <time>2010-05-23T10:59:02Z</time>
      </trkpt>
      <trkpt lat="46.9718" lon="5.8794">
        <ele>788</ele>
        <time>2010-05-23T10:59:07Z</time>
      </trkpt>
      <trkpt lat="46.97179" lon="5.87956">
        <ele>787</ele>
        <time>2010-05-23T10:59:16Z</time>
      </trkpt>
      <trkpt lat="46.97183" lon="5.87967">
        <ele>787</ele>
        <time>2010-05-23T10:59:30Z</time>
      </trkpt>
      <trkpt lat="46.97182" lon="5.87974">
        <ele>788</ele>
        <time>2010-05-23T10:59:47Z</time>
      </trkpt>
      <trkpt lat="46.9719" lon="5.87996">
        <ele>789</ele>
        <time>2010-05-23T11:00:01Z</time>
      </trkpt>
      <trkpt lat="46.97193" lon="5.88013">
        <ele>793</ele>
        <time>2010-05-23T11:00:10Z</time>
      </trkpt>
      <trkpt lat="46.97196" lon="5.88015">
        <ele>792</ele>
        <time>2010-05-23T11:00:12Z</time>
      </trkpt>
      <trkpt lat="46.97201" lon="5.88033">
        <ele>790</ele>
        <time>2010-05-23T11:00:26Z</time>
      </trkpt>
      <trkpt lat="46.97204" lon="5.8803">
        <ele>789</ele>
        <time>2010-05-23T11:00:39Z</time>
      </trkpt>
      <trkpt lat="46.97205" lon="5.88028">
        <ele>788</ele>
        <time>2010-05-23T11:01:01Z</time>
      </trkpt>
      <trkpt lat="46.972" lon="5.88037">
        <ele>790</ele>
        <time>2010-05-23T11:01:12Z</time>
      </trkpt>
      <trkpt lat="46.97198" lon="5.88037">
        <ele>791</ele>
        <time>2010-05-23T11:04:56Z</time>
      </trkpt>
      <trkpt lat="46.97199" lon="5.88037">
        <ele>791</ele>
        <time>2010-05-23T11:08:53Z</time>
      </trkpt>
      <trkpt lat="46.97199" lon="5.88036">
        <ele>791</ele>
        <time>2010-05-23T11:09:28Z</time>
      </trkpt>
      <trkpt lat="46.97212" lon="5.88019">
        <ele>785</ele>
        <time>2010-05-23T12:08:56Z</time>
      </trkpt>
      <trkpt lat="46.97207" lon="5.88033">
        <ele>788</ele>
        <time>2010-05-23T12:09:47Z</time>
      </trkpt>
      <trkpt lat="46.97203" lon="5.88038">
        <ele>790</ele>
        <time>2010-05-23T12:10:30Z</time>
      </trkpt>
      <trkpt lat="46.9721" lon="5.88044">
        <ele>788</ele>
        <time>2010-05-23T12:11:13Z</time>
      </trkpt>
      <trkpt lat="46.97213" lon="5.88043">
        <ele>787</ele>
        <time>2010-05-23T12:11:34Z</time>
      </trkpt>
      <trkpt lat="46.9721" lon="5.88039">
        <ele>787</ele>
        <time>2010-05-23T12:13:01Z</time>
      </trkpt>
      <trkpt lat="46.97202" lon="5.88026">
        <ele>789</ele>
        <time>2010-05-23T12:13:15Z</time>
      </trkpt>
      <trkpt lat="46.97201" lon="5.88021">
        <ele>790</ele>
        <time>2010-05-23T12:13:19Z</time>
      </trkpt>
      <trkpt lat="46.97199" lon="5.88015">
        <ele>790</ele>
        <time>2010-05-23T12:13:23Z</time>
      </trkpt>
      <trkpt lat="46.97193" lon="5.87987">
        <ele>786</ele>
        <time>2010-05-23T12:13:40Z</time>
      </trkpt>
      <trkpt lat="46.97187" lon="5.87958">
        <ele>785</ele>
        <time>2010-05-23T12:13:56Z</time>
      </trkpt>
      <trkpt lat="46.97183" lon="5.87936">
        <ele>788</ele>
        <time>2010-05-23T12:14:09Z</time>
      </trkpt>
      <trkpt lat="46.9717" lon="5.87915">
        <ele>803</ele>
        <time>2010-05-23T12:14:23Z</time>
      </trkpt>
      <trkpt lat="46.97162" lon="5.87902">
        <ele>809</ele>
        <time>2010-05-23T12:14:33Z</time>
      </trkpt>
      <trkpt lat="46.97157" lon="5.87891">
        <ele>809</ele>
        <time>2010-05-23T12:14:41Z</time>
      </trkpt>
      <trkpt lat="46.97156" lon="5.87888">
        <ele>809</ele>
        <time>2010-05-23T12:14:43Z</time>
      </trkpt>
      <trkpt lat="46.97143" lon="5.87867">
        <ele>809</ele>
        <time>2010-05-23T12:15:00Z</time>
      </trkpt>
      <trkpt lat="46.97131" lon="5.87845">
        <ele>809</ele>
        <time>2010-05-23T12:15:17Z</time>
      </trkpt>
      <trkpt lat="46.97124" lon="5.8783">
        <ele>809</ele>
        <time>2010-05-23T12:15:27Z</time>
      </trkpt>
      <trkpt lat="46.97107" lon="5.87812">
        <ele>811</ele>
        <time>2010-05-23T12:15:41Z</time>
      </trkpt>
      <trkpt lat="46.97092" lon="5.87789">
        <ele>812</ele>
        <time>2010-05-23T12:15:56Z</time>
      </trkpt>
      <trkpt lat="46.97085" lon="5.87771">
        <ele>814</ele>
        <time>2010-05-23T12:16:08Z</time>
      </trkpt>
      <trkpt lat="46.97074" lon="5.87749">
        <ele>820</ele>
        <time>2010-05-23T12:16:22Z</time>
      </trkpt>
      <trkpt lat="46.97071" lon="5.87743">
        <ele>820</ele>
        <time>2010-05-23T12:16:26Z</time>
      </trkpt>
      <trkpt lat="46.97062" lon="5.87722">
        <ele>820</ele>
        <time>2010-05-23T12:16:39Z</time>
      </trkpt>
      <trkpt lat="46.97056" lon="5.87707">
        <ele>820</ele>
        <time>2010-05-23T12:16:51Z</time>
      </trkpt>
      <trkpt lat="46.97054" lon="5.87699">
        <ele>820</ele>
        <time>2010-05-23T12:16:54Z</time>
      </trkpt>
      <trkpt lat="46.97053" lon="5.87694">
        <ele>820</ele>
        <time>2010-05-23T12:16:56Z</time>
      </trkpt>
      <trkpt lat="46.97051" lon="5.87682">
        <ele>820</ele>
        <time>2010-05-23T12:17:02Z</time>
      </trkpt>
      <trkpt lat="46.97044" lon="5.87654">
        <ele>819</ele>
        <time>2010-05-23T12:17:18Z</time>
      </trkpt>
      <trkpt lat="46.97039" lon="5.87644">
        <ele>819</ele>
        <time>2010-05-23T12:17:24Z</time>
      </trkpt>
      <trkpt lat="46.97029" lon="5.87629">
        <ele>819</ele>
        <time>2010-05-23T12:17:38Z</time>
      </trkpt>
      <trkpt lat="46.9702" lon="5.87613">
        <ele>819</ele>
        <time>2010-05-23T12:17:49Z</time>
      </trkpt>
      <trkpt lat="46.97011" lon="5.8759">
        <ele>820</ele>
        <time>2010-05-23T12:18:05Z</time>
      </trkpt>
      <trkpt lat="46.97006" lon="5.87574">
        <ele>817</ele>
        <time>2010-05-23T12:18:21Z</time>
      </trkpt>
      <trkpt lat="46.97003" lon="5.87554">
        <ele>812</ele>
        <time>2010-05-23T12:18:32Z</time>
      </trkpt>
      <trkpt lat="46.96993" lon="5.87519">
        <ele>812</ele>
        <time>2010-05-23T12:18:47Z</time>
      </trkpt>
      <trkpt lat="46.96993" lon="5.87516">
        <ele>811</ele>
        <time>2010-05-23T12:18:49Z</time>
      </trkpt>
      <trkpt lat="46.9699" lon="5.87509">
        <ele>811</ele>
        <time>2010-05-23T12:18:53Z</time>
      </trkpt>
      <trkpt lat="46.96982" lon="5.87485">
        <ele>802</ele>
        <time>2010-05-23T12:19:07Z</time>
      </trkpt>
      <trkpt lat="46.96966" lon="5.87466">
        <ele>798</ele>
        <time>2010-05-23T12:19:24Z</time>
      </trkpt>
      <trkpt lat="46.96954" lon="5.8745">
        <ele>795</ele>
        <time>2010-05-23T12:19:38Z</time>
      </trkpt>
      <trkpt lat="46.96951" lon="5.87439">
        <ele>794</ele>
        <time>2010-05-23T12:19:55Z</time>
      </trkpt>
      <trkpt lat="46.96951" lon="5.87439">
        <ele>794</ele>
        <time>2010-05-23T12:20:16Z</time>
      </trkpt>
      <trkpt lat="46.96956" lon="5.87458">
        <ele>796</ele>
        <time>2010-05-23T12:20:27Z</time>
      </trkpt>
      <trkpt lat="46.96964" lon="5.87465">
        <ele>797</ele>
        <time>2010-05-23T12:20:34Z</time>
      </trkpt>
      <trkpt lat="46.96978" lon="5.87474">
        <ele>799</ele>
        <time>2010-05-23T12:20:48Z</time>
      </trkpt>
      <trkpt lat="46.9699" lon="5.87466">
        <ele>798</ele>
        <time>2010-05-23T12:21:00Z</time>
      </trkpt>
      <trkpt lat="46.97004" lon="5.87453">
        <ele>790</ele>
        <time>2010-05-23T12:21:14Z</time>
      </trkpt>
      <trkpt lat="46.9701" lon="5.87443">
        <ele>788</ele>
        <time>2010-05-23T12:21:28Z</time>
      </trkpt>
      <trkpt lat="46.97016" lon="5.87451">
        <ele>789</ele>
        <time>2010-05-23T12:21:46Z</time>
      </trkpt>
      <trkpt lat="46.97023" lon="5.87459">
        <ele>790</ele>
        <time>2010-05-23T12:21:53Z</time>
      </trkpt>
      <trkpt lat="46.9703" lon="5.87474">
        <ele>792</ele>
        <time>2010-05-23T12:22:09Z</time>
      </trkpt>
      <trkpt lat="46.97033" lon="5.87494">
        <ele>794</ele>
        <time>2010-05-23T12:22:23Z</time>
      </trkpt>
      <trkpt lat="46.9704" lon="5.87514">
        <ele>806</ele>
        <time>2010-05-23T12:22:33Z</time>
      </trkpt>
      <trkpt lat="46.97052" lon="5.87536">
        <ele>807</ele>
        <time>2010-05-23T12:22:49Z</time>
      </trkpt>
      <trkpt lat="46.97057" lon="5.87546">
        <ele>807</ele>
        <time>2010-05-23T12:22:58Z</time>
      </trkpt>
      <trkpt lat="46.9706" lon="5.8755">
        <ele>808</ele>
        <time>2010-05-23T12:23:01Z</time>
      </trkpt>
      <trkpt lat="46.97063" lon="5.87557">
        <ele>808</ele>
        <time>2010-05-23T12:23:06Z</time>
      </trkpt>
      <trkpt lat="46.97069" lon="5.8757">
        <ele>809</ele>
        <time>2010-05-23T12:23:13Z</time>
      </trkpt>
      <trkpt lat="46.97071" lon="5.87575">
        <ele>809</ele>
        <time>2010-05-23T12:23:17Z</time>
      </trkpt>
      <trkpt lat="46.97081" lon="5.87581">
        <ele>810</ele>
        <time>2010-05-23T12:23:31Z</time>
      </trkpt>
      <trkpt lat="46.97085" lon="5.87581">
        <ele>807</ele>
        <time>2010-05-23T12:23:35Z</time>
      </trkpt>
      <trkpt lat="46.97092" lon="5.87585">
        <ele>806</ele>
        <time>2010-05-23T12:23:51Z</time>
      </trkpt>
      <trkpt lat="46.97092" lon="5.87585">
        <ele>806</ele>
        <time>2010-05-23T12:23:58Z</time>
      </trkpt>
      <trkpt lat="46.97104" lon="5.87597">
        <ele>802</ele>
        <time>2010-05-23T12:24:06Z</time>
      </trkpt>
      <trkpt lat="46.9712" lon="5.87614">
        <ele>798</ele>
        <time>2010-05-23T12:24:21Z</time>
      </trkpt>
      <trkpt lat="46.97131" lon="5.87634">
        <ele>797</ele>
        <time>2010-05-23T12:24:36Z</time>
      </trkpt>
      <trkpt lat="46.97139" lon="5.87658">
        <ele>797</ele>
        <time>2010-05-23T12:24:52Z</time>
      </trkpt>
      <trkpt lat="46.97142" lon="5.8767">
        <ele>801</ele>
        <time>2010-05-23T12:25:02Z</time>
      </trkpt>
      <trkpt lat="46.97143" lon="5.87687">
        <ele>802</ele>
        <time>2010-05-23T12:25:14Z</time>
      </trkpt>
      <trkpt lat="46.97144" lon="5.87688">
        <ele>802</ele>
        <time>2010-05-23T12:25:15Z</time>
      </trkpt>
      <trkpt lat="46.9715" lon="5.87699">
        <ele>803</ele>
        <time>2010-05-23T12:25:31Z</time>
      </trkpt>
      <trkpt lat="46.97149" lon="5.87697">
        <ele>803</ele>
        <time>2010-05-23T12:25:47Z</time>
      </trkpt>
      <trkpt lat="46.97151" lon="5.87688">
        <ele>801</ele>
        <time>2010-05-23T12:25:53Z</time>
      </trkpt>
      <trkpt lat="46.97152" lon="5.87663">
        <ele>794</ele>
        <time>2010-05-23T12:26:06Z</time>
      </trkpt>
      <trkpt lat="46.97154" lon="5.87646">
        <ele>794</ele>
        <time>2010-05-23T12:26:18Z</time>
      </trkpt>
      <trkpt lat="46.97152" lon="5.87626">
        <ele>793</ele>
        <time>2010-05-23T12:26:29Z</time>
      </trkpt>
      <trkpt lat="46.97148" lon="5.87607">
        <ele>791</ele>
        <time>2010-05-23T12:26:42Z</time>
      </trkpt>
      <trkpt lat="46.97145" lon="5.8759">
        <ele>788</ele>
        <time>2010-05-23T12:26:55Z</time>
      </trkpt>
      <trkpt lat="46.9714" lon="5.87573">
        <ele>781</ele>
        <time>2010-05-23T12:27:05Z</time>
      </trkpt>
      <trkpt lat="46.97134" lon="5.87555">
        <ele>781</ele>
        <time>2010-05-23T12:27:17Z</time>
      </trkpt>
      <trkpt lat="46.97131" lon="5.87544">
        <ele>781</ele>
        <time>2010-05-23T12:27:23Z</time>
      </trkpt>
      <trkpt lat="46.9713" lon="5.8754">
        <ele>780</ele>
        <time>2010-05-23T12:27:25Z</time>
      </trkpt>
      <trkpt lat="46.97128" lon="5.87534">
        <ele>780</ele>
        <time>2010-05-23T12:27:28Z</time>
      </trkpt>
      <trkpt lat="46.97121" lon="5.87508">
        <ele>780</ele>
        <time>2010-05-23T12:27:44Z</time>
      </trkpt>
      <trkpt lat="46.97117" lon="5.87495">
        <ele>767</ele>
        <time>2010-05-23T12:27:55Z</time>
      </trkpt>
      <trkpt lat="46.97115" lon="5.87491">
        <ele>767</ele>
        <time>2010-05-23T12:28:01Z</time>
      </trkpt>
      <trkpt lat="46.97111" lon="5.87476">
        <ele>766</ele>
        <time>2010-05-23T12:28:17Z</time>
      </trkpt>
      <trkpt lat="46.97101" lon="5.87458">
        <ele>764</ele>
        <time>2010-05-23T12:28:29Z</time>
      </trkpt>
      <trkpt lat="46.97091" lon="5.87444">
        <ele>763</ele>
        <time>2010-05-23T12:28:41Z</time>
      </trkpt>
      <trkpt lat="46.97085" lon="5.87439">
        <ele>763</ele>
        <time>2010-05-23T12:28:54Z</time>
      </trkpt>
      <trkpt lat="46.97072" lon="5.87418">
        <ele>772</ele>
        <time>2010-05-23T12:30:36Z</time>
      </trkpt>
      <trkpt lat="46.97067" lon="5.87406">
        <ele>761</ele>
        <time>2010-05-23T12:30:49Z</time>
      </trkpt>
      <trkpt lat="46.97065" lon="5.87389">
        <ele>759</ele>
        <time>2010-05-23T12:31:00Z</time>
      </trkpt>
      <trkpt lat="46.9706" lon="5.87376">
        <ele>757</ele>
        <time>2010-05-23T12:31:10Z</time>
      </trkpt>
      <trkpt lat="46.9705" lon="5.87365">
        <ele>755</ele>
        <time>2010-05-23T12:31:22Z</time>
      </trkpt>
      <trkpt lat="46.97051" lon="5.87359">
        <ele>754</ele>
        <time>2010-05-23T12:31:33Z</time>
      </trkpt>
      <trkpt lat="46.97059" lon="5.8736">
        <ele>753</ele>
        <time>2010-05-23T12:31:53Z</time>
      </trkpt>
      <trkpt lat="46.9707" lon="5.87363">
        <ele>752</ele>
        <time>2010-05-23T12:32:06Z</time>
      </trkpt>
      <trkpt lat="46.9709" lon="5.87372">
        <ele>739</ele>
        <time>2010-05-23T12:32:37Z</time>
      </trkpt>
      <trkpt lat="46.97101" lon="5.87382">
        <ele>740</ele>
        <time>2010-05-23T12:33:00Z</time>
      </trkpt>
      <trkpt lat="46.97121" lon="5.87364">
        <ele>734</ele>
        <time>2010-05-23T12:33:16Z</time>
      </trkpt>
      <trkpt lat="46.97125" lon="5.8734">
        <ele>731</ele>
        <time>2010-05-23T12:33:39Z</time>
      </trkpt>
      <trkpt lat="46.97127" lon="5.87324">
        <ele>713</ele>
        <time>2010-05-23T12:33:49Z</time>
      </trkpt>
      <trkpt lat="46.97138" lon="5.8732">
        <ele>711</ele>
        <time>2010-05-23T12:34:42Z</time>
      </trkpt>
      <trkpt lat="46.97171" lon="5.87321">
        <ele>701</ele>
        <time>2010-05-23T12:35:14Z</time>
      </trkpt>
      <trkpt lat="46.97199" lon="5.87301">
        <ele>688</ele>
        <time>2010-05-23T12:36:15Z</time>
      </trkpt>
      <trkpt lat="46.97204" lon="5.87281">
        <ele>685</ele>
        <time>2010-05-23T12:36:29Z</time>
      </trkpt>
      <trkpt lat="46.97204" lon="5.87271">
        <ele>683</ele>
        <time>2010-05-23T12:36:51Z</time>
      </trkpt>
      <trkpt lat="46.97205" lon="5.87252">
        <ele>682</ele>
        <time>2010-05-23T12:37:14Z</time>
      </trkpt>
      <trkpt lat="46.97211" lon="5.87242">
        <ele>667</ele>
        <time>2010-05-23T12:37:30Z</time>
      </trkpt>
      <trkpt lat="46.97219" lon="5.8724">
        <ele>665</ele>
        <time>2010-05-23T12:37:46Z</time>
      </trkpt>
      <trkpt lat="46.97227" lon="5.87224">
        <ele>663</ele>
        <time>2010-05-23T12:38:01Z</time>
      </trkpt>
      <trkpt lat="46.97228" lon="5.87211">
        <ele>662</ele>
        <time>2010-05-23T12:38:11Z</time>
      </trkpt>
      <trkpt lat="46.9723" lon="5.87184">
        <ele>657</ele>
        <time>2010-05-23T12:38:31Z</time>
      </trkpt>
      <trkpt lat="46.97229" lon="5.8717">
        <ele>656</ele>
        <time>2010-05-23T12:38:43Z</time>
      </trkpt>
      <trkpt lat="46.97227" lon="5.87149">
        <ele>644</ele>
        <time>2010-05-23T12:38:56Z</time>
      </trkpt>
      <trkpt lat="46.97225" lon="5.87143">
        <ele>644</ele>
        <time>2010-05-23T12:39:20Z</time>
      </trkpt>
      <trkpt lat="46.97229" lon="5.87135">
        <ele>643</ele>
        <time>2010-05-23T12:39:37Z</time>
      </trkpt>
      <trkpt lat="46.97228" lon="5.87127">
        <ele>642</ele>
        <time>2010-05-23T12:39:45Z</time>
      </trkpt>
      <trkpt lat="46.97229" lon="5.87114">
        <ele>640</ele>
        <time>2010-05-23T12:39:58Z</time>
      </trkpt>
      <trkpt lat="46.9723" lon="5.87109">
        <ele>639</ele>
        <time>2010-05-23T12:40:02Z</time>
      </trkpt>
      <trkpt lat="46.97237" lon="5.87096">
        <ele>637</ele>
        <time>2010-05-23T12:40:12Z</time>
      </trkpt>
      <trkpt lat="46.97252" lon="5.87074">
        <ele>628</ele>
        <time>2010-05-23T12:40:28Z</time>
      </trkpt>
      <trkpt lat="46.97265" lon="5.87055">
        <ele>623</ele>
        <time>2010-05-23T12:40:44Z</time>
      </trkpt>
      <trkpt lat="46.97282" lon="5.87055">
        <ele>622</ele>
        <time>2010-05-23T12:41:00Z</time>
      </trkpt>
      <trkpt lat="46.97284" lon="5.87056">
        <ele>622</ele>
        <time>2010-05-23T12:41:03Z</time>
      </trkpt>
      <trkpt lat="46.97297" lon="5.87067">
        <ele>621</ele>
        <time>2010-05-23T12:41:19Z</time>
      </trkpt>
      <trkpt lat="46.97309" lon="5.87079">
        <ele>621</ele>
        <time>2010-05-23T12:41:30Z</time>
      </trkpt>
      <trkpt lat="46.97319" lon="5.87087">
        <ele>627</ele>
        <time>2010-05-23T12:41:38Z</time>
      </trkpt>
      <trkpt lat="46.97333" lon="5.87097">
        <ele>626</ele>
        <time>2010-05-23T12:41:50Z</time>
      </trkpt>
      <trkpt lat="46.97349" lon="5.87107">
        <ele>621</ele>
        <time>2010-05-23T12:42:04Z</time>
      </trkpt>
      <trkpt lat="46.97362" lon="5.87106">
        <ele>620</ele>
        <time>2010-05-23T12:42:16Z</time>
      </trkpt>
      <trkpt lat="46.97381" lon="5.87111">
        <ele>619</ele>
        <time>2010-05-23T12:42:29Z</time>
      </trkpt>
      <trkpt lat="46.97394" lon="5.87119">
        <ele>618</ele>
        <time>2010-05-23T12:42:46Z</time>
      </trkpt>
      <trkpt lat="46.97401" lon="5.87126">
        <ele>618</ele>
        <time>2010-05-23T12:42:52Z</time>
      </trkpt>
      <trkpt lat="46.97406" lon="5.87138">
        <ele>618</ele>
        <time>2010-05-23T12:43:02Z</time>
      </trkpt>
      <trkpt lat="46.97407" lon="5.87156">
        <ele>618</ele>
        <time>2010-05-23T12:43:12Z</time>
      </trkpt>
      <trkpt lat="46.97409" lon="5.87178">
        <ele>622</ele>
        <time>2010-05-23T12:43:24Z</time>
      </trkpt>
      <trkpt lat="46.97413" lon="5.87195">
        <ele>625</ele>
        <time>2010-05-23T12:43:33Z</time>
      </trkpt>
      <trkpt lat="46.97415" lon="5.87198">
        <ele>626</ele>
        <time>2010-05-23T12:43:53Z</time>
      </trkpt>
      <trkpt lat="46.97418" lon="5.872">
        <ele>613</ele>
        <time>2010-05-23T12:44:12Z</time>
      </trkpt>
      <trkpt lat="46.97417" lon="5.87195">
        <ele>613</ele>
        <time>2010-05-23T12:44:50Z</time>
      </trkpt>
      <trkpt lat="46.97415" lon="5.87193">
        <ele>625</ele>
        <time>2010-05-23T12:45:17Z</time>
      </trkpt>
      <trkpt lat="46.97424" lon="5.872">
        <ele>613</ele>
        <time>2010-05-23T12:45:48Z</time>
      </trkpt>
      <trkpt lat="46.97435" lon="5.8722">
        <ele>613</ele>
        <time>2010-05-23T12:45:58Z</time>
      </trkpt>
      <trkpt lat="46.97451" lon="5.87232">
        <ele>611</ele>
        <time>2010-05-23T12:46:11Z</time>
      </trkpt>
      <trkpt lat="46.9746" lon="5.87241">
        <ele>610</ele>
        <time>2010-05-23T12:46:20Z</time>
      </trkpt>
      <trkpt lat="46.97463" lon="5.87243">
        <ele>609</ele>
        <time>2010-05-23T12:46:23Z</time>
      </trkpt>
      <trkpt lat="46.97478" lon="5.87255">
        <ele>610</ele>
        <time>2010-05-23T12:46:37Z</time>
      </trkpt>
      <trkpt lat="46.97488" lon="5.87264">
        <ele>609</ele>
        <time>2010-05-23T12:46:48Z</time>
      </trkpt>
      <trkpt lat="46.97497" lon="5.87276">
        <ele>610</ele>
        <time>2010-05-23T12:46:58Z</time>
      </trkpt>
      <trkpt lat="46.97504" lon="5.87288">
        <ele>593</ele>
        <time>2010-05-23T12:47:09Z</time>
      </trkpt>
      <trkpt lat="46.97508" lon="5.87292">
        <ele>593</ele>
        <time>2010-05-23T12:47:15Z</time>
      </trkpt>
      <trkpt lat="46.97521" lon="5.87305">
        <ele>592</ele>
        <time>2010-05-23T12:47:30Z</time>
      </trkpt>
      <trkpt lat="46.97532" lon="5.87305">
        <ele>590</ele>
        <time>2010-05-23T12:47:39Z</time>
      </trkpt>
      <trkpt lat="46.9754" lon="5.87297">
        <ele>588</ele>
        <time>2010-05-23T12:47:49Z</time>
      </trkpt>
      <trkpt lat="46.9754" lon="5.87287">
        <ele>588</ele>
        <time>2010-05-23T12:47:55Z</time>
      </trkpt>
      <trkpt lat="46.97542" lon="5.87276">
        <ele>587</ele>
        <time>2010-05-23T12:48:01Z</time>
      </trkpt>
      <trkpt lat="46.9754" lon="5.87265">
        <ele>588</ele>
        <time>2010-05-23T12:48:17Z</time>
      </trkpt>
      <trkpt lat="46.9754" lon="5.87247">
        <ele>585</ele>
        <time>2010-05-23T12:49:19Z</time>
      </trkpt>
      <trkpt lat="46.9754" lon="5.87221">
        <ele>584</ele>
        <time>2010-05-23T12:49:33Z</time>
      </trkpt>
      <trkpt lat="46.97534" lon="5.87188">
        <ele>584</ele>
        <time>2010-05-23T12:49:49Z</time>
      </trkpt>
      <trkpt lat="46.97532" lon="5.87178">
        <ele>584</ele>
        <time>2010-05-23T12:49:54Z</time>
      </trkpt>
      <trkpt lat="46.97529" lon="5.87149">
        <ele>580</ele>
        <time>2010-05-23T12:50:09Z</time>
      </trkpt>
      <trkpt lat="46.97527" lon="5.87126">
        <ele>579</ele>
        <time>2010-05-23T12:50:21Z</time>
      </trkpt>
      <trkpt lat="46.97526" lon="5.87119">
        <ele>579</ele>
        <time>2010-05-23T12:50:25Z</time>
      </trkpt>
      <trkpt lat="46.97521" lon="5.87094">
        <ele>579</ele>
        <time>2010-05-23T12:50:38Z</time>
      </trkpt>
      <trkpt lat="46.97512" lon="5.8706">
        <ele>575</ele>
        <time>2010-05-23T12:50:55Z</time>
      </trkpt>
      <trkpt lat="46.97509" lon="5.87043">
        <ele>573</ele>
        <time>2010-05-23T12:51:03Z</time>
      </trkpt>
      <trkpt lat="46.97507" lon="5.87013">
        <ele>573</ele>
        <time>2010-05-23T12:51:17Z</time>
      </trkpt>
      <trkpt lat="46.97508" lon="5.87001">
        <ele>574</ele>
        <time>2010-05-23T12:51:22Z</time>
      </trkpt>
      <trkpt lat="46.97509" lon="5.86991">
        <ele>571</ele>
        <time>2010-05-23T12:51:27Z</time>
      </trkpt>
      <trkpt lat="46.9751" lon="5.86979">
        <ele>569</ele>
        <time>2010-05-23T12:51:32Z</time>
      </trkpt>
      <trkpt lat="46.97504" lon="5.86944">
        <ele>567</ele>
        <time>2010-05-23T12:51:49Z</time>
      </trkpt>
      <trkpt lat="46.97496" lon="5.86918">
        <ele>570</ele>
        <time>2010-05-23T12:52:03Z</time>
      </trkpt>
      <trkpt lat="46.97495" lon="5.86915">
        <ele>569</ele>
        <time>2010-05-23T12:52:05Z</time>
      </trkpt>
      <trkpt lat="46.97483" lon="5.86882">
        <ele>569</ele>
        <time>2010-05-23T12:52:22Z</time>
      </trkpt>
      <trkpt lat="46.9747" lon="5.86862">
        <ele>569</ele>
        <time>2010-05-23T12:52:36Z</time>
      </trkpt>
      <trkpt lat="46.97469" lon="5.86861">
        <ele>569</ele>
        <time>2010-05-23T12:52:37Z</time>
      </trkpt>
      <trkpt lat="46.97457" lon="5.86845">
        <ele>569</ele>
        <time>2010-05-23T12:52:51Z</time>
      </trkpt>
      <trkpt lat="46.97452" lon="5.86834">
        <ele>569</ele>
        <time>2010-05-23T12:52:59Z</time>
      </trkpt>
      <trkpt lat="46.9745" lon="5.86804">
        <ele>564</ele>
        <time>2010-05-23T12:53:14Z</time>
      </trkpt>
      <trkpt lat="46.97456" lon="5.8679">
        <ele>563</ele>
        <time>2010-05-23T12:53:22Z</time>
      </trkpt>
      <trkpt lat="46.97472" lon="5.86781">
        <ele>562</ele>
        <time>2010-05-23T12:53:38Z</time>
      </trkpt>
      <trkpt lat="46.9748" lon="5.86774">
        <ele>561</ele>
        <time>2010-05-23T12:53:46Z</time>
      </trkpt>
      <trkpt lat="46.97484" lon="5.86767">
        <ele>561</ele>
        <time>2010-05-23T12:53:56Z</time>
      </trkpt>
      <trkpt lat="46.97475" lon="5.86744">
        <ele>558</ele>
        <time>2010-05-23T12:54:10Z</time>
      </trkpt>
      <trkpt lat="46.97463" lon="5.86723">
        <ele>558</ele>
        <time>2010-05-23T12:54:25Z</time>
      </trkpt>
      <trkpt lat="46.97451" lon="5.86706">
        <ele>558</ele>
        <time>2010-05-23T12:54:38Z</time>
      </trkpt>
      <trkpt lat="46.97443" lon="5.86693">
        <ele>558</ele>
        <time>2010-05-23T12:54:46Z</time>
      </trkpt>
      <trkpt lat="46.97431" lon="5.86676">
        <ele>558</ele>
        <time>2010-05-23T12:54:59Z</time>
      </trkpt>
      <trkpt lat="46.97416" lon="5.86653">
        <ele>556</ele>
        <time>2010-05-23T12:55:15Z</time>
      </trkpt>
      <trkpt lat="46.97403" lon="5.86632">
        <ele>555</ele>
        <time>2010-05-23T12:55:31Z</time>
      </trkpt>
      <trkpt lat="46.97392" lon="5.86615">
        <ele>554</ele>
        <time>2010-05-23T12:55:44Z</time>
      </trkpt>
      <trkpt lat="46.97378" lon="5.86597">
        <ele>554</ele>
        <time>2010-05-23T12:55:58Z</time>
      </trkpt>
      <trkpt lat="46.97368" lon="5.86583">
        <ele>550</ele>
        <time>2010-05-23T12:56:09Z</time>
      </trkpt>
      <trkpt lat="46.97355" lon="5.86566">
        <ele>550</ele>
        <time>2010-05-23T12:56:23Z</time>
      </trkpt>
      <trkpt lat="46.97347" lon="5.86558">
        <ele>549</ele>
        <time>2010-05-23T12:56:31Z</time>
      </trkpt>
      <trkpt lat="46.97342" lon="5.86553">
        <ele>549</ele>
        <time>2010-05-23T12:56:45Z</time>
      </trkpt>
      <trkpt lat="46.9733" lon="5.86543">
        <ele>551</ele>
        <time>2010-05-23T12:56:59Z</time>
      </trkpt>
      <trkpt lat="46.97314" lon="5.86531">
        <ele>551</ele>
        <time>2010-05-23T12:57:14Z</time>
      </trkpt>
      <trkpt lat="46.97299" lon="5.86518">
        <ele>551</ele>
        <time>2010-05-23T12:57:27Z</time>
      </trkpt>
      <trkpt lat="46.97291" lon="5.86513">
        <ele>551</ele>
        <time>2010-05-23T12:57:34Z</time>
      </trkpt>
      <trkpt lat="46.97277" lon="5.86507">
        <ele>551</ele>
        <time>2010-05-23T12:57:45Z</time>
      </trkpt>
      <trkpt lat="46.97262" lon="5.86496">
        <ele>546</ele>
        <time>2010-05-23T12:57:58Z</time>
      </trkpt>
      <trkpt lat="46.9725" lon="5.86486">
        <ele>545</ele>
        <time>2010-05-23T12:58:09Z</time>
      </trkpt>
      <trkpt lat="46.97238" lon="5.86481">
        <ele>545</ele>
        <time>2010-05-23T12:58:20Z</time>
      </trkpt>
      <trkpt lat="46.97218" lon="5.86481">
        <ele>545</ele>
        <time>2010-05-23T12:58:37Z</time>
      </trkpt>
      <trkpt lat="46.97203" lon="5.86468">
        <ele>545</ele>
        <time>2010-05-23T12:58:52Z</time>
      </trkpt>
      <trkpt lat="46.97196" lon="5.86459">
        <ele>544</ele>
        <time>2010-05-23T12:58:59Z</time>
      </trkpt>
      <trkpt lat="46.9719" lon="5.86454">
        <ele>544</ele>
        <time>2010-05-23T12:59:04Z</time>
      </trkpt>
      <trkpt lat="46.97176" lon="5.86433">
        <ele>541</ele>
        <time>2010-05-23T12:59:18Z</time>
      </trkpt>
      <trkpt lat="46.97175" lon="5.86432">
        <ele>541</ele>
        <time>2010-05-23T12:59:19Z</time>
      </trkpt>
      <trkpt lat="46.9717" lon="5.86428">
        <ele>540</ele>
        <time>2010-05-23T12:59:24Z</time>
      </trkpt>
      <trkpt lat="46.97164" lon="5.8642">
        <ele>539</ele>
        <time>2010-05-23T12:59:31Z</time>
      </trkpt>
      <trkpt lat="46.9715" lon="5.86403">
        <ele>535</ele>
        <time>2010-05-23T12:59:46Z</time>
      </trkpt>
      <trkpt lat="46.97137" lon="5.86386">
        <ele>533</ele>
        <time>2010-05-23T13:00:02Z</time>
      </trkpt>
      <trkpt lat="46.97126" lon="5.86369">
        <ele>532</ele>
        <time>2010-05-23T13:00:17Z</time>
      </trkpt>
      <trkpt lat="46.97107" lon="5.86356">
        <ele>531</ele>
        <time>2010-05-23T13:00:35Z</time>
      </trkpt>
      <trkpt lat="46.97104" lon="5.86352">
        <ele>530</ele>
        <time>2010-05-23T13:00:38Z</time>
      </trkpt>
      <trkpt lat="46.97088" lon="5.86338">
        <ele>527</ele>
        <time>2010-05-23T13:00:53Z</time>
      </trkpt>
      <trkpt lat="46.97085" lon="5.86337">
        <ele>527</ele>
        <time>2010-05-23T13:00:56Z</time>
      </trkpt>
      <trkpt lat="46.9708" lon="5.86335">
        <ele>527</ele>
        <time>2010-05-23T13:01:00Z</time>
      </trkpt>
      <trkpt lat="46.97071" lon="5.8633">
        <ele>524</ele>
        <time>2010-05-23T13:01:16Z</time>
      </trkpt>
      <trkpt lat="46.97068" lon="5.86326">
        <ele>523</ele>
        <time>2010-05-23T13:02:37Z</time>
      </trkpt>
      <trkpt lat="46.97062" lon="5.86322">
        <ele>522</ele>
        <time>2010-05-23T13:02:43Z</time>
      </trkpt>
      <trkpt lat="46.97052" lon="5.86316">
        <ele>521</ele>
        <time>2010-05-23T13:02:52Z</time>
      </trkpt>
      <trkpt lat="46.97037" lon="5.86307">
        <ele>521</ele>
        <time>2010-05-23T13:03:06Z</time>
      </trkpt>
      <trkpt lat="46.97035" lon="5.86305">
        <ele>521</ele>
        <time>2010-05-23T13:03:08Z</time>
      </trkpt>
      <trkpt lat="46.97027" lon="5.86297">
        <ele>520</ele>
        <time>2010-05-23T13:03:15Z</time>
      </trkpt>
      <trkpt lat="46.97006" lon="5.86286">
        <ele>519</ele>
        <time>2010-05-23T13:03:33Z</time>
      </trkpt>
      <trkpt lat="46.96989" lon="5.86277">
        <ele>517</ele>
        <time>2010-05-23T13:03:48Z</time>
      </trkpt>
      <trkpt lat="46.9697" lon="5.86269">
        <ele>517</ele>
        <time>2010-05-23T13:04:03Z</time>
      </trkpt>
      <trkpt lat="46.96955" lon="5.86263">
        <ele>517</ele>
        <time>2010-05-23T13:04:17Z</time>
      </trkpt>
      <trkpt lat="46.96939" lon="5.86257">
        <ele>516</ele>
        <time>2010-05-23T13:04:32Z</time>
      </trkpt>
      <trkpt lat="46.96923" lon="5.8625">
        <ele>509</ele>
        <time>2010-05-23T13:04:45Z</time>
      </trkpt>
      <trkpt lat="46.96922" lon="5.86248">
        <ele>510</ele>
        <time>2010-05-23T13:04:46Z</time>
      </trkpt>
      <trkpt lat="46.96902" lon="5.86235">
        <ele>507</ele>
        <time>2010-05-23T13:05:01Z</time>
      </trkpt>
      <trkpt lat="46.96894" lon="5.8623">
        <ele>506</ele>
        <time>2010-05-23T13:05:08Z</time>
      </trkpt>
      <trkpt lat="46.96875" lon="5.86222">
        <ele>504</ele>
        <time>2010-05-23T13:05:26Z</time>
      </trkpt>
      <trkpt lat="46.96854" lon="5.86218">
        <ele>504</ele>
        <time>2010-05-23T13:05:41Z</time>
      </trkpt>
      <trkpt lat="46.96839" lon="5.86219">
        <ele>505</ele>
        <time>2010-05-23T13:05:54Z</time>
      </trkpt>
      <trkpt lat="46.96825" lon="5.86214">
        <ele>503</ele>
        <time>2010-05-23T13:06:04Z</time>
      </trkpt>
      <trkpt lat="46.96807" lon="5.86205">
        <ele>502</ele>
        <time>2010-05-23T13:06:18Z</time>
      </trkpt>
      <trkpt lat="46.96798" lon="5.86199">
        <ele>502</ele>
        <time>2010-05-23T13:06:27Z</time>
      </trkpt>
      <trkpt lat="46.96787" lon="5.86187">
        <ele>501</ele>
        <time>2010-05-23T13:06:36Z</time>
      </trkpt>
      <trkpt lat="46.96772" lon="5.86173">
        <ele>500</ele>
        <time>2010-05-23T13:06:50Z</time>
      </trkpt>
      <trkpt lat="46.96766" lon="5.86165">
        <ele>494</ele>
        <time>2010-05-23T13:06:57Z</time>
      </trkpt>
      <trkpt lat="46.9677" lon="5.86156">
        <ele>494</ele>
        <time>2010-05-23T13:07:07Z</time>
      </trkpt>
      <trkpt lat="46.96785" lon="5.86146">
        <ele>493</ele>
        <time>2010-05-23T13:07:21Z</time>
      </trkpt>
      <trkpt lat="46.96802" lon="5.86136">
        <ele>492</ele>
        <time>2010-05-23T13:07:33Z</time>
      </trkpt>
      <trkpt lat="46.9682" lon="5.86114">
        <ele>490</ele>
        <time>2010-05-23T13:07:50Z</time>
      </trkpt>
      <trkpt lat="46.9683" lon="5.86095">
        <ele>488</ele>
        <time>2010-05-23T13:08:03Z</time>
      </trkpt>
      <trkpt lat="46.96837" lon="5.86071">
        <ele>483</ele>
        <time>2010-05-23T13:08:18Z</time>
      </trkpt>
      <trkpt lat="46.96837" lon="5.86068">
        <ele>482</ele>
        <time>2010-05-23T13:08:20Z</time>
      </trkpt>
      <trkpt lat="46.96837" lon="5.86051">
        <ele>480</ele>
        <time>2010-05-23T13:08:30Z</time>
      </trkpt>
      <trkpt lat="46.96838" lon="5.86033">
        <ele>478</ele>
        <time>2010-05-23T13:08:40Z</time>
      </trkpt>
      <trkpt lat="46.9684" lon="5.86026">
        <ele>478</ele>
        <time>2010-05-23T13:08:45Z</time>
      </trkpt>
      <trkpt lat="46.96842" lon="5.86002">
        <ele>477</ele>
        <time>2010-05-23T13:09:00Z</time>
      </trkpt>
      <trkpt lat="46.9684" lon="5.85982">
        <ele>471</ele>
        <time>2010-05-23T13:09:13Z</time>
      </trkpt>
      <trkpt lat="46.9684" lon="5.85977">
        <ele>471</ele>
        <time>2010-05-23T13:09:16Z</time>
      </trkpt>
      <trkpt lat="46.96838" lon="5.85962">
        <ele>469</ele>
        <time>2010-05-23T13:09:28Z</time>
      </trkpt>
      <trkpt lat="46.96836" lon="5.85947">
        <ele>468</ele>
        <time>2010-05-23T13:09:38Z</time>
      </trkpt>
      <trkpt lat="46.96834" lon="5.85925">
        <ele>466</ele>
        <time>2010-05-23T13:09:52Z</time>
      </trkpt>
      <trkpt lat="46.96832" lon="5.85915">
        <ele>466</ele>
        <time>2010-05-23T13:10:00Z</time>
      </trkpt>
      <trkpt lat="46.96828" lon="5.85887">
        <ele>463</ele>
        <time>2010-05-23T13:10:15Z</time>
      </trkpt>
      <trkpt lat="46.96824" lon="5.8587">
        <ele>461</ele>
        <time>2010-05-23T13:10:25Z</time>
      </trkpt>
      <trkpt lat="46.96817" lon="5.85839">
        <ele>459</ele>
        <time>2010-05-23T13:10:41Z</time>
      </trkpt>
      <trkpt lat="46.96816" lon="5.85837">
        <ele>459</ele>
        <time>2010-05-23T13:10:43Z</time>
      </trkpt>
      <trkpt lat="46.96812" lon="5.85814">
        <ele>454</ele>
        <time>2010-05-23T13:10:56Z</time>
      </trkpt>
      <trkpt lat="46.96807" lon="5.85795">
        <ele>452</ele>
        <time>2010-05-23T13:11:08Z</time>
      </trkpt>
      <trkpt lat="46.96798" lon="5.85776">
        <ele>451</ele>
        <time>2010-05-23T13:11:23Z</time>
      </trkpt>
      <trkpt lat="46.96788" lon="5.85762">
        <ele>450</ele>
        <time>2010-05-23T13:11:36Z</time>
      </trkpt>
      <trkpt lat="46.96772" lon="5.85746">
        <ele>445</ele>
        <time>2010-05-23T13:11:51Z</time>
      </trkpt>
      <trkpt lat="46.9676" lon="5.85728">
        <ele>444</ele>
        <time>2010-05-23T13:12:06Z</time>
      </trkpt>
      <trkpt lat="46.96755" lon="5.85704">
        <ele>442</ele>
        <time>2010-05-23T13:12:20Z</time>
      </trkpt>
      <trkpt lat="46.96751" lon="5.85688">
        <ele>441</ele>
        <time>2010-05-23T13:12:30Z</time>
      </trkpt>
      <trkpt lat="46.96749" lon="5.8568">
        <ele>440</ele>
        <time>2010-05-23T13:12:35Z</time>
      </trkpt>
      <trkpt lat="46.96747" lon="5.85656">
        <ele>437</ele>
        <time>2010-05-23T13:12:49Z</time>
      </trkpt>
      <trkpt lat="46.96744" lon="5.85634">
        <ele>434</ele>
        <time>2010-05-23T13:13:02Z</time>
      </trkpt>
      <trkpt lat="46.96738" lon="5.85613">
        <ele>432</ele>
        <time>2010-05-23T13:13:15Z</time>
      </trkpt>
      <trkpt lat="46.96727" lon="5.8559">
        <ele>431</ele>
        <time>2010-05-23T13:13:31Z</time>
      </trkpt>
      <trkpt lat="46.96722" lon="5.85583">
        <ele>425</ele>
        <time>2010-05-23T13:13:37Z</time>
      </trkpt>
      <trkpt lat="46.96708" lon="5.85567">
        <ele>424</ele>
        <time>2010-05-23T13:13:50Z</time>
      </trkpt>
      <trkpt lat="46.96694" lon="5.85552">
        <ele>423</ele>
        <time>2010-05-23T13:14:03Z</time>
      </trkpt>
      <trkpt lat="46.96678" lon="5.85543">
        <ele>422</ele>
        <time>2010-05-23T13:14:18Z</time>
      </trkpt>
      <trkpt lat="46.96658" lon="5.85545">
        <ele>421</ele>
        <time>2010-05-23T13:14:33Z</time>
      </trkpt>
      <trkpt lat="46.96642" lon="5.85554">
        <ele>421</ele>
        <time>2010-05-23T13:14:47Z</time>
      </trkpt>
      <trkpt lat="46.96641" lon="5.85554">
        <ele>421</ele>
        <time>2010-05-23T13:14:48Z</time>
      </trkpt>
      <trkpt lat="46.96636" lon="5.85558">
        <ele>421</ele>
        <time>2010-05-23T13:14:52Z</time>
      </trkpt>
      <trkpt lat="46.96617" lon="5.85576">
        <ele>421</ele>
        <time>2010-05-23T13:15:10Z</time>
      </trkpt>
      <trkpt lat="46.96599" lon="5.85595">
        <ele>425</ele>
        <time>2010-05-23T13:15:25Z</time>
      </trkpt>
      <trkpt lat="46.96582" lon="5.85609">
        <ele>423</ele>
        <time>2010-05-23T13:15:40Z</time>
      </trkpt>
      <trkpt lat="46.96561" lon="5.85618">
        <ele>423</ele>
        <time>2010-05-23T13:15:55Z</time>
      </trkpt>
      <trkpt lat="46.96541" lon="5.85625">
        <ele>423</ele>
        <time>2010-05-23T13:16:11Z</time>
      </trkpt>
      <trkpt lat="46.9652" lon="5.85635">
        <ele>423</ele>
        <time>2010-05-23T13:16:28Z</time>
      </trkpt>
      <trkpt lat="46.9651" lon="5.85641">
        <ele>424</ele>
        <time>2010-05-23T13:16:37Z</time>
      </trkpt>
      <trkpt lat="46.96504" lon="5.85645">
        <ele>424</ele>
        <time>2010-05-23T13:16:42Z</time>
      </trkpt>
      <trkpt lat="46.96485" lon="5.85654">
        <ele>421</ele>
        <time>2010-05-23T13:16:58Z</time>
      </trkpt>
      <trkpt lat="46.96468" lon="5.85662">
        <ele>419</ele>
        <time>2010-05-23T13:17:13Z</time>
      </trkpt>
      <trkpt lat="46.96449" lon="5.85672">
        <ele>422</ele>
        <time>2010-05-23T13:17:30Z</time>
      </trkpt>
      <trkpt lat="46.96447" lon="5.85674">
        <ele>422</ele>
        <time>2010-05-23T13:17:32Z</time>
      </trkpt>
      <trkpt lat="46.96426" lon="5.85686">
        <ele>421</ele>
        <time>2010-05-23T13:17:50Z</time>
      </trkpt>
      <trkpt lat="46.96407" lon="5.85699">
        <ele>416</ele>
        <time>2010-05-23T13:18:06Z</time>
      </trkpt>
      <trkpt lat="46.96391" lon="5.85707">
        <ele>416</ele>
        <time>2010-05-23T13:18:19Z</time>
      </trkpt>
      <trkpt lat="46.96372" lon="5.85716">
        <ele>415</ele>
        <time>2010-05-23T13:18:35Z</time>
      </trkpt>
      <trkpt lat="46.96357" lon="5.85725">
        <ele>415</ele>
        <time>2010-05-23T13:18:49Z</time>
      </trkpt>
      <trkpt lat="46.96337" lon="5.85736">
        <ele>414</ele>
        <time>2010-05-23T13:19:05Z</time>
      </trkpt>
      <trkpt lat="46.96327" lon="5.85743">
        <ele>412</ele>
        <time>2010-05-23T13:19:13Z</time>
      </trkpt>
      <trkpt lat="46.96306" lon="5.85748">
        <ele>409</ele>
        <time>2010-05-23T13:19:28Z</time>
      </trkpt>
      <trkpt lat="46.96293" lon="5.85754">
        <ele>414</ele>
        <time>2010-05-23T13:19:39Z</time>
      </trkpt>
      <trkpt lat="46.96284" lon="5.85755">
        <ele>413</ele>
        <time>2010-05-23T13:19:46Z</time>
      </trkpt>
      <trkpt lat="46.96266" lon="5.85758">
        <ele>411</ele>
        <time>2010-05-23T13:20:00Z</time>
      </trkpt>
      <trkpt lat="46.96261" lon="5.85759">
        <ele>410</ele>
        <time>2010-05-23T13:20:04Z</time>
      </trkpt>
      <trkpt lat="46.96252" lon="5.85761">
        <ele>409</ele>
        <time>2010-05-23T13:20:12Z</time>
      </trkpt>
      <trkpt lat="46.96237" lon="5.85769">
        <ele>406</ele>
        <time>2010-05-23T13:20:26Z</time>
      </trkpt>
      <trkpt lat="46.96232" lon="5.85769">
        <ele>406</ele>
        <time>2010-05-23T13:20:30Z</time>
      </trkpt>
      <trkpt lat="46.96216" lon="5.85764">
        <ele>405</ele>
        <time>2010-05-23T13:20:44Z</time>
      </trkpt>
      <trkpt lat="46.96208" lon="5.85759">
        <ele>404</ele>
        <time>2010-05-23T13:20:52Z</time>
      </trkpt>
      <trkpt lat="46.9619" lon="5.85758">
        <ele>401</ele>
        <time>2010-05-23T13:21:08Z</time>
      </trkpt>
      <trkpt lat="46.96185" lon="5.85757">
        <ele>400</ele>
        <time>2010-05-23T13:21:12Z</time>
      </trkpt>
      <trkpt lat="46.96181" lon="5.85758">
        <ele>400</ele>
        <time>2010-05-23T13:21:15Z</time>
      </trkpt>
      <trkpt lat="46.96167" lon="5.85768">
        <ele>400</ele>
        <time>2010-05-23T13:21:28Z</time>
      </trkpt>
      <trkpt lat="46.96156" lon="5.85772">
        <ele>394</ele>
        <time>2010-05-23T13:21:37Z</time>
      </trkpt>
      <trkpt lat="46.96152" lon="5.85776">
        <ele>394</ele>
        <time>2010-05-23T13:21:51Z</time>
      </trkpt>
      <trkpt lat="46.96144" lon="5.85779">
        <ele>393</ele>
        <time>2010-05-23T13:22:06Z</time>
      </trkpt>
      <trkpt lat="46.96139" lon="5.85779">
        <ele>393</ele>
        <time>2010-05-23T13:22:09Z</time>
      </trkpt>
      <trkpt lat="46.96124" lon="5.85787">
        <ele>392</ele>
        <time>2010-05-23T13:22:24Z</time>
      </trkpt>
      <trkpt lat="46.96113" lon="5.85792">
        <ele>391</ele>
        <time>2010-05-23T13:22:42Z</time>
      </trkpt>
      <trkpt lat="46.96097" lon="5.858">
        <ele>391</ele>
        <time>2010-05-23T13:22:56Z</time>
      </trkpt>
      <trkpt lat="46.96087" lon="5.85802">
        <ele>390</ele>
        <time>2010-05-23T13:23:11Z</time>
      </trkpt>
      <trkpt lat="46.96093" lon="5.85803">
        <ele>391</ele>
        <time>2010-05-23T13:23:26Z</time>
      </trkpt>
      <trkpt lat="46.96093" lon="5.85803">
        <ele>391</ele>
        <time>2010-05-23T13:23:29Z</time>
      </trkpt>
      <trkpt lat="46.96089" lon="5.85806">
        <ele>391</ele>
        <time>2010-05-23T13:23:33Z</time>
      </trkpt>
      <trkpt lat="46.96079" lon="5.85809">
        <ele>382</ele>
        <time>2010-05-23T13:23:40Z</time>
      </trkpt>
      <trkpt lat="46.9606" lon="5.85816">
        <ele>381</ele>
        <time>2010-05-23T13:23:55Z</time>
      </trkpt>
      <trkpt lat="46.96041" lon="5.85822">
        <ele>378</ele>
        <time>2010-05-23T13:24:11Z</time>
      </trkpt>
      <trkpt lat="46.96028" lon="5.85827">
        <ele>376</ele>
        <time>2010-05-23T13:24:23Z</time>
      </trkpt>
      <trkpt lat="46.96026" lon="5.8583">
        <ele>376</ele>
        <time>2010-05-23T13:24:26Z</time>
      </trkpt>
      <trkpt lat="46.96016" lon="5.85832">
        <ele>374</ele>
        <time>2010-05-23T13:24:35Z</time>
      </trkpt>
      <trkpt lat="46.95999" lon="5.8584">
        <ele>371</ele>
        <time>2010-05-23T13:24:51Z</time>
      </trkpt>
      <trkpt lat="46.95998" lon="5.85841">
        <ele>371</ele>
        <time>2010-05-23T13:24:52Z</time>
      </trkpt>
      <trkpt lat="46.9598" lon="5.85849">
        <ele>370</ele>
        <time>2010-05-23T13:25:09Z</time>
      </trkpt>
      <trkpt lat="46.95961" lon="5.8586">
        <ele>368</ele>
        <time>2010-05-23T13:25:26Z</time>
      </trkpt>
      <trkpt lat="46.95949" lon="5.85872">
        <ele>368</ele>
        <time>2010-05-23T13:25:39Z</time>
      </trkpt>
      <trkpt lat="46.95946" lon="5.85874">
        <ele>368</ele>
        <time>2010-05-23T13:25:41Z</time>
      </trkpt>
      <trkpt lat="46.95929" lon="5.85884">
        <ele>367</ele>
        <time>2010-05-23T13:25:57Z</time>
      </trkpt>
      <trkpt lat="46.95926" lon="5.85884">
        <ele>366</ele>
        <time>2010-05-23T13:26:00Z</time>
      </trkpt>
      <trkpt lat="46.95907" lon="5.85891">
        <ele>357</ele>
        <time>2010-05-23T13:26:16Z</time>
      </trkpt>
      <trkpt lat="46.95899" lon="5.85894">
        <ele>356</ele>
        <time>2010-05-23T13:26:27Z</time>
      </trkpt>
      <trkpt lat="46.95889" lon="5.85892">
        <ele>355</ele>
        <time>2010-05-23T13:26:36Z</time>
      </trkpt>
      <trkpt lat="46.95882" lon="5.85892">
        <ele>354</ele>
        <time>2010-05-23T13:26:49Z</time>
      </trkpt>
      <trkpt lat="46.95882" lon="5.85892">
        <ele>354</ele>
        <time>2010-05-23T13:27:02Z</time>
      </trkpt>
      <trkpt lat="46.95878" lon="5.85905">
        <ele>354</ele>
        <time>2010-05-23T13:27:10Z</time>
      </trkpt>
      <trkpt lat="46.95873" lon="5.85912">
        <ele>353</ele>
        <time>2010-05-23T13:27:16Z</time>
      </trkpt>
      <trkpt lat="46.95866" lon="5.85926">
        <ele>356</ele>
        <time>2010-05-23T13:27:25Z</time>
      </trkpt>
      <trkpt lat="46.95852" lon="5.85943">
        <ele>355</ele>
        <time>2010-05-23T13:27:40Z</time>
      </trkpt>
      <trkpt lat="46.95837" lon="5.85962">
        <ele>355</ele>
        <time>2010-05-23T13:27:55Z</time>
      </trkpt>
      <trkpt lat="46.95822" lon="5.85986">
        <ele>345</ele>
        <time>2010-05-23T13:28:14Z</time>
      </trkpt>
      <trkpt lat="46.9581" lon="5.86002">
        <ele>348</ele>
        <time>2010-05-23T13:28:28Z</time>
      </trkpt>
      <trkpt lat="46.9579" lon="5.86015">
        <ele>346</ele>
        <time>2010-05-23T13:28:45Z</time>
      </trkpt>
      <trkpt lat="46.9577" lon="5.86022">
        <ele>343</ele>
        <time>2010-05-23T13:29:01Z</time>
      </trkpt>
      <trkpt lat="46.95753" lon="5.86038">
        <ele>344</ele>
        <time>2010-05-23T13:29:17Z</time>
      </trkpt>
      <trkpt lat="46.95738" lon="5.86058">
        <ele>338</ele>
        <time>2010-05-23T13:29:33Z</time>
      </trkpt>
      <trkpt lat="46.95737" lon="5.8606">
        <ele>338</ele>
        <time>2010-05-23T13:29:35Z</time>
      </trkpt>
      <trkpt lat="46.95724" lon="5.86076">
        <ele>338</ele>
        <time>2010-05-23T13:29:49Z</time>
      </trkpt>
      <trkpt lat="46.95712" lon="5.8609">
        <ele>340</ele>
        <time>2010-05-23T13:30:01Z</time>
      </trkpt>
      <trkpt lat="46.95702" lon="5.86106">
        <ele>339</ele>
        <time>2010-05-23T13:30:14Z</time>
      </trkpt>
      <trkpt lat="46.95691" lon="5.86117">
        <ele>339</ele>
        <time>2010-05-23T13:30:28Z</time>
      </trkpt>
      <trkpt lat="46.95689" lon="5.86117">
        <ele>338</ele>
        <time>2010-05-23T13:30:31Z</time>
      </trkpt>
      <trkpt lat="46.95682" lon="5.86124">
        <ele>338</ele>
        <time>2010-05-23T13:30:35Z</time>
      </trkpt>
      <trkpt lat="46.95673" lon="5.86138">
        <ele>338</ele>
        <time>2010-05-23T13:30:44Z</time>
      </trkpt>
      <trkpt lat="46.9567" lon="5.86142">
        <ele>338</ele>
        <time>2010-05-23T13:30:47Z</time>
      </trkpt>
      <trkpt lat="46.95648" lon="5.86148">
        <ele>333</ele>
        <time>2010-05-23T13:31:03Z</time>
      </trkpt>
      <trkpt lat="46.95637" lon="5.86165">
        <ele>332</ele>
        <time>2010-05-23T13:31:17Z</time>
      </trkpt>
      <trkpt lat="46.95629" lon="5.86176">
        <ele>333</ele>
        <time>2010-05-23T13:31:26Z</time>
      </trkpt>
      <trkpt lat="46.95616" lon="5.86192">
        <ele>333</ele>
        <time>2010-05-23T13:31:37Z</time>
      </trkpt>
      <trkpt lat="46.9561" lon="5.86204">
        <ele>334</ele>
        <time>2010-05-23T13:31:45Z</time>
      </trkpt>
      <trkpt lat="46.95595" lon="5.86219">
        <ele>334</ele>
        <time>2010-05-23T13:32:00Z</time>
      </trkpt>
      <trkpt lat="46.95592" lon="5.86222">
        <ele>334</ele>
        <time>2010-05-23T13:32:04Z</time>
      </trkpt>
      <trkpt lat="46.95586" lon="5.86231">
        <ele>333</ele>
        <time>2010-05-23T13:32:10Z</time>
      </trkpt>
      <trkpt lat="46.9557" lon="5.86245">
        <ele>333</ele>
        <time>2010-05-23T13:32:23Z</time>
      </trkpt>
      <trkpt lat="46.95559" lon="5.86255">
        <ele>335</ele>
        <time>2010-05-23T13:32:32Z</time>
      </trkpt>
      <trkpt lat="46.95551" lon="5.86263">
        <ele>335</ele>
        <time>2010-05-23T13:32:39Z</time>
      </trkpt>
      <trkpt lat="46.95541" lon="5.86271">
        <ele>335</ele>
        <time>2010-05-23T13:32:47Z</time>
      </trkpt>
      <trkpt lat="46.95525" lon="5.86284">
        <ele>335</ele>
        <time>2010-05-23T13:33:01Z</time>
      </trkpt>
      <trkpt lat="46.9551" lon="5.86299">
        <ele>335</ele>
        <time>2010-05-23T13:33:15Z</time>
      </trkpt>
      <trkpt lat="46.95508" lon="5.86301">
        <ele>335</ele>
        <time>2010-05-23T13:33:17Z</time>
      </trkpt>
      <trkpt lat="46.95489" lon="5.86319">
        <ele>330</ele>
        <time>2010-05-23T13:33:33Z</time>
      </trkpt>
      <trkpt lat="46.9547" lon="5.86338">
        <ele>336</ele>
        <time>2010-05-23T13:33:47Z</time>
      </trkpt>
      <trkpt lat="46.95452" lon="5.86359">
        <ele>337</ele>
        <time>2010-05-23T13:34:03Z</time>
      </trkpt>
      <trkpt lat="46.95447" lon="5.86363">
        <ele>337</ele>
        <time>2010-05-23T13:34:07Z</time>
      </trkpt>
      <trkpt lat="46.95439" lon="5.86368">
        <ele>336</ele>
        <time>2010-05-23T13:34:13Z</time>
      </trkpt>
      <trkpt lat="46.95421" lon="5.86387">
        <ele>338</ele>
        <time>2010-05-23T13:34:28Z</time>
      </trkpt>
      <trkpt lat="46.95416" lon="5.86393">
        <ele>332</ele>
        <time>2010-05-23T13:34:33Z</time>
      </trkpt>
      <trkpt lat="46.95396" lon="5.86414">
        <ele>333</ele>
        <time>2010-05-23T13:34:51Z</time>
      </trkpt>
      <trkpt lat="46.95377" lon="5.86434">
        <ele>336</ele>
        <time>2010-05-23T13:35:07Z</time>
      </trkpt>
      <trkpt lat="46.95365" lon="5.8645">
        <ele>336</ele>
        <time>2010-05-23T13:35:18Z</time>
      </trkpt>
      <trkpt lat="46.95349" lon="5.86472">
        <ele>335</ele>
        <time>2010-05-23T13:35:32Z</time>
      </trkpt>
      <trkpt lat="46.95341" lon="5.86483">
        <ele>333</ele>
        <time>2010-05-23T13:35:40Z</time>
      </trkpt>
      <trkpt lat="46.95327" lon="5.86501">
        <ele>329</ele>
        <time>2010-05-23T13:35:55Z</time>
      </trkpt>
      <trkpt lat="46.95321" lon="5.86506">
        <ele>329</ele>
        <time>2010-05-23T13:36:00Z</time>
      </trkpt>
      <trkpt lat="46.9531" lon="5.86524">
        <ele>330</ele>
        <time>2010-05-23T13:36:13Z</time>
      </trkpt>
      <trkpt lat="46.95304" lon="5.86532">
        <ele>331</ele>
        <time>2010-05-23T13:36:19Z</time>
      </trkpt>
      <trkpt lat="46.95295" lon="5.86545">
        <ele>331</ele>
        <time>2010-05-23T13:36:29Z</time>
      </trkpt>
      <trkpt lat="46.95272" lon="5.86573">
        <ele>328</ele>
        <time>2010-05-23T13:36:45Z</time>
      </trkpt>
      <trkpt lat="46.95271" lon="5.86574">
        <ele>328</ele>
        <time>2010-05-23T13:36:46Z</time>
      </trkpt>
      <trkpt lat="46.95259" lon="5.86592">
        <ele>331</ele>
        <time>2010-05-23T13:37:01Z</time>
      </trkpt>
      <trkpt lat="46.95246" lon="5.86616">
        <ele>328</ele>
        <time>2010-05-23T13:37:15Z</time>
      </trkpt>
      <trkpt lat="46.95237" lon="5.86637">
        <ele>331</ele>
        <time>2010-05-23T13:37:29Z</time>
      </trkpt>
      <trkpt lat="46.95229" lon="5.86654">
        <ele>333</ele>
        <time>2010-05-23T13:37:40Z</time>
      </trkpt>
      <trkpt lat="46.95218" lon="5.86678">
        <ele>339</ele>
        <time>2010-05-23T13:37:53Z</time>
      </trkpt>
      <trkpt lat="46.95208" lon="5.86702">
        <ele>339</ele>
        <time>2010-05-23T13:38:07Z</time>
      </trkpt>
      <trkpt lat="46.95204" lon="5.86725">
        <ele>340</ele>
        <time>2010-05-23T13:38:17Z</time>
      </trkpt>
      <trkpt lat="46.95193" lon="5.86757">
        <ele>344</ele>
        <time>2010-05-23T13:38:34Z</time>
      </trkpt>
      <trkpt lat="46.95185" lon="5.86787">
        <ele>345</ele>
        <time>2010-05-23T13:38:48Z</time>
      </trkpt>
      <trkpt lat="46.95168" lon="5.86812">
        <ele>342</ele>
        <time>2010-05-23T13:39:02Z</time>
      </trkpt>
      <trkpt lat="46.9516" lon="5.86827">
        <ele>334</ele>
        <time>2010-05-23T13:39:13Z</time>
      </trkpt>
      <trkpt lat="46.95156" lon="5.8684">
        <ele>333</ele>
        <time>2010-05-23T13:39:19Z</time>
      </trkpt>
      <trkpt lat="46.95148" lon="5.86872">
        <ele>333</ele>
        <time>2010-05-23T13:39:33Z</time>
      </trkpt>
      <trkpt lat="46.95147" lon="5.8688">
        <ele>333</ele>
        <time>2010-05-23T13:39:37Z</time>
      </trkpt>
      <trkpt lat="46.95144" lon="5.86903">
        <ele>333</ele>
        <time>2010-05-23T13:39:50Z</time>
      </trkpt>
      <trkpt lat="46.95138" lon="5.86933">
        <ele>330</ele>
        <time>2010-05-23T13:40:05Z</time>
      </trkpt>
      <trkpt lat="46.95136" lon="5.86952">
        <ele>329</ele>
        <time>2010-05-23T13:40:17Z</time>
      </trkpt>
      <trkpt lat="46.95135" lon="5.86957">
        <ele>329</ele>
        <time>2010-05-23T13:40:19Z</time>
      </trkpt>
      <trkpt lat="46.95136" lon="5.86967">
        <ele>328</ele>
        <time>2010-05-23T13:40:24Z</time>
      </trkpt>
      <trkpt lat="46.95134" lon="5.86976">
        <ele>328</ele>
        <time>2010-05-23T13:40:29Z</time>
      </trkpt>
      <trkpt lat="46.95131" lon="5.86997">
        <ele>327</ele>
        <time>2010-05-23T13:40:40Z</time>
      </trkpt>
      <trkpt lat="46.95129" lon="5.8701">
        <ele>324</ele>
        <time>2010-05-23T13:40:50Z</time>
      </trkpt>
      <trkpt lat="46.95128" lon="5.8702">
        <ele>324</ele>
        <time>2010-05-23T13:40:54Z</time>
      </trkpt>
      <trkpt lat="46.95127" lon="5.87029">
        <ele>323</ele>
        <time>2010-05-23T13:41:12Z</time>
      </trkpt>
      <trkpt lat="46.95129" lon="5.87032">
        <ele>323</ele>
        <time>2010-05-23T13:41:15Z</time>
      </trkpt>
      <trkpt lat="46.9513" lon="5.87042">
        <ele>323</ele>
        <time>2010-05-23T13:41:25Z</time>
      </trkpt>
      <trkpt lat="46.9513" lon="5.87047">
        <ele>323</ele>
        <time>2010-05-23T13:41:28Z</time>
      </trkpt>
      <trkpt lat="46.95139" lon="5.87072">
        <ele>323</ele>
        <time>2010-05-23T13:41:42Z</time>
      </trkpt>
      <trkpt lat="46.9514" lon="5.87073">
        <ele>323</ele>
        <time>2010-05-23T13:41:43Z</time>
      </trkpt>
      <trkpt lat="46.95142" lon="5.8708">
        <ele>323</ele>
        <time>2010-05-23T13:41:48Z</time>
      </trkpt>
      <trkpt lat="46.95132" lon="5.87116">
        <ele>321</ele>
        <time>2010-05-23T13:42:04Z</time>
      </trkpt>
      <trkpt lat="46.95132" lon="5.87131">
        <ele>320</ele>
        <time>2010-05-23T13:42:19Z</time>
      </trkpt>
      <trkpt lat="46.95132" lon="5.87139">
        <ele>320</ele>
        <time>2010-05-23T13:42:24Z</time>
      </trkpt>
      <trkpt lat="46.9513" lon="5.87151">
        <ele>320</ele>
        <time>2010-05-23T13:42:29Z</time>
      </trkpt>
      <trkpt lat="46.95128" lon="5.87161">
        <ele>320</ele>
        <time>2010-05-23T13:42:33Z</time>
      </trkpt>
      <trkpt lat="46.95122" lon="5.87174">
        <ele>322</ele>
        <time>2010-05-23T13:42:39Z</time>
      </trkpt>
      <trkpt lat="46.95116" lon="5.87204">
        <ele>323</ele>
        <time>2010-05-23T13:42:56Z</time>
      </trkpt>
      <trkpt lat="46.95105" lon="5.87242">
        <ele>323</ele>
        <time>2010-05-23T13:43:13Z</time>
      </trkpt>
      <trkpt lat="46.95099" lon="5.87263">
        <ele>328</ele>
        <time>2010-05-23T13:43:27Z</time>
      </trkpt>
      <trkpt lat="46.95093" lon="5.87287">
        <ele>330</ele>
        <time>2010-05-23T13:43:40Z</time>
      </trkpt>
      <trkpt lat="46.95082" lon="5.87313">
        <ele>327</ele>
        <time>2010-05-23T13:43:53Z</time>
      </trkpt>
      <trkpt lat="46.95076" lon="5.87336">
        <ele>331</ele>
        <time>2010-05-23T13:44:07Z</time>
      </trkpt>
      <trkpt lat="46.95069" lon="5.87364">
        <ele>330</ele>
        <time>2010-05-23T13:44:24Z</time>
      </trkpt>
      <trkpt lat="46.95061" lon="5.87392">
        <ele>331</ele>
        <time>2010-05-23T13:44:40Z</time>
      </trkpt>
      <trkpt lat="46.95049" lon="5.87421">
        <ele>334</ele>
        <time>2010-05-23T13:44:57Z</time>
      </trkpt>
      <trkpt lat="46.9504" lon="5.87448">
        <ele>334</ele>
        <time>2010-05-23T13:45:13Z</time>
      </trkpt>
      <trkpt lat="46.95033" lon="5.8747">
        <ele>333</ele>
        <time>2010-05-23T13:45:26Z</time>
      </trkpt>
      <trkpt lat="46.95026" lon="5.87493">
        <ele>333</ele>
        <time>2010-05-23T13:45:41Z</time>
      </trkpt>
      <trkpt lat="46.9502" lon="5.87513">
        <ele>335</ele>
        <time>2010-05-23T13:45:55Z</time>
      </trkpt>
      <trkpt lat="46.95019" lon="5.87518">
        <ele>335</ele>
        <time>2010-05-23T13:45:57Z</time>
      </trkpt>
      <trkpt lat="46.9501" lon="5.87542">
        <ele>336</ele>
        <time>2010-05-23T13:46:14Z</time>
      </trkpt>
      <trkpt lat="46.94994" lon="5.87582">
        <ele>333</ele>
        <time>2010-05-23T13:46:32Z</time>
      </trkpt>
      <trkpt lat="46.9498" lon="5.8761">
        <ele>334</ele>
        <time>2010-05-23T13:46:46Z</time>
      </trkpt>
      <trkpt lat="46.94968" lon="5.87637">
        <ele>335</ele>
        <time>2010-05-23T13:47:02Z</time>
      </trkpt>
      <trkpt lat="46.9496" lon="5.8766">
        <ele>335</ele>
        <time>2010-05-23T13:47:17Z</time>
      </trkpt>
      <trkpt lat="46.94952" lon="5.87678">
        <ele>339</ele>
        <time>2010-05-23T13:47:31Z</time>
      </trkpt>
      <trkpt lat="46.94946" lon="5.87693">
        <ele>339</ele>
        <time>2010-05-23T13:47:39Z</time>
      </trkpt>
      <trkpt lat="46.94941" lon="5.87711">
        <ele>339</ele>
        <time>2010-05-23T13:47:53Z</time>
      </trkpt>
      <trkpt lat="46.94932" lon="5.8773">
        <ele>338</ele>
        <time>2010-05-23T13:48:05Z</time>
      </trkpt>
      <trkpt lat="46.94923" lon="5.87742">
        <ele>336</ele>
        <time>2010-05-23T13:48:14Z</time>
      </trkpt>
      <trkpt lat="46.94904" lon="5.87772">
        <ele>335</ele>
        <time>2010-05-23T13:48:29Z</time>
      </trkpt>
      <trkpt lat="46.94898" lon="5.87788">
        <ele>336</ele>
        <time>2010-05-23T13:48:42Z</time>
      </trkpt>
      <trkpt lat="46.94895" lon="5.87796">
        <ele>336</ele>
        <time>2010-05-23T13:48:55Z</time>
      </trkpt>
      <trkpt lat="46.9489" lon="5.87806">
        <ele>336</ele>
        <time>2010-05-23T13:49:01Z</time>
      </trkpt>
      <trkpt lat="46.94882" lon="5.87823">
        <ele>336</ele>
        <time>2010-05-23T13:49:06Z</time>
      </trkpt>
      <trkpt lat="46.9486" lon="5.87852">
        <ele>340</ele>
        <time>2010-05-23T13:49:22Z</time>
      </trkpt>
      <trkpt lat="46.94835" lon="5.87876">
        <ele>340</ele>
        <time>2010-05-23T13:49:43Z</time>
      </trkpt>
      <trkpt lat="46.94818" lon="5.87897">
        <ele>336</ele>
        <time>2010-05-23T13:49:59Z</time>
      </trkpt>
      <trkpt lat="46.94805" lon="5.87913">
        <ele>336</ele>
        <time>2010-05-23T13:50:13Z</time>
      </trkpt>
      <trkpt lat="46.94792" lon="5.87929">
        <ele>340</ele>
        <time>2010-05-23T13:50:28Z</time>
      </trkpt>
      <trkpt lat="46.94773" lon="5.87951">
        <ele>340</ele>
        <time>2010-05-23T13:50:45Z</time>
      </trkpt>
      <trkpt lat="46.94764" lon="5.87961">
        <ele>340</ele>
        <time>2010-05-23T13:50:54Z</time>
      </trkpt>
      <trkpt lat="46.9476" lon="5.87965">
        <ele>340</ele>
        <time>2010-05-23T13:50:57Z</time>
      </trkpt>
      <trkpt lat="46.94757" lon="5.87968">
        <ele>340</ele>
        <time>2010-05-23T13:50:59Z</time>
      </trkpt>
      <trkpt lat="46.94748" lon="5.87977">
        <ele>337</ele>
        <time>2010-05-23T13:51:08Z</time>
      </trkpt>
      <trkpt lat="46.94723" lon="5.87978">
        <ele>337</ele>
        <time>2010-05-23T13:51:25Z</time>
      </trkpt>
      <trkpt lat="46.94701" lon="5.87974">
        <ele>336</ele>
        <time>2010-05-23T13:51:40Z</time>
      </trkpt>
      <trkpt lat="46.9468" lon="5.87976">
        <ele>336</ele>
        <time>2010-05-23T13:51:56Z</time>
      </trkpt>
      <trkpt lat="46.9466" lon="5.87963">
        <ele>336</ele>
        <time>2010-05-23T13:52:08Z</time>
      </trkpt>
      <trkpt lat="46.94648" lon="5.87965">
        <ele>336</ele>
        <time>2010-05-23T13:52:18Z</time>
      </trkpt>
      <trkpt lat="46.94632" lon="5.87962">
        <ele>337</ele>
        <time>2010-05-23T13:52:29Z</time>
      </trkpt>
      <trkpt lat="46.94613" lon="5.87955">
        <ele>337</ele>
        <time>2010-05-23T13:52:43Z</time>
      </trkpt>
      <trkpt lat="46.94601" lon="5.87952">
        <ele>337</ele>
        <time>2010-05-23T13:52:54Z</time>
      </trkpt>
      <trkpt lat="46.94598" lon="5.87943">
        <ele>337</ele>
        <time>2010-05-23T13:53:00Z</time>
      </trkpt>
      <trkpt lat="46.94597" lon="5.8794">
        <ele>337</ele>
        <time>2010-05-23T13:53:02Z</time>
      </trkpt>
      <trkpt lat="46.94596" lon="5.87919">
        <ele>336</ele>
        <time>2010-05-23T13:53:15Z</time>
      </trkpt>
      <trkpt lat="46.94597" lon="5.87915">
        <ele>334</ele>
        <time>2010-05-23T13:53:18Z</time>
      </trkpt>
      <trkpt lat="46.94602" lon="5.87905">
        <ele>334</ele>
        <time>2010-05-23T13:53:28Z</time>
      </trkpt>
      <trkpt lat="46.94602" lon="5.87902">
        <ele>333</ele>
        <time>2010-05-23T13:53:30Z</time>
      </trkpt>
      <trkpt lat="46.94602" lon="5.87898">
        <ele>333</ele>
        <time>2010-05-23T13:53:33Z</time>
      </trkpt>
      <trkpt lat="46.94601" lon="5.87895">
        <ele>333</ele>
        <time>2010-05-23T13:53:35Z</time>
      </trkpt>
      <trkpt lat="46.94584" lon="5.87891">
        <ele>333</ele>
        <time>2010-05-23T13:53:50Z</time>
      </trkpt>
      <trkpt lat="46.94571" lon="5.87893">
        <ele>334</ele>
        <time>2010-05-23T13:54:00Z</time>
      </trkpt>
      <trkpt lat="46.94567" lon="5.87895">
        <ele>334</ele>
        <time>2010-05-23T13:54:03Z</time>
      </trkpt>
      <trkpt lat="46.94549" lon="5.8789">
        <ele>334</ele>
        <time>2010-05-23T13:54:16Z</time>
      </trkpt>
      <trkpt lat="46.9453" lon="5.87894">
        <ele>334</ele>
        <time>2010-05-23T13:54:31Z</time>
      </trkpt>
      <trkpt lat="46.94522" lon="5.87892">
        <ele>334</ele>
        <time>2010-05-23T13:54:37Z</time>
      </trkpt>
      <trkpt lat="46.94519" lon="5.87895">
        <ele>334</ele>
        <time>2010-05-23T13:54:40Z</time>
      </trkpt>
      <trkpt lat="46.94506" lon="5.87898">
        <ele>335</ele>
        <time>2010-05-23T13:54:52Z</time>
      </trkpt>
      <trkpt lat="46.94497" lon="5.8789">
        <ele>336</ele>
        <time>2010-05-23T13:55:02Z</time>
      </trkpt>
      <trkpt lat="46.94473" lon="5.87885">
        <ele>336</ele>
        <time>2010-05-23T13:55:18Z</time>
      </trkpt>
      <trkpt lat="46.94459" lon="5.87881">
        <ele>336</ele>
        <time>2010-05-23T13:55:28Z</time>
      </trkpt>
      <trkpt lat="46.94453" lon="5.87884">
        <ele>336</ele>
        <time>2010-05-23T13:55:33Z</time>
      </trkpt>
      <trkpt lat="46.94437" lon="5.87887">
        <ele>336</ele>
        <time>2010-05-23T13:55:50Z</time>
      </trkpt>
      <trkpt lat="46.94425" lon="5.87892">
        <ele>337</ele>
        <time>2010-05-23T13:56:02Z</time>
      </trkpt>
      <trkpt lat="46.94399" lon="5.87898">
        <ele>339</ele>
        <time>2010-05-23T13:56:24Z</time>
      </trkpt>
      <trkpt lat="46.94393" lon="5.87902">
        <ele>339</ele>
        <time>2010-05-23T13:56:27Z</time>
      </trkpt>
      <trkpt lat="46.94377" lon="5.87895">
        <ele>339</ele>
        <time>2010-05-23T13:56:40Z</time>
      </trkpt>
      <trkpt lat="46.94362" lon="5.87898">
        <ele>339</ele>
        <time>2010-05-23T13:56:53Z</time>
      </trkpt>
      <trkpt lat="46.94341" lon="5.87908">
        <ele>340</ele>
        <time>2010-05-23T13:57:07Z</time>
      </trkpt>
      <trkpt lat="46.9432" lon="5.8792">
        <ele>345</ele>
        <time>2010-05-23T13:57:16Z</time>
      </trkpt>
      <trkpt lat="46.94306" lon="5.87919">
        <ele>347</ele>
        <time>2010-05-23T13:57:25Z</time>
      </trkpt>
      <trkpt lat="46.94301" lon="5.87911">
        <ele>342</ele>
        <time>2010-05-23T13:57:30Z</time>
      </trkpt>
      <trkpt lat="46.94299" lon="5.87908">
        <ele>342</ele>
        <time>2010-05-23T13:57:33Z</time>
      </trkpt>
      <trkpt lat="46.94288" lon="5.87899">
        <ele>342</ele>
        <time>2010-05-23T13:57:45Z</time>
      </trkpt>
      <trkpt lat="46.94271" lon="5.87901">
        <ele>344</ele>
        <time>2010-05-23T13:57:55Z</time>
      </trkpt>
      <trkpt lat="46.94256" lon="5.87902">
        <ele>345</ele>
        <time>2010-05-23T13:58:03Z</time>
      </trkpt>
      <trkpt lat="46.94245" lon="5.87882">
        <ele>347</ele>
        <time>2010-05-23T13:58:14Z</time>
      </trkpt>
      <trkpt lat="46.94229" lon="5.87854">
        <ele>344</ele>
        <time>2010-05-23T13:58:30Z</time>
      </trkpt>
      <trkpt lat="46.94214" lon="5.87848">
        <ele>345</ele>
        <time>2010-05-23T13:58:48Z</time>
      </trkpt>
      <trkpt lat="46.94211" lon="5.87844">
        <ele>345</ele>
        <time>2010-05-23T13:58:51Z</time>
      </trkpt>
      <trkpt lat="46.9421" lon="5.87845">
        <ele>345</ele>
        <time>2010-05-23T13:58:53Z</time>
      </trkpt>
      <trkpt lat="46.94191" lon="5.87833">
        <ele>343</ele>
        <time>2010-05-23T13:59:06Z</time>
      </trkpt>
      <trkpt lat="46.94183" lon="5.87827">
        <ele>343</ele>
        <time>2010-05-23T13:59:14Z</time>
      </trkpt>
      <trkpt lat="46.9417" lon="5.87824">
        <ele>344</ele>
        <time>2010-05-23T13:59:25Z</time>
      </trkpt>
      <trkpt lat="46.9416" lon="5.87822">
        <ele>345</ele>
        <time>2010-05-23T13:59:34Z</time>
      </trkpt>
      <trkpt lat="46.94154" lon="5.87827">
        <ele>345</ele>
        <time>2010-05-23T13:59:41Z</time>
      </trkpt>
      <trkpt lat="46.94143" lon="5.87831">
        <ele>345</ele>
        <time>2010-05-23T13:59:54Z</time>
      </trkpt>
      <trkpt lat="46.94141" lon="5.87831">
        <ele>345</ele>
        <time>2010-05-23T13:59:57Z</time>
      </trkpt>
      <trkpt lat="46.94121" lon="5.87835">
        <ele>352</ele>
        <time>2010-05-23T14:00:12Z</time>
      </trkpt>
      <trkpt lat="46.94111" lon="5.87836">
        <ele>352</ele>
        <time>2010-05-23T14:00:26Z</time>
      </trkpt>
      <trkpt lat="46.9409" lon="5.87825">
        <ele>348</ele>
        <time>2010-05-23T14:00:38Z</time>
      </trkpt>
      <trkpt lat="46.9408" lon="5.87824">
        <ele>349</ele>
        <time>2010-05-23T14:00:43Z</time>
      </trkpt>
      <trkpt lat="46.94069" lon="5.87824">
        <ele>348</ele>
        <time>2010-05-23T14:00:51Z</time>
      </trkpt>
      <trkpt lat="46.94065" lon="5.87821">
        <ele>348</ele>
        <time>2010-05-23T14:00:54Z</time>
      </trkpt>
      <trkpt lat="46.94043" lon="5.87808">
        <ele>348</ele>
        <time>2010-05-23T14:01:08Z</time>
      </trkpt>
      <trkpt lat="46.94021" lon="5.87803">
        <ele>348</ele>
        <time>2010-05-23T14:01:23Z</time>
      </trkpt>
      <trkpt lat="46.94006" lon="5.87801">
        <ele>348</ele>
        <time>2010-05-23T14:01:36Z</time>
      </trkpt>
      <trkpt lat="46.93994" lon="5.87801">
        <ele>349</ele>
        <time>2010-05-23T14:01:51Z</time>
      </trkpt>
      <trkpt lat="46.9399" lon="5.87802">
        <ele>349</ele>
        <time>2010-05-23T14:01:56Z</time>
      </trkpt>
      <trkpt lat="46.93975" lon="5.87804">
        <ele>349</ele>
        <time>2010-05-23T14:02:04Z</time>
      </trkpt>
      <trkpt lat="46.93959" lon="5.87792">
        <ele>349</ele>
        <time>2010-05-23T14:02:21Z</time>
      </trkpt>
      <trkpt lat="46.93948" lon="5.87778">
        <ele>348</ele>
        <time>2010-05-23T14:02:35Z</time>
      </trkpt>
      <trkpt lat="46.93933" lon="5.87768">
        <ele>347</ele>
        <time>2010-05-23T14:02:48Z</time>
      </trkpt>
      <trkpt lat="46.93925" lon="5.87762">
        <ele>345</ele>
        <time>2010-05-23T14:02:57Z</time>
      </trkpt>
      <trkpt lat="46.93923" lon="5.87762">
        <ele>345</ele>
        <time>2010-05-23T14:02:58Z</time>
      </trkpt>
      <trkpt lat="46.93912" lon="5.87765">
        <ele>346</ele>
        <time>2010-05-23T14:03:03Z</time>
      </trkpt>
      <trkpt lat="46.93898" lon="5.87749">
        <ele>342</ele>
        <time>2010-05-23T14:03:16Z</time>
      </trkpt>
      <trkpt lat="46.9388" lon="5.87746">
        <ele>342</ele>
        <time>2010-05-23T14:03:27Z</time>
      </trkpt>
      <trkpt lat="46.93854" lon="5.87733">
        <ele>342</ele>
        <time>2010-05-23T14:03:45Z</time>
      </trkpt>
      <trkpt lat="46.9384" lon="5.87723">
        <ele>342</ele>
        <time>2010-05-23T14:03:57Z</time>
      </trkpt>
      <trkpt lat="46.9382" lon="5.87722">
        <ele>343</ele>
        <time>2010-05-23T14:04:14Z</time>
      </trkpt>
      <trkpt lat="46.93798" lon="5.87716">
        <ele>343</ele>
        <time>2010-05-23T14:04:32Z</time>
      </trkpt>
      <trkpt lat="46.93792" lon="5.87715">
        <ele>343</ele>
        <time>2010-05-23T14:04:37Z</time>
      </trkpt>
      <trkpt lat="46.93787" lon="5.87715">
        <ele>343</ele>
        <time>2010-05-23T14:04:41Z</time>
      </trkpt>
      <trkpt lat="46.9378" lon="5.87715">
        <ele>343</ele>
        <time>2010-05-23T14:04:46Z</time>
      </trkpt>
      <trkpt lat="46.9377" lon="5.87715">
        <ele>344</ele>
        <time>2010-05-23T14:04:54Z</time>
      </trkpt>
      <trkpt lat="46.9375" lon="5.87707">
        <ele>344</ele>
        <time>2010-05-23T14:05:07Z</time>
      </trkpt>
      <trkpt lat="46.93748" lon="5.87708">
        <ele>345</ele>
        <time>2010-05-23T14:05:09Z</time>
      </trkpt>
      <trkpt lat="46.9374" lon="5.87715">
        <ele>345</ele>
        <time>2010-05-23T14:05:17Z</time>
      </trkpt>
      <trkpt lat="46.93729" lon="5.87715">
        <ele>346</ele>
        <time>2010-05-23T14:05:29Z</time>
      </trkpt>
      <trkpt lat="46.93713" lon="5.87722">
        <ele>346</ele>
        <time>2010-05-23T14:05:43Z</time>
      </trkpt>
      <trkpt lat="46.93707" lon="5.8772">
        <ele>346</ele>
        <time>2010-05-23T14:05:48Z</time>
      </trkpt>
      <trkpt lat="46.93697" lon="5.87721">
        <ele>346</ele>
        <time>2010-05-23T14:05:58Z</time>
      </trkpt>
      <trkpt lat="46.93671" lon="5.87741">
        <ele>348</ele>
        <time>2010-05-23T14:06:16Z</time>
      </trkpt>
      <trkpt lat="46.93648" lon="5.87743">
        <ele>348</ele>
        <time>2010-05-23T14:06:36Z</time>
      </trkpt>
      <trkpt lat="46.93626" lon="5.87744">
        <ele>348</ele>
        <time>2010-05-23T14:07:03Z</time>
      </trkpt>
      <trkpt lat="46.93615" lon="5.87739">
        <ele>348</ele>
        <time>2010-05-23T14:07:24Z</time>
      </trkpt>
      <trkpt lat="46.93585" lon="5.87743">
        <ele>348</ele>
        <time>2010-05-23T14:07:42Z</time>
      </trkpt>
      <trkpt lat="46.93537" lon="5.87762">
        <ele>353</ele>
        <time>2010-05-23T14:08:11Z</time>
      </trkpt>
      <trkpt lat="46.93497" lon="5.87776">
        <ele>352</ele>
        <time>2010-05-23T14:08:38Z</time>
      </trkpt>
      <trkpt lat="46.93483" lon="5.87777">
        <ele>352</ele>
        <time>2010-05-23T14:09:04Z</time>
      </trkpt>
      <trkpt lat="46.93457" lon="5.87759">
        <ele>351</ele>
        <time>2010-05-23T14:09:22Z</time>
      </trkpt>
      <trkpt lat="46.93429" lon="5.87775">
        <ele>351</ele>
        <time>2010-05-23T14:09:40Z</time>
      </trkpt>
      <trkpt lat="46.93408" lon="5.87782">
        <ele>350</ele>
        <time>2010-05-23T14:09:56Z</time>
      </trkpt>
      <trkpt lat="46.93386" lon="5.87797">
        <ele>351</ele>
        <time>2010-05-23T14:10:07Z</time>
      </trkpt>
      <trkpt lat="46.93356" lon="5.87808">
        <ele>350</ele>
        <time>2010-05-23T14:10:36Z</time>
      </trkpt>
      <trkpt lat="46.93356" lon="5.87808">
        <ele>350</ele>
        <time>2010-05-23T14:10:48Z</time>
      </trkpt>
      <trkpt lat="46.93351" lon="5.87807">
        <ele>350</ele>
        <time>2010-05-23T14:10:51Z</time>
      </trkpt>
      <trkpt lat="46.93342" lon="5.87801">
        <ele>350</ele>
        <time>2010-05-23T14:11:01Z</time>
      </trkpt>
      <trkpt lat="46.93325" lon="5.87799">
        <ele>350</ele>
        <time>2010-05-23T14:11:13Z</time>
      </trkpt>
      <trkpt lat="46.93322" lon="5.87798">
        <ele>350</ele>
        <time>2010-05-23T14:11:14Z</time>
      </trkpt>
      <trkpt lat="46.93291" lon="5.87822">
        <ele>349</ele>
        <time>2010-05-23T14:11:29Z</time>
      </trkpt>
      <trkpt lat="46.93271" lon="5.87854">
        <ele>349</ele>
        <time>2010-05-23T14:11:45Z</time>
      </trkpt>
      <trkpt lat="46.93262" lon="5.8787">
        <ele>349</ele>
        <time>2010-05-23T14:11:55Z</time>
      </trkpt>
      <trkpt lat="46.93253" lon="5.87888">
        <ele>349</ele>
        <time>2010-05-23T14:12:09Z</time>
      </trkpt>
      <trkpt lat="46.93242" lon="5.87912">
        <ele>349</ele>
        <time>2010-05-23T14:12:24Z</time>
      </trkpt>
      <trkpt lat="46.93232" lon="5.87931">
        <ele>350</ele>
        <time>2010-05-23T14:12:37Z</time>
      </trkpt>
      <trkpt lat="46.9323" lon="5.87938">
        <ele>350</ele>
        <time>2010-05-23T14:12:43Z</time>
      </trkpt>
    </trkseg>
  </trk>
</gpx>